<?xml version="1.0" encoding="UTF-8" standalone="no" ?>
<gpx xmlns="http://www.topografix.com/GPX/1/1" xmlns:xsi="http://www.w3.org/2001/XMLSchema-instance" xsi:schemaLocation="http://www.topografix.com/GPX/1/1 http://www.topografix.com/GPX/1/1/gpx.xsd" version="1.1" creator="VisuGPX - https://www.visugpx.com">
  <metadata>
    <name>Etang des Noues - 49300 CHOLET</name>
    <desc><![CDATA[
]]></desc>
  </metadata>
  <trk>
    <name><![CDATA[Etang des Noues - 49300 CHOLET_1]]></name>
    <trkseg>
      <trkpt lat="47.06704" lon="-0.81351">
        <ele>130.6</ele>
        <time>2020-02-26T13:09:51Z</time>
      </trkpt>
      <trkpt lat="47.06704" lon="-0.81351">
        <ele>201.642</ele>
        <time>2020-02-26T13:09:56Z</time>
      </trkpt>
      <trkpt lat="47.06706" lon="-0.81345">
        <ele>210.177</ele>
        <time>2020-02-26T13:09:57Z</time>
      </trkpt>
      <trkpt lat="47.0671" lon="-0.8134">
        <ele>200.565</ele>
        <time>2020-02-26T13:10:04Z</time>
      </trkpt>
      <trkpt lat="47.06712" lon="-0.81335">
        <ele>196.392</ele>
        <time>2020-02-26T13:10:09Z</time>
      </trkpt>
      <trkpt lat="47.06714" lon="-0.8133">
        <ele>195.076</ele>
        <time>2020-02-26T13:10:12Z</time>
      </trkpt>
      <trkpt lat="47.06716" lon="-0.81324">
        <ele>194.331</ele>
        <time>2020-02-26T13:10:16Z</time>
      </trkpt>
      <trkpt lat="47.06718" lon="-0.81321">
        <ele>194.781</ele>
        <time>2020-02-26T13:10:19Z</time>
      </trkpt>
      <trkpt lat="47.06719" lon="-0.8131">
        <ele>194.967</ele>
        <time>2020-02-26T13:10:25Z</time>
      </trkpt>
      <trkpt lat="47.0672" lon="-0.81306">
        <ele>194.968</ele>
        <time>2020-02-26T13:10:28Z</time>
      </trkpt>
      <trkpt lat="47.06719" lon="-0.81299">
        <ele>194.986</ele>
        <time>2020-02-26T13:10:33Z</time>
      </trkpt>
      <trkpt lat="47.06717" lon="-0.81293">
        <ele>194.976</ele>
        <time>2020-02-26T13:10:37Z</time>
      </trkpt>
      <trkpt lat="47.06718" lon="-0.81286">
        <ele>194.932</ele>
        <time>2020-02-26T13:10:41Z</time>
      </trkpt>
      <trkpt lat="47.0672" lon="-0.81278">
        <ele>194.873</ele>
        <time>2020-02-26T13:10:45Z</time>
      </trkpt>
      <trkpt lat="47.06721" lon="-0.81273">
        <ele>194.769</ele>
        <time>2020-02-26T13:10:50Z</time>
      </trkpt>
      <trkpt lat="47.06721" lon="-0.81269">
        <ele>194.674</ele>
        <time>2020-02-26T13:10:55Z</time>
      </trkpt>
      <trkpt lat="47.06725" lon="-0.81262">
        <ele>194.595</ele>
        <time>2020-02-26T13:11:00Z</time>
      </trkpt>
      <trkpt lat="47.06726" lon="-0.81259">
        <ele>194.565</ele>
        <time>2020-02-26T13:11:02Z</time>
      </trkpt>
      <trkpt lat="47.06729" lon="-0.81253">
        <ele>194.504</ele>
        <time>2020-02-26T13:11:06Z</time>
      </trkpt>
      <trkpt lat="47.06731" lon="-0.81249">
        <ele>194.46</ele>
        <time>2020-02-26T13:11:09Z</time>
      </trkpt>
      <trkpt lat="47.06734" lon="-0.81245">
        <ele>194.388</ele>
        <time>2020-02-26T13:11:14Z</time>
      </trkpt>
      <trkpt lat="47.06737" lon="-0.81238">
        <ele>194.296</ele>
        <time>2020-02-26T13:11:19Z</time>
      </trkpt>
      <trkpt lat="47.06741" lon="-0.8123">
        <ele>194.22</ele>
        <time>2020-02-26T13:11:22Z</time>
      </trkpt>
      <trkpt lat="47.06743" lon="-0.81227">
        <ele>194.164</ele>
        <time>2020-02-26T13:11:24Z</time>
      </trkpt>
      <trkpt lat="47.06745" lon="-0.81222">
        <ele>194.082</ele>
        <time>2020-02-26T13:11:27Z</time>
      </trkpt>
      <trkpt lat="47.06747" lon="-0.81216">
        <ele>193.983</ele>
        <time>2020-02-26T13:11:32Z</time>
      </trkpt>
      <trkpt lat="47.06747" lon="-0.81216">
        <ele>193.983</ele>
        <time>2020-02-26T13:11:39Z</time>
      </trkpt>
      <trkpt lat="47.06747" lon="-0.81216">
        <ele>129</ele>
        <time>2020-02-26T13:11:39Z</time>
      </trkpt>
      <trkpt lat="47.06749" lon="-0.81209">
        <ele>193.911</ele>
        <time>2020-02-26T13:11:53Z</time>
      </trkpt>
      <trkpt lat="47.06751" lon="-0.81205">
        <ele>193.885</ele>
        <time>2020-02-26T13:11:59Z</time>
      </trkpt>
      <trkpt lat="47.06753" lon="-0.81199">
        <ele>193.874</ele>
        <time>2020-02-26T13:12:03Z</time>
      </trkpt>
      <trkpt lat="47.06754" lon="-0.81194">
        <ele>193.871</ele>
        <time>2020-02-26T13:12:05Z</time>
      </trkpt>
      <trkpt lat="47.06755" lon="-0.81191">
        <ele>193.867</ele>
        <time>2020-02-26T13:12:07Z</time>
      </trkpt>
      <trkpt lat="47.0676" lon="-0.81186">
        <ele>193.848</ele>
        <time>2020-02-26T13:12:14Z</time>
      </trkpt>
      <trkpt lat="47.06764" lon="-0.8118">
        <ele>193.837</ele>
        <time>2020-02-26T13:12:18Z</time>
      </trkpt>
      <trkpt lat="47.06764" lon="-0.8118">
        <ele>128.5</ele>
        <time>2020-02-26T13:12:19Z</time>
      </trkpt>
      <trkpt lat="47.06767" lon="-0.81174">
        <ele>193.825</ele>
        <time>2020-02-26T13:12:23Z</time>
      </trkpt>
      <trkpt lat="47.06769" lon="-0.81166">
        <ele>193.82</ele>
        <time>2020-02-26T13:12:28Z</time>
      </trkpt>
      <trkpt lat="47.0677" lon="-0.81159">
        <ele>193.811</ele>
        <time>2020-02-26T13:12:33Z</time>
      </trkpt>
      <trkpt lat="47.06773" lon="-0.81154">
        <ele>193.794</ele>
        <time>2020-02-26T13:12:37Z</time>
      </trkpt>
      <trkpt lat="47.06775" lon="-0.81148">
        <ele>193.772</ele>
        <time>2020-02-26T13:12:41Z</time>
      </trkpt>
      <trkpt lat="47.0678" lon="-0.81141">
        <ele>193.744</ele>
        <time>2020-02-26T13:12:46Z</time>
      </trkpt>
      <trkpt lat="47.06783" lon="-0.81134">
        <ele>193.726</ele>
        <time>2020-02-26T13:12:50Z</time>
      </trkpt>
      <trkpt lat="47.06786" lon="-0.8113">
        <ele>193.72</ele>
        <time>2020-02-26T13:12:52Z</time>
      </trkpt>
      <trkpt lat="47.06787" lon="-0.81127">
        <ele>193.714</ele>
        <time>2020-02-26T13:12:54Z</time>
      </trkpt>
      <trkpt lat="47.06789" lon="-0.81123">
        <ele>193.705</ele>
        <time>2020-02-26T13:12:57Z</time>
      </trkpt>
      <trkpt lat="47.06792" lon="-0.81118">
        <ele>193.691</ele>
        <time>2020-02-26T13:13:02Z</time>
      </trkpt>
      <trkpt lat="47.06794" lon="-0.81114">
        <ele>193.682</ele>
        <time>2020-02-26T13:13:05Z</time>
      </trkpt>
      <trkpt lat="47.06796" lon="-0.81106">
        <ele>193.676</ele>
        <time>2020-02-26T13:13:10Z</time>
      </trkpt>
      <trkpt lat="47.06799" lon="-0.811">
        <ele>193.676</ele>
        <time>2020-02-26T13:13:13Z</time>
      </trkpt>
      <trkpt lat="47.068" lon="-0.81092">
        <ele>193.682</ele>
        <time>2020-02-26T13:13:17Z</time>
      </trkpt>
      <trkpt lat="47.06804" lon="-0.81086">
        <ele>193.691</ele>
        <time>2020-02-26T13:13:24Z</time>
      </trkpt>
      <trkpt lat="47.06809" lon="-0.81082">
        <ele>193.687</ele>
        <time>2020-02-26T13:13:28Z</time>
      </trkpt>
      <trkpt lat="47.06813" lon="-0.81078">
        <ele>193.679</ele>
        <time>2020-02-26T13:13:31Z</time>
      </trkpt>
      <trkpt lat="47.06817" lon="-0.81075">
        <ele>193.668</ele>
        <time>2020-02-26T13:13:35Z</time>
      </trkpt>
      <trkpt lat="47.06821" lon="-0.81068">
        <ele>193.651</ele>
        <time>2020-02-26T13:13:40Z</time>
      </trkpt>
      <trkpt lat="47.06823" lon="-0.81062">
        <ele>193.65</ele>
        <time>2020-02-26T13:13:41Z</time>
      </trkpt>
      <trkpt lat="47.06826" lon="-0.81054">
        <ele>193.654</ele>
        <time>2020-02-26T13:13:46Z</time>
      </trkpt>
      <trkpt lat="47.06827" lon="-0.81048">
        <ele>193.662</ele>
        <time>2020-02-26T13:13:50Z</time>
      </trkpt>
      <trkpt lat="47.06829" lon="-0.81042">
        <ele>193.669</ele>
        <time>2020-02-26T13:13:55Z</time>
      </trkpt>
      <trkpt lat="47.06834" lon="-0.81037">
        <ele>193.669</ele>
        <time>2020-02-26T13:14:00Z</time>
      </trkpt>
      <trkpt lat="47.06836" lon="-0.81032">
        <ele>193.669</ele>
        <time>2020-02-26T13:14:04Z</time>
      </trkpt>
      <trkpt lat="47.06839" lon="-0.81027">
        <ele>193.674</ele>
        <time>2020-02-26T13:14:08Z</time>
      </trkpt>
      <trkpt lat="47.06841" lon="-0.8102">
        <ele>193.679</ele>
        <time>2020-02-26T13:14:11Z</time>
      </trkpt>
      <trkpt lat="47.06844" lon="-0.81011">
        <ele>193.685</ele>
        <time>2020-02-26T13:14:16Z</time>
      </trkpt>
      <trkpt lat="47.06845" lon="-0.81008">
        <ele>193.687</ele>
        <time>2020-02-26T13:14:18Z</time>
      </trkpt>
      <trkpt lat="47.06847" lon="-0.81003">
        <ele>193.69</ele>
        <time>2020-02-26T13:14:20Z</time>
      </trkpt>
      <trkpt lat="47.06848" lon="-0.80994">
        <ele>193.698</ele>
        <time>2020-02-26T13:14:24Z</time>
      </trkpt>
      <trkpt lat="47.06851" lon="-0.80988">
        <ele>193.708</ele>
        <time>2020-02-26T13:14:32Z</time>
      </trkpt>
      <trkpt lat="47.06855" lon="-0.80983">
        <ele>193.706</ele>
        <time>2020-02-26T13:14:36Z</time>
      </trkpt>
      <trkpt lat="47.06858" lon="-0.80979">
        <ele>193.703</ele>
        <time>2020-02-26T13:14:39Z</time>
      </trkpt>
      <trkpt lat="47.06862" lon="-0.80973">
        <ele>193.702</ele>
        <time>2020-02-26T13:14:43Z</time>
      </trkpt>
      <trkpt lat="47.06863" lon="-0.80965">
        <ele>193.707</ele>
        <time>2020-02-26T13:14:45Z</time>
      </trkpt>
      <trkpt lat="47.06866" lon="-0.80959">
        <ele>193.723</ele>
        <time>2020-02-26T13:14:49Z</time>
      </trkpt>
      <trkpt lat="47.0687" lon="-0.80954">
        <ele>193.737</ele>
        <time>2020-02-26T13:14:52Z</time>
      </trkpt>
      <trkpt lat="47.06874" lon="-0.80948">
        <ele>193.748</ele>
        <time>2020-02-26T13:14:55Z</time>
      </trkpt>
      <trkpt lat="47.06878" lon="-0.80944">
        <ele>193.758</ele>
        <time>2020-02-26T13:14:57Z</time>
      </trkpt>
      <trkpt lat="47.06882" lon="-0.8094">
        <ele>193.775</ele>
        <time>2020-02-26T13:15:00Z</time>
      </trkpt>
      <trkpt lat="47.06886" lon="-0.80936">
        <ele>193.794</ele>
        <time>2020-02-26T13:15:04Z</time>
      </trkpt>
      <trkpt lat="47.06889" lon="-0.80932">
        <ele>193.811</ele>
        <time>2020-02-26T13:15:09Z</time>
      </trkpt>
      <trkpt lat="47.06893" lon="-0.80922">
        <ele>193.83</ele>
        <time>2020-02-26T13:15:16Z</time>
      </trkpt>
      <trkpt lat="47.06896" lon="-0.80917">
        <ele>193.838</ele>
        <time>2020-02-26T13:15:19Z</time>
      </trkpt>
      <trkpt lat="47.069" lon="-0.80911">
        <ele>193.847</ele>
        <time>2020-02-26T13:15:22Z</time>
      </trkpt>
      <trkpt lat="47.06904" lon="-0.80908">
        <ele>193.856</ele>
        <time>2020-02-26T13:15:26Z</time>
      </trkpt>
      <trkpt lat="47.06907" lon="-0.80903">
        <ele>193.863</ele>
        <time>2020-02-26T13:15:30Z</time>
      </trkpt>
      <trkpt lat="47.06911" lon="-0.80898">
        <ele>193.868</ele>
        <time>2020-02-26T13:15:34Z</time>
      </trkpt>
      <trkpt lat="47.06915" lon="-0.80892">
        <ele>193.869</ele>
        <time>2020-02-26T13:15:37Z</time>
      </trkpt>
      <trkpt lat="47.0692" lon="-0.80887">
        <ele>193.871</ele>
        <time>2020-02-26T13:15:41Z</time>
      </trkpt>
      <trkpt lat="47.06921" lon="-0.8088">
        <ele>193.876</ele>
        <time>2020-02-26T13:15:43Z</time>
      </trkpt>
      <trkpt lat="47.06921" lon="-0.80873">
        <ele>193.886</ele>
        <time>2020-02-26T13:15:46Z</time>
      </trkpt>
      <trkpt lat="47.06924" lon="-0.80867">
        <ele>193.9</ele>
        <time>2020-02-26T13:15:50Z</time>
      </trkpt>
      <trkpt lat="47.06925" lon="-0.80864">
        <ele>193.905</ele>
        <time>2020-02-26T13:15:52Z</time>
      </trkpt>
      <trkpt lat="47.06925" lon="-0.80856">
        <ele>193.916</ele>
        <time>2020-02-26T13:15:55Z</time>
      </trkpt>
      <trkpt lat="47.06925" lon="-0.80847">
        <ele>193.932</ele>
        <time>2020-02-26T13:15:57Z</time>
      </trkpt>
      <trkpt lat="47.06926" lon="-0.80836">
        <ele>193.966</ele>
        <time>2020-02-26T13:16:00Z</time>
      </trkpt>
      <trkpt lat="47.06929" lon="-0.8083">
        <ele>194.02</ele>
        <time>2020-02-26T13:16:04Z</time>
      </trkpt>
      <trkpt lat="47.06931" lon="-0.80824">
        <ele>194.078</ele>
        <time>2020-02-26T13:16:08Z</time>
      </trkpt>
      <trkpt lat="47.06935" lon="-0.80818">
        <ele>194.133</ele>
        <time>2020-02-26T13:16:12Z</time>
      </trkpt>
      <trkpt lat="47.06938" lon="-0.80811">
        <ele>194.199</ele>
        <time>2020-02-26T13:16:17Z</time>
      </trkpt>
      <trkpt lat="47.06942" lon="-0.80806">
        <ele>194.256</ele>
        <time>2020-02-26T13:16:23Z</time>
      </trkpt>
      <trkpt lat="47.06944" lon="-0.80801">
        <ele>194.289</ele>
        <time>2020-02-26T13:16:26Z</time>
      </trkpt>
      <trkpt lat="47.06949" lon="-0.80797">
        <ele>194.319</ele>
        <time>2020-02-26T13:16:29Z</time>
      </trkpt>
      <trkpt lat="47.06951" lon="-0.80789">
        <ele>194.347</ele>
        <time>2020-02-26T13:16:32Z</time>
      </trkpt>
      <trkpt lat="47.06954" lon="-0.80782">
        <ele>194.377</ele>
        <time>2020-02-26T13:16:35Z</time>
      </trkpt>
      <trkpt lat="47.06955" lon="-0.80779">
        <ele>194.399</ele>
        <time>2020-02-26T13:16:37Z</time>
      </trkpt>
      <trkpt lat="47.06959" lon="-0.80774">
        <ele>194.443</ele>
        <time>2020-02-26T13:16:41Z</time>
      </trkpt>
      <trkpt lat="47.06963" lon="-0.80771">
        <ele>194.477</ele>
        <time>2020-02-26T13:16:44Z</time>
      </trkpt>
      <trkpt lat="47.06966" lon="-0.80768">
        <ele>194.511</ele>
        <time>2020-02-26T13:16:47Z</time>
      </trkpt>
      <trkpt lat="47.0697" lon="-0.80763">
        <ele>194.544</ele>
        <time>2020-02-26T13:16:50Z</time>
      </trkpt>
      <trkpt lat="47.06974" lon="-0.80759">
        <ele>194.574</ele>
        <time>2020-02-26T13:16:53Z</time>
      </trkpt>
      <trkpt lat="47.06978" lon="-0.80754">
        <ele>194.636</ele>
        <time>2020-02-26T13:17:00Z</time>
      </trkpt>
      <trkpt lat="47.06983" lon="-0.80752">
        <ele>194.666</ele>
        <time>2020-02-26T13:17:03Z</time>
      </trkpt>
      <trkpt lat="47.06987" lon="-0.8075">
        <ele>194.695</ele>
        <time>2020-02-26T13:17:06Z</time>
      </trkpt>
      <trkpt lat="47.06992" lon="-0.80746">
        <ele>194.737</ele>
        <time>2020-02-26T13:17:11Z</time>
      </trkpt>
      <trkpt lat="47.06996" lon="-0.80743">
        <ele>194.759</ele>
        <time>2020-02-26T13:17:14Z</time>
      </trkpt>
      <trkpt lat="47.07" lon="-0.80741">
        <ele>194.779</ele>
        <time>2020-02-26T13:17:18Z</time>
      </trkpt>
      <trkpt lat="47.07004" lon="-0.80736">
        <ele>194.801</ele>
        <time>2020-02-26T13:17:24Z</time>
      </trkpt>
      <trkpt lat="47.07008" lon="-0.80734">
        <ele>194.811</ele>
        <time>2020-02-26T13:17:28Z</time>
      </trkpt>
      <trkpt lat="47.07012" lon="-0.80732">
        <ele>194.814</ele>
        <time>2020-02-26T13:17:31Z</time>
      </trkpt>
      <trkpt lat="47.07015" lon="-0.8073">
        <ele>194.815</ele>
        <time>2020-02-26T13:17:34Z</time>
      </trkpt>
      <trkpt lat="47.07019" lon="-0.80727">
        <ele>194.813</ele>
        <time>2020-02-26T13:17:38Z</time>
      </trkpt>
      <trkpt lat="47.07023" lon="-0.80724">
        <ele>194.807</ele>
        <time>2020-02-26T13:17:42Z</time>
      </trkpt>
      <trkpt lat="47.07028" lon="-0.80719">
        <ele>194.793</ele>
        <time>2020-02-26T13:17:47Z</time>
      </trkpt>
      <trkpt lat="47.07033" lon="-0.80717">
        <ele>194.772</ele>
        <time>2020-02-26T13:17:52Z</time>
      </trkpt>
      <trkpt lat="47.07035" lon="-0.80716">
        <ele>194.762</ele>
        <time>2020-02-26T13:17:54Z</time>
      </trkpt>
      <trkpt lat="47.07036" lon="-0.80707">
        <ele>194.747</ele>
        <time>2020-02-26T13:17:58Z</time>
      </trkpt>
      <trkpt lat="47.07041" lon="-0.80702">
        <ele>194.743</ele>
        <time>2020-02-26T13:18:01Z</time>
      </trkpt>
      <trkpt lat="47.07047" lon="-0.80701">
        <ele>194.735</ele>
        <time>2020-02-26T13:18:05Z</time>
      </trkpt>
      <trkpt lat="47.07051" lon="-0.80694">
        <ele>194.728</ele>
        <time>2020-02-26T13:18:10Z</time>
      </trkpt>
      <trkpt lat="47.07054" lon="-0.8069">
        <ele>194.726</ele>
        <time>2020-02-26T13:18:12Z</time>
      </trkpt>
      <trkpt lat="47.07058" lon="-0.80678">
        <ele>194.733</ele>
        <time>2020-02-26T13:18:17Z</time>
      </trkpt>
      <trkpt lat="47.0706" lon="-0.80675">
        <ele>194.737</ele>
        <time>2020-02-26T13:18:22Z</time>
      </trkpt>
      <trkpt lat="47.07061" lon="-0.80672">
        <ele>194.739</ele>
        <time>2020-02-26T13:18:24Z</time>
      </trkpt>
      <trkpt lat="47.07066" lon="-0.80662">
        <ele>194.74</ele>
        <time>2020-02-26T13:18:28Z</time>
      </trkpt>
      <trkpt lat="47.07066" lon="-0.80662">
        <ele>194.74</ele>
        <time>2020-02-26T13:18:36Z</time>
      </trkpt>
      <trkpt lat="47.07066" lon="-0.80662">
        <ele>132.8</ele>
        <time>2020-02-26T13:18:36Z</time>
      </trkpt>
      <trkpt lat="47.07066" lon="-0.80662">
        <ele>132.8</ele>
        <time>2020-02-26T13:18:38Z</time>
      </trkpt>
      <trkpt lat="47.07076" lon="-0.80653">
        <ele>194.733</ele>
        <time>2020-02-26T13:18:38Z</time>
      </trkpt>
      <trkpt lat="47.0708" lon="-0.80648">
        <ele>194.726</ele>
        <time>2020-02-26T13:18:44Z</time>
      </trkpt>
      <trkpt lat="47.07084" lon="-0.80644">
        <ele>194.724</ele>
        <time>2020-02-26T13:18:47Z</time>
      </trkpt>
      <trkpt lat="47.07088" lon="-0.80639">
        <ele>194.725</ele>
        <time>2020-02-26T13:18:52Z</time>
      </trkpt>
      <trkpt lat="47.0709" lon="-0.80636">
        <ele>194.726</ele>
        <time>2020-02-26T13:18:53Z</time>
      </trkpt>
      <trkpt lat="47.0709" lon="-0.80636">
        <ele>132.8</ele>
        <time>2020-02-26T13:18:58Z</time>
      </trkpt>
      <trkpt lat="47.0709" lon="-0.80636">
        <ele>132.8</ele>
        <time>2020-02-26T13:19:03Z</time>
      </trkpt>
      <trkpt lat="47.07095" lon="-0.80626">
        <ele>194.731</ele>
        <time>2020-02-26T13:19:03Z</time>
      </trkpt>
      <trkpt lat="47.07098" lon="-0.80622">
        <ele>194.732</ele>
        <time>2020-02-26T13:19:07Z</time>
      </trkpt>
      <trkpt lat="47.07104" lon="-0.80618">
        <ele>194.729</ele>
        <time>2020-02-26T13:19:10Z</time>
      </trkpt>
      <trkpt lat="47.0711" lon="-0.80611">
        <ele>194.726</ele>
        <time>2020-02-26T13:19:12Z</time>
      </trkpt>
      <trkpt lat="47.07116" lon="-0.80605">
        <ele>194.722</ele>
        <time>2020-02-26T13:19:14Z</time>
      </trkpt>
      <trkpt lat="47.0712" lon="-0.80602">
        <ele>194.716</ele>
        <time>2020-02-26T13:19:16Z</time>
      </trkpt>
      <trkpt lat="47.07123" lon="-0.806">
        <ele>194.709</ele>
        <time>2020-02-26T13:19:18Z</time>
      </trkpt>
      <trkpt lat="47.07126" lon="-0.80595">
        <ele>194.696</ele>
        <time>2020-02-26T13:19:22Z</time>
      </trkpt>
      <trkpt lat="47.07128" lon="-0.80592">
        <ele>194.69</ele>
        <time>2020-02-26T13:19:24Z</time>
      </trkpt>
      <trkpt lat="47.07131" lon="-0.80588">
        <ele>194.681</ele>
        <time>2020-02-26T13:19:27Z</time>
      </trkpt>
      <trkpt lat="47.07135" lon="-0.80584">
        <ele>194.667</ele>
        <time>2020-02-26T13:19:31Z</time>
      </trkpt>
      <trkpt lat="47.07137" lon="-0.80581">
        <ele>194.66</ele>
        <time>2020-02-26T13:19:33Z</time>
      </trkpt>
      <trkpt lat="47.07141" lon="-0.80575">
        <ele>194.649</ele>
        <time>2020-02-26T13:19:36Z</time>
      </trkpt>
      <trkpt lat="47.07145" lon="-0.8057">
        <ele>194.636</ele>
        <time>2020-02-26T13:19:39Z</time>
      </trkpt>
      <trkpt lat="47.07148" lon="-0.80566">
        <ele>194.621</ele>
        <time>2020-02-26T13:19:43Z</time>
      </trkpt>
      <trkpt lat="47.07152" lon="-0.80562">
        <ele>194.604</ele>
        <time>2020-02-26T13:19:46Z</time>
      </trkpt>
      <trkpt lat="47.07155" lon="-0.80556">
        <ele>194.591</ele>
        <time>2020-02-26T13:19:49Z</time>
      </trkpt>
      <trkpt lat="47.07159" lon="-0.80552">
        <ele>194.579</ele>
        <time>2020-02-26T13:19:52Z</time>
      </trkpt>
      <trkpt lat="47.07162" lon="-0.80548">
        <ele>194.573</ele>
        <time>2020-02-26T13:19:54Z</time>
      </trkpt>
      <trkpt lat="47.07167" lon="-0.80541">
        <ele>194.564</ele>
        <time>2020-02-26T13:19:58Z</time>
      </trkpt>
      <trkpt lat="47.07169" lon="-0.80539">
        <ele>194.562</ele>
        <time>2020-02-26T13:19:59Z</time>
      </trkpt>
      <trkpt lat="47.07171" lon="-0.80534">
        <ele>194.558</ele>
        <time>2020-02-26T13:20:02Z</time>
      </trkpt>
      <trkpt lat="47.07176" lon="-0.80531">
        <ele>194.553</ele>
        <time>2020-02-26T13:20:06Z</time>
      </trkpt>
      <trkpt lat="47.0718" lon="-0.80528">
        <ele>194.55</ele>
        <time>2020-02-26T13:20:11Z</time>
      </trkpt>
      <trkpt lat="47.07184" lon="-0.80523">
        <ele>194.539</ele>
        <time>2020-02-26T13:20:17Z</time>
      </trkpt>
      <trkpt lat="47.07188" lon="-0.8052">
        <ele>194.531</ele>
        <time>2020-02-26T13:20:20Z</time>
      </trkpt>
      <trkpt lat="47.0719" lon="-0.80519">
        <ele>194.526</ele>
        <time>2020-02-26T13:20:22Z</time>
      </trkpt>
      <trkpt lat="47.07194" lon="-0.80514">
        <ele>194.514</ele>
        <time>2020-02-26T13:20:26Z</time>
      </trkpt>
      <trkpt lat="47.07196" lon="-0.80507">
        <ele>194.506</ele>
        <time>2020-02-26T13:20:29Z</time>
      </trkpt>
      <trkpt lat="47.07197" lon="-0.80503">
        <ele>194.501</ele>
        <time>2020-02-26T13:20:31Z</time>
      </trkpt>
      <trkpt lat="47.07199" lon="-0.805">
        <ele>194.495</ele>
        <time>2020-02-26T13:20:33Z</time>
      </trkpt>
      <trkpt lat="47.072" lon="-0.80496">
        <ele>194.493</ele>
        <time>2020-02-26T13:20:34Z</time>
      </trkpt>
      <trkpt lat="47.07201" lon="-0.80489">
        <ele>194.488</ele>
        <time>2020-02-26T13:20:37Z</time>
      </trkpt>
      <trkpt lat="47.072" lon="-0.8048">
        <ele>194.482</ele>
        <time>2020-02-26T13:20:40Z</time>
      </trkpt>
      <trkpt lat="47.07201" lon="-0.80471">
        <ele>194.481</ele>
        <time>2020-02-26T13:20:42Z</time>
      </trkpt>
      <trkpt lat="47.07203" lon="-0.80463">
        <ele>194.48</ele>
        <time>2020-02-26T13:20:45Z</time>
      </trkpt>
      <trkpt lat="47.07204" lon="-0.80459">
        <ele>194.48</ele>
        <time>2020-02-26T13:20:48Z</time>
      </trkpt>
      <trkpt lat="47.07206" lon="-0.80454">
        <ele>194.48</ele>
        <time>2020-02-26T13:20:51Z</time>
      </trkpt>
      <trkpt lat="47.07206" lon="-0.80454">
        <ele>132.1</ele>
        <time>2020-02-26T13:20:59Z</time>
      </trkpt>
      <trkpt lat="47.07206" lon="-0.80454">
        <ele>132.1</ele>
        <time>2020-02-26T13:21:05Z</time>
      </trkpt>
      <trkpt lat="47.07203" lon="-0.80424">
        <ele>194.507</ele>
        <time>2020-02-26T13:21:05Z</time>
      </trkpt>
      <trkpt lat="47.07202" lon="-0.80417">
        <ele>194.524</ele>
        <time>2020-02-26T13:21:08Z</time>
      </trkpt>
      <trkpt lat="47.07203" lon="-0.8041">
        <ele>194.548</ele>
        <time>2020-02-26T13:21:12Z</time>
      </trkpt>
      <trkpt lat="47.07204" lon="-0.80403">
        <ele>194.567</ele>
        <time>2020-02-26T13:21:15Z</time>
      </trkpt>
      <trkpt lat="47.07205" lon="-0.80396">
        <ele>194.589</ele>
        <time>2020-02-26T13:21:19Z</time>
      </trkpt>
      <trkpt lat="47.07204" lon="-0.80389">
        <ele>194.605</ele>
        <time>2020-02-26T13:21:22Z</time>
      </trkpt>
      <trkpt lat="47.07204" lon="-0.80382">
        <ele>194.628</ele>
        <time>2020-02-26T13:21:27Z</time>
      </trkpt>
      <trkpt lat="47.07204" lon="-0.80378">
        <ele>194.633</ele>
        <time>2020-02-26T13:21:28Z</time>
      </trkpt>
      <trkpt lat="47.07204" lon="-0.80375">
        <ele>194.639</ele>
        <time>2020-02-26T13:21:29Z</time>
      </trkpt>
      <trkpt lat="47.07205" lon="-0.80367">
        <ele>194.657</ele>
        <time>2020-02-26T13:21:32Z</time>
      </trkpt>
      <trkpt lat="47.07206" lon="-0.80358">
        <ele>194.678</ele>
        <time>2020-02-26T13:21:35Z</time>
      </trkpt>
      <trkpt lat="47.07206" lon="-0.80354">
        <ele>194.705</ele>
        <time>2020-02-26T13:21:39Z</time>
      </trkpt>
      <trkpt lat="47.07208" lon="-0.80346">
        <ele>194.723</ele>
        <time>2020-02-26T13:21:42Z</time>
      </trkpt>
      <trkpt lat="47.07208" lon="-0.80341">
        <ele>194.734</ele>
        <time>2020-02-26T13:21:44Z</time>
      </trkpt>
      <trkpt lat="47.07206" lon="-0.80334">
        <ele>194.757</ele>
        <time>2020-02-26T13:21:49Z</time>
      </trkpt>
      <trkpt lat="47.07205" lon="-0.8033">
        <ele>194.769</ele>
        <time>2020-02-26T13:21:52Z</time>
      </trkpt>
      <trkpt lat="47.07204" lon="-0.80322">
        <ele>194.785</ele>
        <time>2020-02-26T13:21:56Z</time>
      </trkpt>
      <trkpt lat="47.07204" lon="-0.80314">
        <ele>194.796</ele>
        <time>2020-02-26T13:21:59Z</time>
      </trkpt>
      <trkpt lat="47.07205" lon="-0.80307">
        <ele>194.809</ele>
        <time>2020-02-26T13:22:03Z</time>
      </trkpt>
      <trkpt lat="47.07205" lon="-0.803">
        <ele>194.828</ele>
        <time>2020-02-26T13:22:08Z</time>
      </trkpt>
      <trkpt lat="47.07205" lon="-0.80296">
        <ele>194.836</ele>
        <time>2020-02-26T13:22:10Z</time>
      </trkpt>
      <trkpt lat="47.07206" lon="-0.80289">
        <ele>194.848</ele>
        <time>2020-02-26T13:22:13Z</time>
      </trkpt>
      <trkpt lat="47.07206" lon="-0.80281">
        <ele>194.864</ele>
        <time>2020-02-26T13:22:18Z</time>
      </trkpt>
      <trkpt lat="47.07207" lon="-0.80274">
        <ele>194.874</ele>
        <time>2020-02-26T13:22:22Z</time>
      </trkpt>
      <trkpt lat="47.07208" lon="-0.80269">
        <ele>194.879</ele>
        <time>2020-02-26T13:22:25Z</time>
      </trkpt>
      <trkpt lat="47.07208" lon="-0.80259">
        <ele>194.891</ele>
        <time>2020-02-26T13:22:30Z</time>
      </trkpt>
      <trkpt lat="47.07208" lon="-0.80256">
        <ele>194.897</ele>
        <time>2020-02-26T13:22:32Z</time>
      </trkpt>
      <trkpt lat="47.0721" lon="-0.80249">
        <ele>194.907</ele>
        <time>2020-02-26T13:22:35Z</time>
      </trkpt>
      <trkpt lat="47.07209" lon="-0.80241">
        <ele>194.931</ele>
        <time>2020-02-26T13:22:40Z</time>
      </trkpt>
      <trkpt lat="47.07208" lon="-0.80235">
        <ele>194.947</ele>
        <time>2020-02-26T13:22:43Z</time>
      </trkpt>
      <trkpt lat="47.07208" lon="-0.80227">
        <ele>194.963</ele>
        <time>2020-02-26T13:22:46Z</time>
      </trkpt>
      <trkpt lat="47.07208" lon="-0.80222">
        <ele>194.979</ele>
        <time>2020-02-26T13:22:49Z</time>
      </trkpt>
      <trkpt lat="47.07207" lon="-0.80213">
        <ele>194.997</ele>
        <time>2020-02-26T13:22:53Z</time>
      </trkpt>
      <trkpt lat="47.07207" lon="-0.80205">
        <ele>195.007</ele>
        <time>2020-02-26T13:22:55Z</time>
      </trkpt>
      <trkpt lat="47.07207" lon="-0.802">
        <ele>195.014</ele>
        <time>2020-02-26T13:22:57Z</time>
      </trkpt>
      <trkpt lat="47.07207" lon="-0.80193">
        <ele>195.035</ele>
        <time>2020-02-26T13:23:03Z</time>
      </trkpt>
      <trkpt lat="47.07208" lon="-0.80185">
        <ele>195.05</ele>
        <time>2020-02-26T13:23:07Z</time>
      </trkpt>
      <trkpt lat="47.0721" lon="-0.80179">
        <ele>195.059</ele>
        <time>2020-02-26T13:23:10Z</time>
      </trkpt>
      <trkpt lat="47.07211" lon="-0.80171">
        <ele>195.069</ele>
        <time>2020-02-26T13:23:13Z</time>
      </trkpt>
      <trkpt lat="47.07212" lon="-0.80166">
        <ele>195.078</ele>
        <time>2020-02-26T13:23:15Z</time>
      </trkpt>
      <trkpt lat="47.07211" lon="-0.8016">
        <ele>195.102</ele>
        <time>2020-02-26T13:23:19Z</time>
      </trkpt>
      <trkpt lat="47.07214" lon="-0.80151">
        <ele>195.135</ele>
        <time>2020-02-26T13:23:24Z</time>
      </trkpt>
      <trkpt lat="47.07214" lon="-0.80144">
        <ele>195.164</ele>
        <time>2020-02-26T13:23:29Z</time>
      </trkpt>
      <trkpt lat="47.07215" lon="-0.80134">
        <ele>195.19</ele>
        <time>2020-02-26T13:23:33Z</time>
      </trkpt>
      <trkpt lat="47.07213" lon="-0.80128">
        <ele>195.215</ele>
        <time>2020-02-26T13:23:36Z</time>
      </trkpt>
      <trkpt lat="47.07215" lon="-0.80121">
        <ele>195.247</ele>
        <time>2020-02-26T13:23:40Z</time>
      </trkpt>
      <trkpt lat="47.07215" lon="-0.80112">
        <ele>195.283</ele>
        <time>2020-02-26T13:23:45Z</time>
      </trkpt>
      <trkpt lat="47.07215" lon="-0.80102">
        <ele>195.316</ele>
        <time>2020-02-26T13:23:50Z</time>
      </trkpt>
      <trkpt lat="47.07215" lon="-0.80093">
        <ele>195.336</ele>
        <time>2020-02-26T13:23:53Z</time>
      </trkpt>
      <trkpt lat="47.07215" lon="-0.80082">
        <ele>195.393</ele>
        <time>2020-02-26T13:24:01Z</time>
      </trkpt>
      <trkpt lat="47.07216" lon="-0.80074">
        <ele>195.419</ele>
        <time>2020-02-26T13:24:05Z</time>
      </trkpt>
      <trkpt lat="47.07215" lon="-0.80066">
        <ele>195.443</ele>
        <time>2020-02-26T13:24:09Z</time>
      </trkpt>
      <trkpt lat="47.07215" lon="-0.80062">
        <ele>195.454</ele>
        <time>2020-02-26T13:24:11Z</time>
      </trkpt>
      <trkpt lat="47.07215" lon="-0.80058">
        <ele>195.466</ele>
        <time>2020-02-26T13:24:13Z</time>
      </trkpt>
      <trkpt lat="47.07214" lon="-0.8005">
        <ele>195.491</ele>
        <time>2020-02-26T13:24:18Z</time>
      </trkpt>
      <trkpt lat="47.07213" lon="-0.80041">
        <ele>195.508</ele>
        <time>2020-02-26T13:24:22Z</time>
      </trkpt>
      <trkpt lat="47.07212" lon="-0.8003">
        <ele>195.519</ele>
        <time>2020-02-26T13:24:24Z</time>
      </trkpt>
      <trkpt lat="47.07212" lon="-0.80024">
        <ele>195.531</ele>
        <time>2020-02-26T13:24:26Z</time>
      </trkpt>
      <trkpt lat="47.07213" lon="-0.80016">
        <ele>195.552</ele>
        <time>2020-02-26T13:24:29Z</time>
      </trkpt>
      <trkpt lat="47.07216" lon="-0.80007">
        <ele>195.584</ele>
        <time>2020-02-26T13:24:33Z</time>
      </trkpt>
      <trkpt lat="47.07216" lon="-0.8">
        <ele>195.62</ele>
        <time>2020-02-26T13:24:37Z</time>
      </trkpt>
      <trkpt lat="47.07215" lon="-0.79993">
        <ele>195.664</ele>
        <time>2020-02-26T13:24:42Z</time>
      </trkpt>
      <trkpt lat="47.07216" lon="-0.79985">
        <ele>195.71</ele>
        <time>2020-02-26T13:24:47Z</time>
      </trkpt>
      <trkpt lat="47.07216" lon="-0.79981">
        <ele>195.736</ele>
        <time>2020-02-26T13:24:50Z</time>
      </trkpt>
      <trkpt lat="47.07218" lon="-0.79974">
        <ele>195.759</ele>
        <time>2020-02-26T13:24:53Z</time>
      </trkpt>
      <trkpt lat="47.07218" lon="-0.79974">
        <ele>142</ele>
        <time>2020-02-26T13:25:00Z</time>
      </trkpt>
      <trkpt lat="47.07218" lon="-0.79974">
        <ele>142</ele>
        <time>2020-02-26T13:25:05Z</time>
      </trkpt>
      <trkpt lat="47.07217" lon="-0.79961">
        <ele>195.85</ele>
        <time>2020-02-26T13:25:05Z</time>
      </trkpt>
      <trkpt lat="47.07217" lon="-0.79947">
        <ele>195.878</ele>
        <time>2020-02-26T13:25:08Z</time>
      </trkpt>
      <trkpt lat="47.07213" lon="-0.79939">
        <ele>195.897</ele>
        <time>2020-02-26T13:25:10Z</time>
      </trkpt>
      <trkpt lat="47.07211" lon="-0.79931">
        <ele>195.925</ele>
        <time>2020-02-26T13:25:13Z</time>
      </trkpt>
      <trkpt lat="47.07211" lon="-0.79927">
        <ele>195.936</ele>
        <time>2020-02-26T13:25:14Z</time>
      </trkpt>
      <trkpt lat="47.07211" lon="-0.79921">
        <ele>195.976</ele>
        <time>2020-02-26T13:25:18Z</time>
      </trkpt>
      <trkpt lat="47.07212" lon="-0.79913">
        <ele>196.012</ele>
        <time>2020-02-26T13:25:22Z</time>
      </trkpt>
      <trkpt lat="47.07213" lon="-0.79906">
        <ele>196.037</ele>
        <time>2020-02-26T13:25:25Z</time>
      </trkpt>
      <trkpt lat="47.07213" lon="-0.79898">
        <ele>196.068</ele>
        <time>2020-02-26T13:25:29Z</time>
      </trkpt>
      <trkpt lat="47.07211" lon="-0.79891">
        <ele>196.084</ele>
        <time>2020-02-26T13:25:31Z</time>
      </trkpt>
      <trkpt lat="47.07214" lon="-0.79883">
        <ele>196.113</ele>
        <time>2020-02-26T13:25:35Z</time>
      </trkpt>
      <trkpt lat="47.07213" lon="-0.79877">
        <ele>196.164</ele>
        <time>2020-02-26T13:25:42Z</time>
      </trkpt>
      <trkpt lat="47.07213" lon="-0.79868">
        <ele>196.184</ele>
        <time>2020-02-26T13:25:45Z</time>
      </trkpt>
      <trkpt lat="47.07214" lon="-0.79861">
        <ele>196.202</ele>
        <time>2020-02-26T13:25:48Z</time>
      </trkpt>
      <trkpt lat="47.07214" lon="-0.79858">
        <ele>196.213</ele>
        <time>2020-02-26T13:25:50Z</time>
      </trkpt>
      <trkpt lat="47.07213" lon="-0.79849">
        <ele>196.23</ele>
        <time>2020-02-26T13:25:53Z</time>
      </trkpt>
      <trkpt lat="47.07214" lon="-0.79842">
        <ele>196.243</ele>
        <time>2020-02-26T13:25:55Z</time>
      </trkpt>
      <trkpt lat="47.07214" lon="-0.79837">
        <ele>196.257</ele>
        <time>2020-02-26T13:25:57Z</time>
      </trkpt>
      <trkpt lat="47.07217" lon="-0.79831">
        <ele>196.276</ele>
        <time>2020-02-26T13:26:00Z</time>
      </trkpt>
      <trkpt lat="47.07218" lon="-0.79823">
        <ele>196.304</ele>
        <time>2020-02-26T13:26:04Z</time>
      </trkpt>
      <trkpt lat="47.07218" lon="-0.79815">
        <ele>196.343</ele>
        <time>2020-02-26T13:26:09Z</time>
      </trkpt>
      <trkpt lat="47.07219" lon="-0.7981">
        <ele>196.366</ele>
        <time>2020-02-26T13:26:12Z</time>
      </trkpt>
      <trkpt lat="47.0722" lon="-0.79802">
        <ele>196.4</ele>
        <time>2020-02-26T13:26:16Z</time>
      </trkpt>
      <trkpt lat="47.07221" lon="-0.79795">
        <ele>196.428</ele>
        <time>2020-02-26T13:26:19Z</time>
      </trkpt>
      <trkpt lat="47.07221" lon="-0.79787">
        <ele>196.467</ele>
        <time>2020-02-26T13:26:23Z</time>
      </trkpt>
      <trkpt lat="47.07222" lon="-0.7978">
        <ele>196.497</ele>
        <time>2020-02-26T13:26:27Z</time>
      </trkpt>
      <trkpt lat="47.07224" lon="-0.79772">
        <ele>196.551</ele>
        <time>2020-02-26T13:26:32Z</time>
      </trkpt>
      <trkpt lat="47.07227" lon="-0.79766">
        <ele>196.614</ele>
        <time>2020-02-26T13:26:38Z</time>
      </trkpt>
      <trkpt lat="47.07226" lon="-0.79757">
        <ele>196.655</ele>
        <time>2020-02-26T13:26:42Z</time>
      </trkpt>
      <trkpt lat="47.07226" lon="-0.79753">
        <ele>196.685</ele>
        <time>2020-02-26T13:26:45Z</time>
      </trkpt>
      <trkpt lat="47.07226" lon="-0.79747">
        <ele>196.733</ele>
        <time>2020-02-26T13:26:50Z</time>
      </trkpt>
      <trkpt lat="47.07225" lon="-0.79741">
        <ele>196.753</ele>
        <time>2020-02-26T13:26:52Z</time>
      </trkpt>
      <trkpt lat="47.07226" lon="-0.79734">
        <ele>196.786</ele>
        <time>2020-02-26T13:26:55Z</time>
      </trkpt>
      <trkpt lat="47.07226" lon="-0.79727">
        <ele>196.851</ele>
        <time>2020-02-26T13:27:01Z</time>
      </trkpt>
      <trkpt lat="47.07228" lon="-0.79718">
        <ele>196.882</ele>
        <time>2020-02-26T13:27:04Z</time>
      </trkpt>
      <trkpt lat="47.07228" lon="-0.79711">
        <ele>196.922</ele>
        <time>2020-02-26T13:27:08Z</time>
      </trkpt>
      <trkpt lat="47.07228" lon="-0.79703">
        <ele>196.958</ele>
        <time>2020-02-26T13:27:12Z</time>
      </trkpt>
      <trkpt lat="47.07232" lon="-0.79697">
        <ele>196.986</ele>
        <time>2020-02-26T13:27:15Z</time>
      </trkpt>
      <trkpt lat="47.07236" lon="-0.79693">
        <ele>197.02</ele>
        <time>2020-02-26T13:27:19Z</time>
      </trkpt>
      <trkpt lat="47.0724" lon="-0.79688">
        <ele>197.044</ele>
        <time>2020-02-26T13:27:22Z</time>
      </trkpt>
      <trkpt lat="47.07242" lon="-0.79686">
        <ele>197.06</ele>
        <time>2020-02-26T13:27:24Z</time>
      </trkpt>
      <trkpt lat="47.07245" lon="-0.79682">
        <ele>197.1</ele>
        <time>2020-02-26T13:27:30Z</time>
      </trkpt>
      <trkpt lat="47.07247" lon="-0.79675">
        <ele>197.12</ele>
        <time>2020-02-26T13:27:33Z</time>
      </trkpt>
      <trkpt lat="47.0725" lon="-0.79669">
        <ele>197.133</ele>
        <time>2020-02-26T13:27:35Z</time>
      </trkpt>
      <trkpt lat="47.07253" lon="-0.79663">
        <ele>197.153</ele>
        <time>2020-02-26T13:27:39Z</time>
      </trkpt>
      <trkpt lat="47.07255" lon="-0.79657">
        <ele>197.164</ele>
        <time>2020-02-26T13:27:43Z</time>
      </trkpt>
      <trkpt lat="47.07258" lon="-0.79652">
        <ele>197.167</ele>
        <time>2020-02-26T13:27:48Z</time>
      </trkpt>
      <trkpt lat="47.07262" lon="-0.79648">
        <ele>197.164</ele>
        <time>2020-02-26T13:27:52Z</time>
      </trkpt>
      <trkpt lat="47.07264" lon="-0.79646">
        <ele>197.16</ele>
        <time>2020-02-26T13:27:54Z</time>
      </trkpt>
      <trkpt lat="47.07266" lon="-0.79639">
        <ele>197.155</ele>
        <time>2020-02-26T13:27:57Z</time>
      </trkpt>
      <trkpt lat="47.07271" lon="-0.79635">
        <ele>197.147</ele>
        <time>2020-02-26T13:28:01Z</time>
      </trkpt>
      <trkpt lat="47.07275" lon="-0.7963">
        <ele>197.138</ele>
        <time>2020-02-26T13:28:04Z</time>
      </trkpt>
      <trkpt lat="47.07278" lon="-0.79624">
        <ele>197.129</ele>
        <time>2020-02-26T13:28:08Z</time>
      </trkpt>
      <trkpt lat="47.07281" lon="-0.7962">
        <ele>197.12</ele>
        <time>2020-02-26T13:28:11Z</time>
      </trkpt>
      <trkpt lat="47.07283" lon="-0.79614">
        <ele>197.105</ele>
        <time>2020-02-26T13:28:15Z</time>
      </trkpt>
      <trkpt lat="47.07284" lon="-0.79611">
        <ele>197.101</ele>
        <time>2020-02-26T13:28:16Z</time>
      </trkpt>
      <trkpt lat="47.07286" lon="-0.79605">
        <ele>197.086</ele>
        <time>2020-02-26T13:28:20Z</time>
      </trkpt>
      <trkpt lat="47.07288" lon="-0.79598">
        <ele>197.075</ele>
        <time>2020-02-26T13:28:23Z</time>
      </trkpt>
      <trkpt lat="47.07292" lon="-0.7959">
        <ele>197.066</ele>
        <time>2020-02-26T13:28:27Z</time>
      </trkpt>
      <trkpt lat="47.07293" lon="-0.7958">
        <ele>197.067</ele>
        <time>2020-02-26T13:28:31Z</time>
      </trkpt>
      <trkpt lat="47.07293" lon="-0.79574">
        <ele>197.071</ele>
        <time>2020-02-26T13:28:33Z</time>
      </trkpt>
      <trkpt lat="47.07292" lon="-0.79565">
        <ele>197.084</ele>
        <time>2020-02-26T13:28:36Z</time>
      </trkpt>
      <trkpt lat="47.07295" lon="-0.7956">
        <ele>197.108</ele>
        <time>2020-02-26T13:28:42Z</time>
      </trkpt>
      <trkpt lat="47.07299" lon="-0.79554">
        <ele>197.123</ele>
        <time>2020-02-26T13:28:45Z</time>
      </trkpt>
      <trkpt lat="47.07301" lon="-0.7955">
        <ele>197.134</ele>
        <time>2020-02-26T13:28:47Z</time>
      </trkpt>
      <trkpt lat="47.07304" lon="-0.79543">
        <ele>197.158</ele>
        <time>2020-02-26T13:28:51Z</time>
      </trkpt>
      <trkpt lat="47.07309" lon="-0.79536">
        <ele>197.181</ele>
        <time>2020-02-26T13:28:55Z</time>
      </trkpt>
      <trkpt lat="47.07311" lon="-0.79528">
        <ele>197.201</ele>
        <time>2020-02-26T13:28:58Z</time>
      </trkpt>
      <trkpt lat="47.07314" lon="-0.79522">
        <ele>197.226</ele>
        <time>2020-02-26T13:29:01Z</time>
      </trkpt>
      <trkpt lat="47.07314" lon="-0.79513">
        <ele>197.274</ele>
        <time>2020-02-26T13:29:06Z</time>
      </trkpt>
      <trkpt lat="47.07317" lon="-0.79506">
        <ele>197.307</ele>
        <time>2020-02-26T13:29:09Z</time>
      </trkpt>
      <trkpt lat="47.07319" lon="-0.79503">
        <ele>197.332</ele>
        <time>2020-02-26T13:29:11Z</time>
      </trkpt>
      <trkpt lat="47.07322" lon="-0.79498">
        <ele>197.358</ele>
        <time>2020-02-26T13:29:13Z</time>
      </trkpt>
      <trkpt lat="47.07324" lon="-0.79494">
        <ele>197.397</ele>
        <time>2020-02-26T13:29:16Z</time>
      </trkpt>
      <trkpt lat="47.07327" lon="-0.79488">
        <ele>197.45</ele>
        <time>2020-02-26T13:29:20Z</time>
      </trkpt>
      <trkpt lat="47.07329" lon="-0.79484">
        <ele>197.49</ele>
        <time>2020-02-26T13:29:23Z</time>
      </trkpt>
      <trkpt lat="47.0733" lon="-0.79481">
        <ele>197.503</ele>
        <time>2020-02-26T13:29:24Z</time>
      </trkpt>
      <trkpt lat="47.07332" lon="-0.79478">
        <ele>197.555</ele>
        <time>2020-02-26T13:29:28Z</time>
      </trkpt>
      <trkpt lat="47.07334" lon="-0.79473">
        <ele>197.582</ele>
        <time>2020-02-26T13:29:31Z</time>
      </trkpt>
      <trkpt lat="47.07337" lon="-0.79469">
        <ele>197.639</ele>
        <time>2020-02-26T13:29:35Z</time>
      </trkpt>
      <trkpt lat="47.07338" lon="-0.79465">
        <ele>197.686</ele>
        <time>2020-02-26T13:29:38Z</time>
      </trkpt>
      <trkpt lat="47.07341" lon="-0.79459">
        <ele>197.717</ele>
        <time>2020-02-26T13:29:40Z</time>
      </trkpt>
      <trkpt lat="47.07346" lon="-0.79452">
        <ele>197.782</ele>
        <time>2020-02-26T13:29:44Z</time>
      </trkpt>
      <trkpt lat="47.07349" lon="-0.79448">
        <ele>197.832</ele>
        <time>2020-02-26T13:29:47Z</time>
      </trkpt>
      <trkpt lat="47.07352" lon="-0.79443">
        <ele>197.899</ele>
        <time>2020-02-26T13:29:52Z</time>
      </trkpt>
      <trkpt lat="47.07358" lon="-0.7944">
        <ele>197.95</ele>
        <time>2020-02-26T13:29:55Z</time>
      </trkpt>
      <trkpt lat="47.07361" lon="-0.79437">
        <ele>197.986</ele>
        <time>2020-02-26T13:29:57Z</time>
      </trkpt>
      <trkpt lat="47.07364" lon="-0.79432">
        <ele>198.054</ele>
        <time>2020-02-26T13:30:01Z</time>
      </trkpt>
      <trkpt lat="47.07368" lon="-0.79427">
        <ele>198.124</ele>
        <time>2020-02-26T13:30:05Z</time>
      </trkpt>
      <trkpt lat="47.07371" lon="-0.7942">
        <ele>198.162</ele>
        <time>2020-02-26T13:30:07Z</time>
      </trkpt>
      <trkpt lat="47.07377" lon="-0.79412">
        <ele>198.281</ele>
        <time>2020-02-26T13:30:13Z</time>
      </trkpt>
      <trkpt lat="47.07381" lon="-0.79409">
        <ele>198.361</ele>
        <time>2020-02-26T13:30:17Z</time>
      </trkpt>
      <trkpt lat="47.07384" lon="-0.79403">
        <ele>198.404</ele>
        <time>2020-02-26T13:30:19Z</time>
      </trkpt>
      <trkpt lat="47.07387" lon="-0.79397">
        <ele>198.495</ele>
        <time>2020-02-26T13:30:23Z</time>
      </trkpt>
      <trkpt lat="47.07388" lon="-0.79393">
        <ele>198.563</ele>
        <time>2020-02-26T13:30:26Z</time>
      </trkpt>
      <trkpt lat="47.0739" lon="-0.79389">
        <ele>198.607</ele>
        <time>2020-02-26T13:30:28Z</time>
      </trkpt>
      <trkpt lat="47.07394" lon="-0.79383">
        <ele>198.671</ele>
        <time>2020-02-26T13:30:31Z</time>
      </trkpt>
      <trkpt lat="47.07396" lon="-0.79376">
        <ele>198.737</ele>
        <time>2020-02-26T13:30:34Z</time>
      </trkpt>
      <trkpt lat="47.07399" lon="-0.7937">
        <ele>198.847</ele>
        <time>2020-02-26T13:30:39Z</time>
      </trkpt>
      <trkpt lat="47.074" lon="-0.79367">
        <ele>198.914</ele>
        <time>2020-02-26T13:30:42Z</time>
      </trkpt>
      <trkpt lat="47.07403" lon="-0.79361">
        <ele>199.03</ele>
        <time>2020-02-26T13:30:47Z</time>
      </trkpt>
      <trkpt lat="47.07405" lon="-0.79356">
        <ele>199.13</ele>
        <time>2020-02-26T13:30:54Z</time>
      </trkpt>
      <trkpt lat="47.07409" lon="-0.79351">
        <ele>199.178</ele>
        <time>2020-02-26T13:30:56Z</time>
      </trkpt>
      <trkpt lat="47.07414" lon="-0.79342">
        <ele>199.292</ele>
        <time>2020-02-26T13:31:01Z</time>
      </trkpt>
      <trkpt lat="47.07416" lon="-0.79335">
        <ele>199.359</ele>
        <time>2020-02-26T13:31:04Z</time>
      </trkpt>
      <trkpt lat="47.07416" lon="-0.7933">
        <ele>199.426</ele>
        <time>2020-02-26T13:31:07Z</time>
      </trkpt>
      <trkpt lat="47.07422" lon="-0.79323">
        <ele>199.559</ele>
        <time>2020-02-26T13:31:14Z</time>
      </trkpt>
      <trkpt lat="47.07424" lon="-0.79321">
        <ele>199.58</ele>
        <time>2020-02-26T13:31:15Z</time>
      </trkpt>
      <trkpt lat="47.07426" lon="-0.7931">
        <ele>199.704</ele>
        <time>2020-02-26T13:31:21Z</time>
      </trkpt>
      <trkpt lat="47.07431" lon="-0.79306">
        <ele>199.763</ele>
        <time>2020-02-26T13:31:24Z</time>
      </trkpt>
      <trkpt lat="47.07436" lon="-0.79301">
        <ele>199.819</ele>
        <time>2020-02-26T13:31:27Z</time>
      </trkpt>
      <trkpt lat="47.07439" lon="-0.79296">
        <ele>199.874</ele>
        <time>2020-02-26T13:31:30Z</time>
      </trkpt>
      <trkpt lat="47.07444" lon="-0.79291">
        <ele>199.927</ele>
        <time>2020-02-26T13:31:33Z</time>
      </trkpt>
      <trkpt lat="47.07447" lon="-0.79288">
        <ele>199.98</ele>
        <time>2020-02-26T13:31:36Z</time>
      </trkpt>
      <trkpt lat="47.07447" lon="-0.79288">
        <ele>155</ele>
        <time>2020-02-26T13:31:44Z</time>
      </trkpt>
      <trkpt lat="47.07447" lon="-0.79288">
        <ele>155</ele>
        <time>2020-02-26T13:31:50Z</time>
      </trkpt>
      <trkpt lat="47.0745" lon="-0.79282">
        <ele>200.106</ele>
        <time>2020-02-26T13:31:50Z</time>
      </trkpt>
      <trkpt lat="47.07459" lon="-0.79269">
        <ele>200.166</ele>
        <time>2020-02-26T13:31:53Z</time>
      </trkpt>
      <trkpt lat="47.07463" lon="-0.79264">
        <ele>200.227</ele>
        <time>2020-02-26T13:31:56Z</time>
      </trkpt>
      <trkpt lat="47.07467" lon="-0.79258">
        <ele>200.281</ele>
        <time>2020-02-26T13:31:59Z</time>
      </trkpt>
      <trkpt lat="47.07472" lon="-0.79246">
        <ele>200.384</ele>
        <time>2020-02-26T13:32:05Z</time>
      </trkpt>
      <trkpt lat="47.07475" lon="-0.7924">
        <ele>200.406</ele>
        <time>2020-02-26T13:32:06Z</time>
      </trkpt>
      <trkpt lat="47.07476" lon="-0.79237">
        <ele>200.43</ele>
        <time>2020-02-26T13:32:07Z</time>
      </trkpt>
      <trkpt lat="47.07479" lon="-0.7923">
        <ele>200.536</ele>
        <time>2020-02-26T13:32:11Z</time>
      </trkpt>
      <trkpt lat="47.07483" lon="-0.79225">
        <ele>200.623</ele>
        <time>2020-02-26T13:32:14Z</time>
      </trkpt>
      <trkpt lat="47.07485" lon="-0.79219">
        <ele>200.739</ele>
        <time>2020-02-26T13:32:18Z</time>
      </trkpt>
      <trkpt lat="47.07487" lon="-0.79213">
        <ele>200.899</ele>
        <time>2020-02-26T13:32:24Z</time>
      </trkpt>
      <trkpt lat="47.07487" lon="-0.79213">
        <ele>155</ele>
        <time>2020-02-26T13:32:32Z</time>
      </trkpt>
      <trkpt lat="47.07487" lon="-0.79213">
        <ele>155</ele>
        <time>2020-02-26T13:32:37Z</time>
      </trkpt>
      <trkpt lat="47.07488" lon="-0.792">
        <ele>201.113</ele>
        <time>2020-02-26T13:32:37Z</time>
      </trkpt>
      <trkpt lat="47.07493" lon="-0.79189">
        <ele>201.141</ele>
        <time>2020-02-26T13:32:40Z</time>
      </trkpt>
      <trkpt lat="47.07495" lon="-0.79183">
        <ele>201.16</ele>
        <time>2020-02-26T13:32:43Z</time>
      </trkpt>
      <trkpt lat="47.07497" lon="-0.7918">
        <ele>201.167</ele>
        <time>2020-02-26T13:32:45Z</time>
      </trkpt>
      <trkpt lat="47.07498" lon="-0.79173">
        <ele>201.175</ele>
        <time>2020-02-26T13:32:47Z</time>
      </trkpt>
      <trkpt lat="47.07502" lon="-0.79164">
        <ele>201.189</ele>
        <time>2020-02-26T13:32:50Z</time>
      </trkpt>
      <trkpt lat="47.07506" lon="-0.79159">
        <ele>201.212</ele>
        <time>2020-02-26T13:32:57Z</time>
      </trkpt>
      <trkpt lat="47.0751" lon="-0.79152">
        <ele>201.228</ele>
        <time>2020-02-26T13:33:00Z</time>
      </trkpt>
      <trkpt lat="47.07516" lon="-0.79149">
        <ele>201.24</ele>
        <time>2020-02-26T13:33:02Z</time>
      </trkpt>
      <trkpt lat="47.0752" lon="-0.79148">
        <ele>201.271</ele>
        <time>2020-02-26T13:33:09Z</time>
      </trkpt>
      <trkpt lat="47.07523" lon="-0.7914">
        <ele>201.287</ele>
        <time>2020-02-26T13:33:14Z</time>
      </trkpt>
      <trkpt lat="47.07524" lon="-0.79137">
        <ele>201.293</ele>
        <time>2020-02-26T13:33:15Z</time>
      </trkpt>
      <trkpt lat="47.07528" lon="-0.79132">
        <ele>201.316</ele>
        <time>2020-02-26T13:33:19Z</time>
      </trkpt>
      <trkpt lat="47.07531" lon="-0.79127">
        <ele>201.332</ele>
        <time>2020-02-26T13:33:22Z</time>
      </trkpt>
      <trkpt lat="47.07535" lon="-0.79122">
        <ele>201.346</ele>
        <time>2020-02-26T13:33:25Z</time>
      </trkpt>
      <trkpt lat="47.07538" lon="-0.79117">
        <ele>201.355</ele>
        <time>2020-02-26T13:33:27Z</time>
      </trkpt>
      <trkpt lat="47.0754" lon="-0.79114">
        <ele>201.36</ele>
        <time>2020-02-26T13:33:28Z</time>
      </trkpt>
      <trkpt lat="47.07542" lon="-0.79108">
        <ele>201.383</ele>
        <time>2020-02-26T13:33:33Z</time>
      </trkpt>
      <trkpt lat="47.07545" lon="-0.79102">
        <ele>201.399</ele>
        <time>2020-02-26T13:33:36Z</time>
      </trkpt>
      <trkpt lat="47.0755" lon="-0.79096">
        <ele>201.414</ele>
        <time>2020-02-26T13:33:39Z</time>
      </trkpt>
      <trkpt lat="47.07551" lon="-0.79089">
        <ele>201.464</ele>
        <time>2020-02-26T13:33:46Z</time>
      </trkpt>
      <trkpt lat="47.07554" lon="-0.79084">
        <ele>201.483</ele>
        <time>2020-02-26T13:33:48Z</time>
      </trkpt>
      <trkpt lat="47.07557" lon="-0.79075">
        <ele>201.514</ele>
        <time>2020-02-26T13:33:51Z</time>
      </trkpt>
      <trkpt lat="47.07559" lon="-0.79066">
        <ele>201.558</ele>
        <time>2020-02-26T13:33:56Z</time>
      </trkpt>
      <trkpt lat="47.07562" lon="-0.79057">
        <ele>201.615</ele>
        <time>2020-02-26T13:34:01Z</time>
      </trkpt>
      <trkpt lat="47.07563" lon="-0.79053">
        <ele>201.676</ele>
        <time>2020-02-26T13:34:05Z</time>
      </trkpt>
      <trkpt lat="47.07568" lon="-0.79045">
        <ele>201.735</ele>
        <time>2020-02-26T13:34:09Z</time>
      </trkpt>
      <trkpt lat="47.07571" lon="-0.79038">
        <ele>201.781</ele>
        <time>2020-02-26T13:34:13Z</time>
      </trkpt>
      <trkpt lat="47.07575" lon="-0.79032">
        <ele>201.812</ele>
        <time>2020-02-26T13:34:15Z</time>
      </trkpt>
      <trkpt lat="47.07577" lon="-0.79028">
        <ele>201.858</ele>
        <time>2020-02-26T13:34:18Z</time>
      </trkpt>
      <trkpt lat="47.07582" lon="-0.79025">
        <ele>201.886</ele>
        <time>2020-02-26T13:34:20Z</time>
      </trkpt>
      <trkpt lat="47.07586" lon="-0.79019">
        <ele>201.963</ele>
        <time>2020-02-26T13:34:26Z</time>
      </trkpt>
      <trkpt lat="47.07588" lon="-0.79013">
        <ele>201.999</ele>
        <time>2020-02-26T13:34:29Z</time>
      </trkpt>
      <trkpt lat="47.07593" lon="-0.79004">
        <ele>202.02</ele>
        <time>2020-02-26T13:34:31Z</time>
      </trkpt>
      <trkpt lat="47.07598" lon="-0.78997">
        <ele>202.048</ele>
        <time>2020-02-26T13:34:34Z</time>
      </trkpt>
      <trkpt lat="47.07602" lon="-0.78994">
        <ele>202.077</ele>
        <time>2020-02-26T13:34:37Z</time>
      </trkpt>
      <trkpt lat="47.07605" lon="-0.78986">
        <ele>202.115</ele>
        <time>2020-02-26T13:34:40Z</time>
      </trkpt>
      <trkpt lat="47.07606" lon="-0.78983">
        <ele>202.143</ele>
        <time>2020-02-26T13:34:42Z</time>
      </trkpt>
      <trkpt lat="47.07611" lon="-0.78978">
        <ele>202.214</ele>
        <time>2020-02-26T13:34:47Z</time>
      </trkpt>
      <trkpt lat="47.07614" lon="-0.78975">
        <ele>202.254</ele>
        <time>2020-02-26T13:34:50Z</time>
      </trkpt>
      <trkpt lat="47.07617" lon="-0.78967">
        <ele>202.302</ele>
        <time>2020-02-26T13:34:53Z</time>
      </trkpt>
      <trkpt lat="47.07619" lon="-0.78963">
        <ele>202.339</ele>
        <time>2020-02-26T13:34:55Z</time>
      </trkpt>
      <trkpt lat="47.07623" lon="-0.78958">
        <ele>202.412</ele>
        <time>2020-02-26T13:34:59Z</time>
      </trkpt>
      <trkpt lat="47.07626" lon="-0.78952">
        <ele>202.497</ele>
        <time>2020-02-26T13:35:03Z</time>
      </trkpt>
      <trkpt lat="47.07627" lon="-0.78949">
        <ele>202.579</ele>
        <time>2020-02-26T13:35:07Z</time>
      </trkpt>
      <trkpt lat="47.07628" lon="-0.7894">
        <ele>202.674</ele>
        <time>2020-02-26T13:35:12Z</time>
      </trkpt>
      <trkpt lat="47.07631" lon="-0.78932">
        <ele>202.806</ele>
        <time>2020-02-26T13:35:18Z</time>
      </trkpt>
      <trkpt lat="47.07634" lon="-0.78927">
        <ele>202.892</ele>
        <time>2020-02-26T13:35:22Z</time>
      </trkpt>
      <trkpt lat="47.07639" lon="-0.78919">
        <ele>202.957</ele>
        <time>2020-02-26T13:35:25Z</time>
      </trkpt>
      <trkpt lat="47.07642" lon="-0.78915">
        <ele>203.015</ele>
        <time>2020-02-26T13:35:28Z</time>
      </trkpt>
      <trkpt lat="47.07644" lon="-0.78912">
        <ele>203.034</ele>
        <time>2020-02-26T13:35:29Z</time>
      </trkpt>
      <trkpt lat="47.07647" lon="-0.78908">
        <ele>203.072</ele>
        <time>2020-02-26T13:35:31Z</time>
      </trkpt>
      <trkpt lat="47.0765" lon="-0.78902">
        <ele>203.145</ele>
        <time>2020-02-26T13:35:35Z</time>
      </trkpt>
      <trkpt lat="47.07655" lon="-0.78896">
        <ele>203.224</ele>
        <time>2020-02-26T13:35:39Z</time>
      </trkpt>
      <trkpt lat="47.07657" lon="-0.78892">
        <ele>203.283</ele>
        <time>2020-02-26T13:35:42Z</time>
      </trkpt>
      <trkpt lat="47.0766" lon="-0.78887">
        <ele>203.335</ele>
        <time>2020-02-26T13:35:45Z</time>
      </trkpt>
      <trkpt lat="47.07663" lon="-0.78881">
        <ele>203.386</ele>
        <time>2020-02-26T13:35:50Z</time>
      </trkpt>
      <trkpt lat="47.07663" lon="-0.78881">
        <ele>203.386</ele>
        <time>2020-02-26T13:35:57Z</time>
      </trkpt>
      <trkpt lat="47.07663" lon="-0.78881">
        <ele>157</ele>
        <time>2020-02-26T13:35:57Z</time>
      </trkpt>
      <trkpt lat="47.07663" lon="-0.78881">
        <ele>157</ele>
        <time>2020-02-26T13:36:27Z</time>
      </trkpt>
      <trkpt lat="47.0767" lon="-0.78842">
        <ele>202.923</ele>
        <time>2020-02-26T13:36:27Z</time>
      </trkpt>
      <trkpt lat="47.07678" lon="-0.78834">
        <ele>202.788</ele>
        <time>2020-02-26T13:36:29Z</time>
      </trkpt>
      <trkpt lat="47.07681" lon="-0.7883">
        <ele>202.719</ele>
        <time>2020-02-26T13:36:30Z</time>
      </trkpt>
      <trkpt lat="47.07687" lon="-0.78825">
        <ele>202.579</ele>
        <time>2020-02-26T13:36:32Z</time>
      </trkpt>
      <trkpt lat="47.07694" lon="-0.78819">
        <ele>202.375</ele>
        <time>2020-02-26T13:36:35Z</time>
      </trkpt>
      <trkpt lat="47.077" lon="-0.78821">
        <ele>201.979</ele>
        <time>2020-02-26T13:36:41Z</time>
      </trkpt>
      <trkpt lat="47.07706" lon="-0.78814">
        <ele>201.847</ele>
        <time>2020-02-26T13:36:43Z</time>
      </trkpt>
      <trkpt lat="47.07714" lon="-0.78804">
        <ele>201.667</ele>
        <time>2020-02-26T13:36:46Z</time>
      </trkpt>
      <trkpt lat="47.07719" lon="-0.78798">
        <ele>201.462</ele>
        <time>2020-02-26T13:36:50Z</time>
      </trkpt>
      <trkpt lat="47.07723" lon="-0.78794">
        <ele>201.375</ele>
        <time>2020-02-26T13:36:52Z</time>
      </trkpt>
      <trkpt lat="47.07727" lon="-0.7879">
        <ele>201.3</ele>
        <time>2020-02-26T13:36:54Z</time>
      </trkpt>
      <trkpt lat="47.0773" lon="-0.78784">
        <ele>201.157</ele>
        <time>2020-02-26T13:36:59Z</time>
      </trkpt>
      <trkpt lat="47.07733" lon="-0.78781">
        <ele>201.101</ele>
        <time>2020-02-26T13:37:02Z</time>
      </trkpt>
      <trkpt lat="47.07735" lon="-0.78777">
        <ele>201.075</ele>
        <time>2020-02-26T13:37:04Z</time>
      </trkpt>
      <trkpt lat="47.07737" lon="-0.78774">
        <ele>201.058</ele>
        <time>2020-02-26T13:37:06Z</time>
      </trkpt>
      <trkpt lat="47.0774" lon="-0.78771">
        <ele>201.049</ele>
        <time>2020-02-26T13:37:08Z</time>
      </trkpt>
      <trkpt lat="47.07741" lon="-0.78768">
        <ele>201.05</ele>
        <time>2020-02-26T13:37:10Z</time>
      </trkpt>
      <trkpt lat="47.07744" lon="-0.78761">
        <ele>201.097</ele>
        <time>2020-02-26T13:37:16Z</time>
      </trkpt>
      <trkpt lat="47.07748" lon="-0.78755">
        <ele>201.16</ele>
        <time>2020-02-26T13:37:20Z</time>
      </trkpt>
      <trkpt lat="47.07751" lon="-0.7875">
        <ele>201.266</ele>
        <time>2020-02-26T13:37:25Z</time>
      </trkpt>
      <trkpt lat="47.07754" lon="-0.78744">
        <ele>201.345</ele>
        <time>2020-02-26T13:37:28Z</time>
      </trkpt>
      <trkpt lat="47.07755" lon="-0.78738">
        <ele>201.475</ele>
        <time>2020-02-26T13:37:32Z</time>
      </trkpt>
      <trkpt lat="47.07756" lon="-0.78731">
        <ele>201.648</ele>
        <time>2020-02-26T13:37:37Z</time>
      </trkpt>
      <trkpt lat="47.07759" lon="-0.78725">
        <ele>201.785</ele>
        <time>2020-02-26T13:37:41Z</time>
      </trkpt>
      <trkpt lat="47.0776" lon="-0.78722">
        <ele>201.854</ele>
        <time>2020-02-26T13:37:43Z</time>
      </trkpt>
      <trkpt lat="47.07762" lon="-0.78716">
        <ele>201.994</ele>
        <time>2020-02-26T13:37:47Z</time>
      </trkpt>
      <trkpt lat="47.07764" lon="-0.78712">
        <ele>202.066</ele>
        <time>2020-02-26T13:37:49Z</time>
      </trkpt>
      <trkpt lat="47.07766" lon="-0.78706">
        <ele>202.24</ele>
        <time>2020-02-26T13:37:54Z</time>
      </trkpt>
      <trkpt lat="47.07767" lon="-0.78701">
        <ele>202.368</ele>
        <time>2020-02-26T13:37:58Z</time>
      </trkpt>
      <trkpt lat="47.0777" lon="-0.78695">
        <ele>202.483</ele>
        <time>2020-02-26T13:38:02Z</time>
      </trkpt>
      <trkpt lat="47.07774" lon="-0.78689">
        <ele>202.589</ele>
        <time>2020-02-26T13:38:07Z</time>
      </trkpt>
      <trkpt lat="47.07775" lon="-0.78682">
        <ele>202.677</ele>
        <time>2020-02-26T13:38:11Z</time>
      </trkpt>
      <trkpt lat="47.07775" lon="-0.78675">
        <ele>202.743</ele>
        <time>2020-02-26T13:38:15Z</time>
      </trkpt>
      <trkpt lat="47.07778" lon="-0.7867">
        <ele>202.792</ele>
        <time>2020-02-26T13:38:20Z</time>
      </trkpt>
      <trkpt lat="47.07782" lon="-0.78665">
        <ele>202.802</ele>
        <time>2020-02-26T13:38:24Z</time>
      </trkpt>
      <trkpt lat="47.07787" lon="-0.7866">
        <ele>202.795</ele>
        <time>2020-02-26T13:38:27Z</time>
      </trkpt>
      <trkpt lat="47.07789" lon="-0.78657">
        <ele>202.787</ele>
        <time>2020-02-26T13:38:29Z</time>
      </trkpt>
      <trkpt lat="47.07791" lon="-0.78654">
        <ele>202.777</ele>
        <time>2020-02-26T13:38:31Z</time>
      </trkpt>
      <trkpt lat="47.07794" lon="-0.78648">
        <ele>202.749</ele>
        <time>2020-02-26T13:38:35Z</time>
      </trkpt>
      <trkpt lat="47.07798" lon="-0.78645">
        <ele>202.708</ele>
        <time>2020-02-26T13:38:41Z</time>
      </trkpt>
      <trkpt lat="47.07801" lon="-0.78642">
        <ele>202.679</ele>
        <time>2020-02-26T13:38:44Z</time>
      </trkpt>
      <trkpt lat="47.07806" lon="-0.78633">
        <ele>202.642</ele>
        <time>2020-02-26T13:38:47Z</time>
      </trkpt>
      <trkpt lat="47.07811" lon="-0.78624">
        <ele>202.613</ele>
        <time>2020-02-26T13:38:50Z</time>
      </trkpt>
      <trkpt lat="47.07815" lon="-0.78618">
        <ele>202.57</ele>
        <time>2020-02-26T13:38:53Z</time>
      </trkpt>
      <trkpt lat="47.07818" lon="-0.7861">
        <ele>202.542</ele>
        <time>2020-02-26T13:38:55Z</time>
      </trkpt>
      <trkpt lat="47.07823" lon="-0.78607">
        <ele>202.485</ele>
        <time>2020-02-26T13:38:59Z</time>
      </trkpt>
      <trkpt lat="47.07823" lon="-0.78598">
        <ele>202.421</ele>
        <time>2020-02-26T13:39:03Z</time>
      </trkpt>
      <trkpt lat="47.07823" lon="-0.78589">
        <ele>202.39</ele>
        <time>2020-02-26T13:39:05Z</time>
      </trkpt>
      <trkpt lat="47.07825" lon="-0.78583">
        <ele>202.342</ele>
        <time>2020-02-26T13:39:08Z</time>
      </trkpt>
      <trkpt lat="47.07828" lon="-0.78576">
        <ele>202.298</ele>
        <time>2020-02-26T13:39:11Z</time>
      </trkpt>
      <trkpt lat="47.07832" lon="-0.78569">
        <ele>202.256</ele>
        <time>2020-02-26T13:39:14Z</time>
      </trkpt>
      <trkpt lat="47.07836" lon="-0.78566">
        <ele>202.214</ele>
        <time>2020-02-26T13:39:17Z</time>
      </trkpt>
      <trkpt lat="47.0784" lon="-0.78559">
        <ele>202.173</ele>
        <time>2020-02-26T13:39:20Z</time>
      </trkpt>
      <trkpt lat="47.07842" lon="-0.78557">
        <ele>202.148</ele>
        <time>2020-02-26T13:39:22Z</time>
      </trkpt>
      <trkpt lat="47.07842" lon="-0.7855">
        <ele>202.087</ele>
        <time>2020-02-26T13:39:27Z</time>
      </trkpt>
      <trkpt lat="47.07846" lon="-0.78544">
        <ele>202.043</ele>
        <time>2020-02-26T13:39:31Z</time>
      </trkpt>
      <trkpt lat="47.07851" lon="-0.78538">
        <ele>202.012</ele>
        <time>2020-02-26T13:39:34Z</time>
      </trkpt>
      <trkpt lat="47.07854" lon="-0.78534">
        <ele>201.97</ele>
        <time>2020-02-26T13:39:38Z</time>
      </trkpt>
      <trkpt lat="47.07854" lon="-0.78534">
        <ele>156</ele>
        <time>2020-02-26T13:39:46Z</time>
      </trkpt>
      <trkpt lat="47.07854" lon="-0.78534">
        <ele>156</ele>
        <time>2020-02-26T13:39:51Z</time>
      </trkpt>
      <trkpt lat="47.0786" lon="-0.78521">
        <ele>201.784</ele>
        <time>2020-02-26T13:39:51Z</time>
      </trkpt>
      <trkpt lat="47.07861" lon="-0.78513">
        <ele>201.738</ele>
        <time>2020-02-26T13:39:54Z</time>
      </trkpt>
      <trkpt lat="47.07866" lon="-0.78509">
        <ele>201.709</ele>
        <time>2020-02-26T13:39:56Z</time>
      </trkpt>
      <trkpt lat="47.0787" lon="-0.78507">
        <ele>201.678</ele>
        <time>2020-02-26T13:39:58Z</time>
      </trkpt>
      <trkpt lat="47.07878" lon="-0.78502">
        <ele>201.597</ele>
        <time>2020-02-26T13:40:03Z</time>
      </trkpt>
      <trkpt lat="47.0788" lon="-0.78493">
        <ele>201.525</ele>
        <time>2020-02-26T13:40:07Z</time>
      </trkpt>
      <trkpt lat="47.0788" lon="-0.78493">
        <ele>157</ele>
        <time>2020-02-26T13:40:15Z</time>
      </trkpt>
      <trkpt lat="47.0788" lon="-0.78493">
        <ele>157</ele>
        <time>2020-02-26T13:40:21Z</time>
      </trkpt>
      <trkpt lat="47.07888" lon="-0.78484">
        <ele>201.212</ele>
        <time>2020-02-26T13:40:21Z</time>
      </trkpt>
      <trkpt lat="47.07888" lon="-0.78477">
        <ele>201.118</ele>
        <time>2020-02-26T13:40:24Z</time>
      </trkpt>
      <trkpt lat="47.07894" lon="-0.78469">
        <ele>200.982</ele>
        <time>2020-02-26T13:40:28Z</time>
      </trkpt>
      <trkpt lat="47.07901" lon="-0.78462">
        <ele>200.896</ele>
        <time>2020-02-26T13:40:30Z</time>
      </trkpt>
      <trkpt lat="47.07903" lon="-0.78459">
        <ele>200.847</ele>
        <time>2020-02-26T13:40:31Z</time>
      </trkpt>
      <trkpt lat="47.07907" lon="-0.78453">
        <ele>200.608</ele>
        <time>2020-02-26T13:40:35Z</time>
      </trkpt>
      <trkpt lat="47.07907" lon="-0.78446">
        <ele>200.466</ele>
        <time>2020-02-26T13:40:37Z</time>
      </trkpt>
      <trkpt lat="47.07915" lon="-0.78447">
        <ele>200.127</ele>
        <time>2020-02-26T13:40:41Z</time>
      </trkpt>
      <trkpt lat="47.07922" lon="-0.7845">
        <ele>199.866</ele>
        <time>2020-02-26T13:40:44Z</time>
      </trkpt>
      <trkpt lat="47.07926" lon="-0.78453">
        <ele>199.674</ele>
        <time>2020-02-26T13:40:46Z</time>
      </trkpt>
      <trkpt lat="47.07929" lon="-0.78454">
        <ele>199.57</ele>
        <time>2020-02-26T13:40:47Z</time>
      </trkpt>
      <trkpt lat="47.07935" lon="-0.7846">
        <ele>199.116</ele>
        <time>2020-02-26T13:40:51Z</time>
      </trkpt>
      <trkpt lat="47.0794" lon="-0.78463">
        <ele>198.775</ele>
        <time>2020-02-26T13:40:54Z</time>
      </trkpt>
      <trkpt lat="47.07946" lon="-0.78465">
        <ele>198.278</ele>
        <time>2020-02-26T13:40:59Z</time>
      </trkpt>
      <trkpt lat="47.07948" lon="-0.78466">
        <ele>198.183</ele>
        <time>2020-02-26T13:41:00Z</time>
      </trkpt>
      <trkpt lat="47.07951" lon="-0.78467">
        <ele>198.001</ele>
        <time>2020-02-26T13:41:02Z</time>
      </trkpt>
      <trkpt lat="47.07956" lon="-0.78472">
        <ele>197.675</ele>
        <time>2020-02-26T13:41:06Z</time>
      </trkpt>
      <trkpt lat="47.07959" lon="-0.78476">
        <ele>197.525</ele>
        <time>2020-02-26T13:41:08Z</time>
      </trkpt>
      <trkpt lat="47.07964" lon="-0.78482">
        <ele>197.329</ele>
        <time>2020-02-26T13:41:11Z</time>
      </trkpt>
      <trkpt lat="47.07969" lon="-0.78486">
        <ele>197.079</ele>
        <time>2020-02-26T13:41:16Z</time>
      </trkpt>
      <trkpt lat="47.07975" lon="-0.78488">
        <ele>196.905</ele>
        <time>2020-02-26T13:41:20Z</time>
      </trkpt>
      <trkpt lat="47.0798" lon="-0.7849">
        <ele>196.81</ele>
        <time>2020-02-26T13:41:23Z</time>
      </trkpt>
      <trkpt lat="47.07983" lon="-0.78491">
        <ele>196.754</ele>
        <time>2020-02-26T13:41:26Z</time>
      </trkpt>
      <trkpt lat="47.07988" lon="-0.78496">
        <ele>196.744</ele>
        <time>2020-02-26T13:41:33Z</time>
      </trkpt>
      <trkpt lat="47.0799" lon="-0.78499">
        <ele>196.766</ele>
        <time>2020-02-26T13:41:36Z</time>
      </trkpt>
      <trkpt lat="47.07994" lon="-0.78503">
        <ele>196.813</ele>
        <time>2020-02-26T13:41:39Z</time>
      </trkpt>
      <trkpt lat="47.07998" lon="-0.78507">
        <ele>196.851</ele>
        <time>2020-02-26T13:41:41Z</time>
      </trkpt>
      <trkpt lat="47.08" lon="-0.78509">
        <ele>196.892</ele>
        <time>2020-02-26T13:41:43Z</time>
      </trkpt>
      <trkpt lat="47.08004" lon="-0.78512">
        <ele>196.927</ele>
        <time>2020-02-26T13:41:45Z</time>
      </trkpt>
      <trkpt lat="47.08007" lon="-0.78514">
        <ele>196.965</ele>
        <time>2020-02-26T13:41:47Z</time>
      </trkpt>
      <trkpt lat="47.08012" lon="-0.78517">
        <ele>197.044</ele>
        <time>2020-02-26T13:41:50Z</time>
      </trkpt>
      <trkpt lat="47.08016" lon="-0.78521">
        <ele>197.126</ele>
        <time>2020-02-26T13:41:53Z</time>
      </trkpt>
      <trkpt lat="47.08019" lon="-0.78522">
        <ele>197.184</ele>
        <time>2020-02-26T13:41:55Z</time>
      </trkpt>
      <trkpt lat="47.08021" lon="-0.78524">
        <ele>197.241</ele>
        <time>2020-02-26T13:41:57Z</time>
      </trkpt>
      <trkpt lat="47.0803" lon="-0.7853">
        <ele>197.41</ele>
        <time>2020-02-26T13:42:03Z</time>
      </trkpt>
      <trkpt lat="47.08036" lon="-0.78532">
        <ele>197.513</ele>
        <time>2020-02-26T13:42:06Z</time>
      </trkpt>
      <trkpt lat="47.08041" lon="-0.78535">
        <ele>197.615</ele>
        <time>2020-02-26T13:42:09Z</time>
      </trkpt>
      <trkpt lat="47.08045" lon="-0.78539">
        <ele>197.767</ele>
        <time>2020-02-26T13:42:13Z</time>
      </trkpt>
      <trkpt lat="47.08047" lon="-0.78543">
        <ele>197.868</ele>
        <time>2020-02-26T13:42:16Z</time>
      </trkpt>
      <trkpt lat="47.0805" lon="-0.7855">
        <ele>197.993</ele>
        <time>2020-02-26T13:42:20Z</time>
      </trkpt>
      <trkpt lat="47.08056" lon="-0.78556">
        <ele>198.2</ele>
        <time>2020-02-26T13:42:27Z</time>
      </trkpt>
      <trkpt lat="47.08061" lon="-0.78561">
        <ele>198.304</ele>
        <time>2020-02-26T13:42:30Z</time>
      </trkpt>
      <trkpt lat="47.08063" lon="-0.78563">
        <ele>198.341</ele>
        <time>2020-02-26T13:42:31Z</time>
      </trkpt>
      <trkpt lat="47.08065" lon="-0.78565">
        <ele>198.375</ele>
        <time>2020-02-26T13:42:32Z</time>
      </trkpt>
      <trkpt lat="47.08068" lon="-0.78568">
        <ele>198.445</ele>
        <time>2020-02-26T13:42:34Z</time>
      </trkpt>
      <trkpt lat="47.08071" lon="-0.7857">
        <ele>198.523</ele>
        <time>2020-02-26T13:42:36Z</time>
      </trkpt>
      <trkpt lat="47.08073" lon="-0.78572">
        <ele>198.695</ele>
        <time>2020-02-26T13:42:40Z</time>
      </trkpt>
      <trkpt lat="47.08082" lon="-0.78579">
        <ele>199.002</ele>
        <time>2020-02-26T13:42:47Z</time>
      </trkpt>
      <trkpt lat="47.08085" lon="-0.78586">
        <ele>199.142</ele>
        <time>2020-02-26T13:42:50Z</time>
      </trkpt>
      <trkpt lat="47.0809" lon="-0.78592">
        <ele>199.353</ele>
        <time>2020-02-26T13:42:54Z</time>
      </trkpt>
      <trkpt lat="47.08092" lon="-0.78594">
        <ele>199.461</ele>
        <time>2020-02-26T13:42:56Z</time>
      </trkpt>
      <trkpt lat="47.08096" lon="-0.78597">
        <ele>199.713</ele>
        <time>2020-02-26T13:43:01Z</time>
      </trkpt>
      <trkpt lat="47.081" lon="-0.78599">
        <ele>199.816</ele>
        <time>2020-02-26T13:43:03Z</time>
      </trkpt>
      <trkpt lat="47.08104" lon="-0.78605">
        <ele>200.027</ele>
        <time>2020-02-26T13:43:07Z</time>
      </trkpt>
      <trkpt lat="47.08108" lon="-0.78609">
        <ele>200.231</ele>
        <time>2020-02-26T13:43:11Z</time>
      </trkpt>
      <trkpt lat="47.08113" lon="-0.78612">
        <ele>200.45</ele>
        <time>2020-02-26T13:43:15Z</time>
      </trkpt>
      <trkpt lat="47.08116" lon="-0.78614">
        <ele>200.57</ele>
        <time>2020-02-26T13:43:17Z</time>
      </trkpt>
      <trkpt lat="47.0812" lon="-0.78619">
        <ele>200.748</ele>
        <time>2020-02-26T13:43:20Z</time>
      </trkpt>
      <trkpt lat="47.08125" lon="-0.78622">
        <ele>200.925</ele>
        <time>2020-02-26T13:43:23Z</time>
      </trkpt>
      <trkpt lat="47.08127" lon="-0.78623">
        <ele>201.044</ele>
        <time>2020-02-26T13:43:25Z</time>
      </trkpt>
      <trkpt lat="47.08132" lon="-0.78629">
        <ele>201.269</ele>
        <time>2020-02-26T13:43:29Z</time>
      </trkpt>
      <trkpt lat="47.08135" lon="-0.78632">
        <ele>201.38</ele>
        <time>2020-02-26T13:43:31Z</time>
      </trkpt>
      <trkpt lat="47.08137" lon="-0.78635">
        <ele>201.493</ele>
        <time>2020-02-26T13:43:33Z</time>
      </trkpt>
      <trkpt lat="47.0814" lon="-0.78639">
        <ele>201.668</ele>
        <time>2020-02-26T13:43:36Z</time>
      </trkpt>
      <trkpt lat="47.08144" lon="-0.78643">
        <ele>201.837</ele>
        <time>2020-02-26T13:43:39Z</time>
      </trkpt>
      <trkpt lat="47.08146" lon="-0.78645">
        <ele>201.944</ele>
        <time>2020-02-26T13:43:41Z</time>
      </trkpt>
      <trkpt lat="47.0815" lon="-0.78651">
        <ele>202.164</ele>
        <time>2020-02-26T13:43:45Z</time>
      </trkpt>
      <trkpt lat="47.08154" lon="-0.78655">
        <ele>202.335</ele>
        <time>2020-02-26T13:43:48Z</time>
      </trkpt>
      <trkpt lat="47.08157" lon="-0.78659">
        <ele>202.51</ele>
        <time>2020-02-26T13:43:51Z</time>
      </trkpt>
      <trkpt lat="47.08161" lon="-0.78665">
        <ele>202.72</ele>
        <time>2020-02-26T13:43:55Z</time>
      </trkpt>
      <trkpt lat="47.08163" lon="-0.78669">
        <ele>202.878</ele>
        <time>2020-02-26T13:43:58Z</time>
      </trkpt>
      <trkpt lat="47.08165" lon="-0.78673">
        <ele>202.975</ele>
        <time>2020-02-26T13:44:00Z</time>
      </trkpt>
      <trkpt lat="47.08167" lon="-0.78678">
        <ele>203.113</ele>
        <time>2020-02-26T13:44:03Z</time>
      </trkpt>
      <trkpt lat="47.08171" lon="-0.78684">
        <ele>203.286</ele>
        <time>2020-02-26T13:44:07Z</time>
      </trkpt>
      <trkpt lat="47.08177" lon="-0.78692">
        <ele>203.475</ele>
        <time>2020-02-26T13:44:11Z</time>
      </trkpt>
      <trkpt lat="47.08179" lon="-0.78694">
        <ele>203.525</ele>
        <time>2020-02-26T13:44:12Z</time>
      </trkpt>
      <trkpt lat="47.08182" lon="-0.78697">
        <ele>203.624</ele>
        <time>2020-02-26T13:44:14Z</time>
      </trkpt>
      <trkpt lat="47.08186" lon="-0.78701">
        <ele>203.83</ele>
        <time>2020-02-26T13:44:18Z</time>
      </trkpt>
      <trkpt lat="47.0819" lon="-0.78707">
        <ele>203.991</ele>
        <time>2020-02-26T13:44:21Z</time>
      </trkpt>
      <trkpt lat="47.08194" lon="-0.78711">
        <ele>204.202</ele>
        <time>2020-02-26T13:44:25Z</time>
      </trkpt>
      <trkpt lat="47.08196" lon="-0.78713">
        <ele>204.293</ele>
        <time>2020-02-26T13:44:27Z</time>
      </trkpt>
      <trkpt lat="47.08198" lon="-0.78715">
        <ele>204.373</ele>
        <time>2020-02-26T13:44:29Z</time>
      </trkpt>
      <trkpt lat="47.08203" lon="-0.78718">
        <ele>204.482</ele>
        <time>2020-02-26T13:44:32Z</time>
      </trkpt>
      <trkpt lat="47.08207" lon="-0.7872">
        <ele>204.554</ele>
        <time>2020-02-26T13:44:34Z</time>
      </trkpt>
      <trkpt lat="47.0821" lon="-0.78722">
        <ele>204.627</ele>
        <time>2020-02-26T13:44:36Z</time>
      </trkpt>
      <trkpt lat="47.08212" lon="-0.78724">
        <ele>204.697</ele>
        <time>2020-02-26T13:44:38Z</time>
      </trkpt>
      <trkpt lat="47.08217" lon="-0.78727">
        <ele>204.832</ele>
        <time>2020-02-26T13:44:42Z</time>
      </trkpt>
      <trkpt lat="47.08221" lon="-0.78733">
        <ele>204.921</ele>
        <time>2020-02-26T13:44:45Z</time>
      </trkpt>
      <trkpt lat="47.08225" lon="-0.78737">
        <ele>205.033</ele>
        <time>2020-02-26T13:44:49Z</time>
      </trkpt>
      <trkpt lat="47.08229" lon="-0.78742">
        <ele>205.119</ele>
        <time>2020-02-26T13:44:52Z</time>
      </trkpt>
      <trkpt lat="47.08234" lon="-0.78746">
        <ele>205.198</ele>
        <time>2020-02-26T13:44:55Z</time>
      </trkpt>
      <trkpt lat="47.08237" lon="-0.78749">
        <ele>205.262</ele>
        <time>2020-02-26T13:44:58Z</time>
      </trkpt>
      <trkpt lat="47.08239" lon="-0.78751">
        <ele>205.298</ele>
        <time>2020-02-26T13:45:00Z</time>
      </trkpt>
      <trkpt lat="47.08241" lon="-0.78752">
        <ele>205.33</ele>
        <time>2020-02-26T13:45:02Z</time>
      </trkpt>
      <trkpt lat="47.08246" lon="-0.78755">
        <ele>205.394</ele>
        <time>2020-02-26T13:45:05Z</time>
      </trkpt>
      <trkpt lat="47.08249" lon="-0.78757">
        <ele>205.454</ele>
        <time>2020-02-26T13:45:07Z</time>
      </trkpt>
      <trkpt lat="47.08251" lon="-0.78759">
        <ele>205.526</ele>
        <time>2020-02-26T13:45:09Z</time>
      </trkpt>
      <trkpt lat="47.08254" lon="-0.7876">
        <ele>205.602</ele>
        <time>2020-02-26T13:45:11Z</time>
      </trkpt>
      <trkpt lat="47.08258" lon="-0.78764">
        <ele>205.741</ele>
        <time>2020-02-26T13:45:15Z</time>
      </trkpt>
      <trkpt lat="47.0826" lon="-0.78766">
        <ele>205.798</ele>
        <time>2020-02-26T13:45:17Z</time>
      </trkpt>
      <trkpt lat="47.08262" lon="-0.78768">
        <ele>205.845</ele>
        <time>2020-02-26T13:45:19Z</time>
      </trkpt>
      <trkpt lat="47.08266" lon="-0.78772">
        <ele>205.899</ele>
        <time>2020-02-26T13:45:23Z</time>
      </trkpt>
      <trkpt lat="47.08269" lon="-0.78777">
        <ele>205.929</ele>
        <time>2020-02-26T13:45:27Z</time>
      </trkpt>
      <trkpt lat="47.08272" lon="-0.78785">
        <ele>205.956</ele>
        <time>2020-02-26T13:45:31Z</time>
      </trkpt>
      <trkpt lat="47.08276" lon="-0.78789">
        <ele>205.965</ele>
        <time>2020-02-26T13:45:35Z</time>
      </trkpt>
      <trkpt lat="47.0828" lon="-0.78795">
        <ele>205.948</ele>
        <time>2020-02-26T13:45:39Z</time>
      </trkpt>
      <trkpt lat="47.08283" lon="-0.78799">
        <ele>205.931</ele>
        <time>2020-02-26T13:45:41Z</time>
      </trkpt>
      <trkpt lat="47.08284" lon="-0.78811">
        <ele>205.907</ele>
        <time>2020-02-26T13:45:44Z</time>
      </trkpt>
      <trkpt lat="47.08291" lon="-0.78819">
        <ele>205.885</ele>
        <time>2020-02-26T13:45:49Z</time>
      </trkpt>
      <trkpt lat="47.08297" lon="-0.78819">
        <ele>205.882</ele>
        <time>2020-02-26T13:45:52Z</time>
      </trkpt>
      <trkpt lat="47.08302" lon="-0.78819">
        <ele>205.887</ele>
        <time>2020-02-26T13:45:54Z</time>
      </trkpt>
      <trkpt lat="47.08304" lon="-0.78827">
        <ele>205.914</ele>
        <time>2020-02-26T13:45:58Z</time>
      </trkpt>
      <trkpt lat="47.08301" lon="-0.78834">
        <ele>205.951</ele>
        <time>2020-02-26T13:46:01Z</time>
      </trkpt>
      <trkpt lat="47.08299" lon="-0.78842">
        <ele>206.03</ele>
        <time>2020-02-26T13:46:06Z</time>
      </trkpt>
      <trkpt lat="47.08297" lon="-0.78848">
        <ele>206.106</ele>
        <time>2020-02-26T13:46:10Z</time>
      </trkpt>
      <trkpt lat="47.08293" lon="-0.78853">
        <ele>206.184</ele>
        <time>2020-02-26T13:46:14Z</time>
      </trkpt>
      <trkpt lat="47.08289" lon="-0.78859">
        <ele>206.283</ele>
        <time>2020-02-26T13:46:19Z</time>
      </trkpt>
      <trkpt lat="47.08287" lon="-0.78862">
        <ele>206.365</ele>
        <time>2020-02-26T13:46:23Z</time>
      </trkpt>
      <trkpt lat="47.08282" lon="-0.78866">
        <ele>206.457</ele>
        <time>2020-02-26T13:46:28Z</time>
      </trkpt>
      <trkpt lat="47.08279" lon="-0.78872">
        <ele>206.515</ele>
        <time>2020-02-26T13:46:32Z</time>
      </trkpt>
      <trkpt lat="47.08275" lon="-0.78877">
        <ele>206.575</ele>
        <time>2020-02-26T13:46:38Z</time>
      </trkpt>
      <trkpt lat="47.08272" lon="-0.78882">
        <ele>206.619</ele>
        <time>2020-02-26T13:46:42Z</time>
      </trkpt>
      <trkpt lat="47.0827" lon="-0.78886">
        <ele>206.649</ele>
        <time>2020-02-26T13:46:45Z</time>
      </trkpt>
      <trkpt lat="47.08268" lon="-0.78889">
        <ele>206.667</ele>
        <time>2020-02-26T13:46:48Z</time>
      </trkpt>
      <trkpt lat="47.08266" lon="-0.78892">
        <ele>206.688</ele>
        <time>2020-02-26T13:46:51Z</time>
      </trkpt>
      <trkpt lat="47.08266" lon="-0.78892">
        <ele>144.4</ele>
        <time>2020-02-26T13:46:58Z</time>
      </trkpt>
      <trkpt lat="47.08266" lon="-0.78892">
        <ele>144.4</ele>
        <time>2020-02-26T13:48:27Z</time>
      </trkpt>
      <trkpt lat="47.08253" lon="-0.78924">
        <ele>207.424</ele>
        <time>2020-02-26T13:48:27Z</time>
      </trkpt>
      <trkpt lat="47.0825" lon="-0.78929">
        <ele>207.465</ele>
        <time>2020-02-26T13:48:30Z</time>
      </trkpt>
      <trkpt lat="47.08246" lon="-0.78934">
        <ele>207.497</ele>
        <time>2020-02-26T13:48:33Z</time>
      </trkpt>
      <trkpt lat="47.08242" lon="-0.78938">
        <ele>207.522</ele>
        <time>2020-02-26T13:48:36Z</time>
      </trkpt>
      <trkpt lat="47.08238" lon="-0.78943">
        <ele>207.558</ele>
        <time>2020-02-26T13:48:42Z</time>
      </trkpt>
      <trkpt lat="47.08236" lon="-0.78951">
        <ele>207.566</ele>
        <time>2020-02-26T13:48:45Z</time>
      </trkpt>
      <trkpt lat="47.08234" lon="-0.78956">
        <ele>207.57</ele>
        <time>2020-02-26T13:48:48Z</time>
      </trkpt>
      <trkpt lat="47.08229" lon="-0.7896">
        <ele>207.574</ele>
        <time>2020-02-26T13:48:51Z</time>
      </trkpt>
      <trkpt lat="47.08226" lon="-0.78967">
        <ele>207.58</ele>
        <time>2020-02-26T13:48:55Z</time>
      </trkpt>
      <trkpt lat="47.08224" lon="-0.78976">
        <ele>207.581</ele>
        <time>2020-02-26T13:48:58Z</time>
      </trkpt>
      <trkpt lat="47.0822" lon="-0.78982">
        <ele>207.577</ele>
        <time>2020-02-26T13:49:02Z</time>
      </trkpt>
      <trkpt lat="47.08218" lon="-0.78989">
        <ele>207.573</ele>
        <time>2020-02-26T13:49:05Z</time>
      </trkpt>
      <trkpt lat="47.08216" lon="-0.78997">
        <ele>207.572</ele>
        <time>2020-02-26T13:49:07Z</time>
      </trkpt>
      <trkpt lat="47.08213" lon="-0.79004">
        <ele>207.573</ele>
        <time>2020-02-26T13:49:09Z</time>
      </trkpt>
      <trkpt lat="47.08211" lon="-0.79011">
        <ele>207.576</ele>
        <time>2020-02-26T13:49:11Z</time>
      </trkpt>
      <trkpt lat="47.08207" lon="-0.79017">
        <ele>207.581</ele>
        <time>2020-02-26T13:49:15Z</time>
      </trkpt>
      <trkpt lat="47.08205" lon="-0.79024">
        <ele>207.586</ele>
        <time>2020-02-26T13:49:20Z</time>
      </trkpt>
      <trkpt lat="47.08201" lon="-0.79029">
        <ele>207.585</ele>
        <time>2020-02-26T13:49:23Z</time>
      </trkpt>
      <trkpt lat="47.08199" lon="-0.79035">
        <ele>207.585</ele>
        <time>2020-02-26T13:49:26Z</time>
      </trkpt>
      <trkpt lat="47.08194" lon="-0.79039">
        <ele>207.577</ele>
        <time>2020-02-26T13:49:30Z</time>
      </trkpt>
      <trkpt lat="47.0819" lon="-0.79044">
        <ele>207.56</ele>
        <time>2020-02-26T13:49:34Z</time>
      </trkpt>
      <trkpt lat="47.08189" lon="-0.79051">
        <ele>207.549</ele>
        <time>2020-02-26T13:49:37Z</time>
      </trkpt>
      <trkpt lat="47.08188" lon="-0.79057">
        <ele>207.533</ele>
        <time>2020-02-26T13:49:40Z</time>
      </trkpt>
      <trkpt lat="47.08189" lon="-0.79064">
        <ele>207.513</ele>
        <time>2020-02-26T13:49:43Z</time>
      </trkpt>
      <trkpt lat="47.08187" lon="-0.79072">
        <ele>207.484</ele>
        <time>2020-02-26T13:49:47Z</time>
      </trkpt>
      <trkpt lat="47.08184" lon="-0.79077">
        <ele>207.46</ele>
        <time>2020-02-26T13:49:50Z</time>
      </trkpt>
      <trkpt lat="47.08181" lon="-0.79082">
        <ele>207.44</ele>
        <time>2020-02-26T13:49:52Z</time>
      </trkpt>
      <trkpt lat="47.08178" lon="-0.79087">
        <ele>207.412</ele>
        <time>2020-02-26T13:49:55Z</time>
      </trkpt>
      <trkpt lat="47.08176" lon="-0.7909">
        <ele>207.391</ele>
        <time>2020-02-26T13:49:57Z</time>
      </trkpt>
      <trkpt lat="47.08174" lon="-0.79093">
        <ele>207.37</ele>
        <time>2020-02-26T13:49:59Z</time>
      </trkpt>
      <trkpt lat="47.08172" lon="-0.79096">
        <ele>207.34</ele>
        <time>2020-02-26T13:50:02Z</time>
      </trkpt>
      <trkpt lat="47.08172" lon="-0.79096">
        <ele>146.6</ele>
        <time>2020-02-26T13:50:08Z</time>
      </trkpt>
      <trkpt lat="47.08172" lon="-0.79096">
        <ele>146.6</ele>
        <time>2020-02-26T13:51:30Z</time>
      </trkpt>
      <trkpt lat="47.08156" lon="-0.79132">
        <ele>206.484</ele>
        <time>2020-02-26T13:51:30Z</time>
      </trkpt>
      <trkpt lat="47.08153" lon="-0.79138">
        <ele>206.394</ele>
        <time>2020-02-26T13:51:34Z</time>
      </trkpt>
      <trkpt lat="47.08152" lon="-0.79141">
        <ele>206.331</ele>
        <time>2020-02-26T13:51:37Z</time>
      </trkpt>
      <trkpt lat="47.08148" lon="-0.79147">
        <ele>206.252</ele>
        <time>2020-02-26T13:51:41Z</time>
      </trkpt>
      <trkpt lat="47.08145" lon="-0.79152">
        <ele>206.197</ele>
        <time>2020-02-26T13:51:44Z</time>
      </trkpt>
      <trkpt lat="47.08143" lon="-0.79158">
        <ele>206.122</ele>
        <time>2020-02-26T13:51:48Z</time>
      </trkpt>
      <trkpt lat="47.08141" lon="-0.79163">
        <ele>206.028</ele>
        <time>2020-02-26T13:51:53Z</time>
      </trkpt>
      <trkpt lat="47.08137" lon="-0.79169">
        <ele>205.934</ele>
        <time>2020-02-26T13:51:58Z</time>
      </trkpt>
      <trkpt lat="47.08134" lon="-0.79175">
        <ele>205.877</ele>
        <time>2020-02-26T13:52:01Z</time>
      </trkpt>
      <trkpt lat="47.0813" lon="-0.79181">
        <ele>205.804</ele>
        <time>2020-02-26T13:52:05Z</time>
      </trkpt>
      <trkpt lat="47.08127" lon="-0.79186">
        <ele>205.75</ele>
        <time>2020-02-26T13:52:08Z</time>
      </trkpt>
      <trkpt lat="47.08123" lon="-0.79192">
        <ele>205.697</ele>
        <time>2020-02-26T13:52:11Z</time>
      </trkpt>
      <trkpt lat="47.0812" lon="-0.79196">
        <ele>205.663</ele>
        <time>2020-02-26T13:52:13Z</time>
      </trkpt>
      <trkpt lat="47.08117" lon="-0.79201">
        <ele>205.566</ele>
        <time>2020-02-26T13:52:19Z</time>
      </trkpt>
      <trkpt lat="47.08113" lon="-0.79207">
        <ele>205.505</ele>
        <time>2020-02-26T13:52:23Z</time>
      </trkpt>
      <trkpt lat="47.0811" lon="-0.79212">
        <ele>205.445</ele>
        <time>2020-02-26T13:52:27Z</time>
      </trkpt>
      <trkpt lat="47.08108" lon="-0.79221">
        <ele>205.385</ele>
        <time>2020-02-26T13:52:31Z</time>
      </trkpt>
      <trkpt lat="47.08105" lon="-0.79226">
        <ele>205.345</ele>
        <time>2020-02-26T13:52:34Z</time>
      </trkpt>
      <trkpt lat="47.08102" lon="-0.79232">
        <ele>205.293</ele>
        <time>2020-02-26T13:52:38Z</time>
      </trkpt>
      <trkpt lat="47.081" lon="-0.79238">
        <ele>205.257</ele>
        <time>2020-02-26T13:52:41Z</time>
      </trkpt>
      <trkpt lat="47.08098" lon="-0.79243">
        <ele>205.229</ele>
        <time>2020-02-26T13:52:44Z</time>
      </trkpt>
      <trkpt lat="47.08096" lon="-0.79248">
        <ele>205.202</ele>
        <time>2020-02-26T13:52:47Z</time>
      </trkpt>
      <trkpt lat="47.08095" lon="-0.79253">
        <ele>205.159</ele>
        <time>2020-02-26T13:52:52Z</time>
      </trkpt>
      <trkpt lat="47.08093" lon="-0.79259">
        <ele>205.126</ele>
        <time>2020-02-26T13:52:56Z</time>
      </trkpt>
      <trkpt lat="47.08089" lon="-0.79265">
        <ele>205.091</ele>
        <time>2020-02-26T13:53:00Z</time>
      </trkpt>
      <trkpt lat="47.08087" lon="-0.79268">
        <ele>205.075</ele>
        <time>2020-02-26T13:53:02Z</time>
      </trkpt>
      <trkpt lat="47.08084" lon="-0.79274">
        <ele>205.047</ele>
        <time>2020-02-26T13:53:06Z</time>
      </trkpt>
      <trkpt lat="47.08081" lon="-0.79282">
        <ele>205.026</ele>
        <time>2020-02-26T13:53:10Z</time>
      </trkpt>
      <trkpt lat="47.08078" lon="-0.79289">
        <ele>205.005</ele>
        <time>2020-02-26T13:53:15Z</time>
      </trkpt>
      <trkpt lat="47.08075" lon="-0.79294">
        <ele>204.99</ele>
        <time>2020-02-26T13:53:18Z</time>
      </trkpt>
      <trkpt lat="47.08072" lon="-0.79301">
        <ele>204.966</ele>
        <time>2020-02-26T13:53:22Z</time>
      </trkpt>
      <trkpt lat="47.0807" lon="-0.79305">
        <ele>204.943</ele>
        <time>2020-02-26T13:53:25Z</time>
      </trkpt>
      <trkpt lat="47.08066" lon="-0.79309">
        <ele>204.908</ele>
        <time>2020-02-26T13:53:29Z</time>
      </trkpt>
      <trkpt lat="47.08064" lon="-0.79318">
        <ele>204.873</ele>
        <time>2020-02-26T13:53:33Z</time>
      </trkpt>
      <trkpt lat="47.08061" lon="-0.79324">
        <ele>204.849</ele>
        <time>2020-02-26T13:53:36Z</time>
      </trkpt>
      <trkpt lat="47.08058" lon="-0.79331">
        <ele>204.829</ele>
        <time>2020-02-26T13:53:39Z</time>
      </trkpt>
      <trkpt lat="47.08056" lon="-0.79335">
        <ele>204.817</ele>
        <time>2020-02-26T13:53:41Z</time>
      </trkpt>
      <trkpt lat="47.08055" lon="-0.79342">
        <ele>204.801</ele>
        <time>2020-02-26T13:53:44Z</time>
      </trkpt>
      <trkpt lat="47.08051" lon="-0.79348">
        <ele>204.785</ele>
        <time>2020-02-26T13:53:47Z</time>
      </trkpt>
      <trkpt lat="47.08049" lon="-0.79352">
        <ele>204.771</ele>
        <time>2020-02-26T13:53:50Z</time>
      </trkpt>
      <trkpt lat="47.08047" lon="-0.79356">
        <ele>204.754</ele>
        <time>2020-02-26T13:53:53Z</time>
      </trkpt>
      <trkpt lat="47.08045" lon="-0.79359">
        <ele>204.736</ele>
        <time>2020-02-26T13:53:56Z</time>
      </trkpt>
      <trkpt lat="47.08042" lon="-0.79364">
        <ele>204.712</ele>
        <time>2020-02-26T13:54:00Z</time>
      </trkpt>
      <trkpt lat="47.0804" lon="-0.79371">
        <ele>204.672</ele>
        <time>2020-02-26T13:54:06Z</time>
      </trkpt>
      <trkpt lat="47.08039" lon="-0.79375">
        <ele>204.647</ele>
        <time>2020-02-26T13:54:09Z</time>
      </trkpt>
      <trkpt lat="47.08036" lon="-0.7938">
        <ele>204.602</ele>
        <time>2020-02-26T13:54:14Z</time>
      </trkpt>
      <trkpt lat="47.08034" lon="-0.79382">
        <ele>204.583</ele>
        <time>2020-02-26T13:54:16Z</time>
      </trkpt>
      <trkpt lat="47.08031" lon="-0.79387">
        <ele>204.548</ele>
        <time>2020-02-26T13:54:20Z</time>
      </trkpt>
      <trkpt lat="47.08029" lon="-0.79391">
        <ele>204.53</ele>
        <time>2020-02-26T13:54:22Z</time>
      </trkpt>
      <trkpt lat="47.08025" lon="-0.79396">
        <ele>204.503</ele>
        <time>2020-02-26T13:54:25Z</time>
      </trkpt>
      <trkpt lat="47.08024" lon="-0.79403">
        <ele>204.487</ele>
        <time>2020-02-26T13:54:27Z</time>
      </trkpt>
      <trkpt lat="47.08023" lon="-0.79407">
        <ele>204.48</ele>
        <time>2020-02-26T13:54:28Z</time>
      </trkpt>
      <trkpt lat="47.08021" lon="-0.79414">
        <ele>204.456</ele>
        <time>2020-02-26T13:54:32Z</time>
      </trkpt>
      <trkpt lat="47.08017" lon="-0.79421">
        <ele>204.435</ele>
        <time>2020-02-26T13:54:36Z</time>
      </trkpt>
      <trkpt lat="47.08015" lon="-0.79426">
        <ele>204.418</ele>
        <time>2020-02-26T13:54:40Z</time>
      </trkpt>
      <trkpt lat="47.08012" lon="-0.79433">
        <ele>204.399</ele>
        <time>2020-02-26T13:54:44Z</time>
      </trkpt>
      <trkpt lat="47.0801" lon="-0.7944">
        <ele>204.384</ele>
        <time>2020-02-26T13:54:48Z</time>
      </trkpt>
      <trkpt lat="47.08006" lon="-0.79447">
        <ele>204.37</ele>
        <time>2020-02-26T13:54:52Z</time>
      </trkpt>
      <trkpt lat="47.08001" lon="-0.79452">
        <ele>204.357</ele>
        <time>2020-02-26T13:54:56Z</time>
      </trkpt>
      <trkpt lat="47.07999" lon="-0.79455">
        <ele>204.348</ele>
        <time>2020-02-26T13:54:58Z</time>
      </trkpt>
      <trkpt lat="47.07995" lon="-0.7946">
        <ele>204.315</ele>
        <time>2020-02-26T13:55:03Z</time>
      </trkpt>
      <trkpt lat="47.07992" lon="-0.79466">
        <ele>204.265</ele>
        <time>2020-02-26T13:55:07Z</time>
      </trkpt>
      <trkpt lat="47.07988" lon="-0.79473">
        <ele>204.152</ele>
        <time>2020-02-26T13:55:12Z</time>
      </trkpt>
      <trkpt lat="47.07986" lon="-0.79476">
        <ele>204.066</ele>
        <time>2020-02-26T13:55:15Z</time>
      </trkpt>
      <trkpt lat="47.07984" lon="-0.79485">
        <ele>203.946</ele>
        <time>2020-02-26T13:55:19Z</time>
      </trkpt>
      <trkpt lat="47.07983" lon="-0.79488">
        <ele>203.88</ele>
        <time>2020-02-26T13:55:21Z</time>
      </trkpt>
      <trkpt lat="47.07982" lon="-0.79492">
        <ele>203.774</ele>
        <time>2020-02-26T13:55:24Z</time>
      </trkpt>
      <trkpt lat="47.0798" lon="-0.79501">
        <ele>203.669</ele>
        <time>2020-02-26T13:55:27Z</time>
      </trkpt>
      <trkpt lat="47.07979" lon="-0.79509">
        <ele>203.486</ele>
        <time>2020-02-26T13:55:32Z</time>
      </trkpt>
      <trkpt lat="47.07979" lon="-0.79515">
        <ele>203.408</ele>
        <time>2020-02-26T13:55:34Z</time>
      </trkpt>
      <trkpt lat="47.0798" lon="-0.79522">
        <ele>203.216</ele>
        <time>2020-02-26T13:55:39Z</time>
      </trkpt>
      <trkpt lat="47.0798" lon="-0.79522">
        <ele>142.2</ele>
        <time>2020-02-26T13:55:47Z</time>
      </trkpt>
      <trkpt lat="47.0798" lon="-0.79522">
        <ele>142.2</ele>
        <time>2020-02-26T13:55:54Z</time>
      </trkpt>
      <trkpt lat="47.07977" lon="-0.79538">
        <ele>202.811</ele>
        <time>2020-02-26T13:55:54Z</time>
      </trkpt>
      <trkpt lat="47.07977" lon="-0.79538">
        <ele>202.811</ele>
        <time>2020-02-26T13:56:01Z</time>
      </trkpt>
      <trkpt lat="47.07977" lon="-0.79538">
        <ele>141.9</ele>
        <time>2020-02-26T13:56:01Z</time>
      </trkpt>
      <trkpt lat="47.07977" lon="-0.79538">
        <ele>141.9</ele>
        <time>2020-02-26T13:56:15Z</time>
      </trkpt>
      <trkpt lat="47.07969" lon="-0.79553">
        <ele>202.336</ele>
        <time>2020-02-26T13:56:15Z</time>
      </trkpt>
      <trkpt lat="47.07969" lon="-0.79553">
        <ele>202.336</ele>
        <time>2020-02-26T13:56:23Z</time>
      </trkpt>
      <trkpt lat="47.07969" lon="-0.79553">
        <ele>142</ele>
        <time>2020-02-26T13:56:23Z</time>
      </trkpt>
      <trkpt lat="47.07969" lon="-0.79553">
        <ele>142</ele>
        <time>2020-02-26T13:56:34Z</time>
      </trkpt>
      <trkpt lat="47.07956" lon="-0.79563">
        <ele>201.657</ele>
        <time>2020-02-26T13:56:34Z</time>
      </trkpt>
      <trkpt lat="47.07951" lon="-0.79563">
        <ele>201.476</ele>
        <time>2020-02-26T13:56:39Z</time>
      </trkpt>
      <trkpt lat="47.07951" lon="-0.79563">
        <ele>141.9</ele>
        <time>2020-02-26T13:56:47Z</time>
      </trkpt>
      <trkpt lat="47.07951" lon="-0.79563">
        <ele>141.9</ele>
        <time>2020-02-26T13:56:54Z</time>
      </trkpt>
      <trkpt lat="47.07947" lon="-0.79573">
        <ele>201.006</ele>
        <time>2020-02-26T13:56:54Z</time>
      </trkpt>
      <trkpt lat="47.07944" lon="-0.79578">
        <ele>200.809</ele>
        <time>2020-02-26T13:57:00Z</time>
      </trkpt>
      <trkpt lat="47.07943" lon="-0.79581">
        <ele>200.698</ele>
        <time>2020-02-26T13:57:03Z</time>
      </trkpt>
      <trkpt lat="47.0794" lon="-0.79589">
        <ele>200.507</ele>
        <time>2020-02-26T13:57:08Z</time>
      </trkpt>
      <trkpt lat="47.07939" lon="-0.79594">
        <ele>200.337</ele>
        <time>2020-02-26T13:57:13Z</time>
      </trkpt>
      <trkpt lat="47.07937" lon="-0.796">
        <ele>200.117</ele>
        <time>2020-02-26T13:57:19Z</time>
      </trkpt>
      <trkpt lat="47.07936" lon="-0.79603">
        <ele>200.009</ele>
        <time>2020-02-26T13:57:22Z</time>
      </trkpt>
      <trkpt lat="47.07934" lon="-0.79609">
        <ele>199.902</ele>
        <time>2020-02-26T13:57:25Z</time>
      </trkpt>
      <trkpt lat="47.07933" lon="-0.79615">
        <ele>199.795</ele>
        <time>2020-02-26T13:57:28Z</time>
      </trkpt>
      <trkpt lat="47.07931" lon="-0.79619">
        <ele>199.722</ele>
        <time>2020-02-26T13:57:30Z</time>
      </trkpt>
      <trkpt lat="47.0793" lon="-0.79623">
        <ele>199.65</ele>
        <time>2020-02-26T13:57:32Z</time>
      </trkpt>
      <trkpt lat="47.07928" lon="-0.79632">
        <ele>199.503</ele>
        <time>2020-02-26T13:57:36Z</time>
      </trkpt>
      <trkpt lat="47.07926" lon="-0.79638">
        <ele>199.426</ele>
        <time>2020-02-26T13:57:39Z</time>
      </trkpt>
      <trkpt lat="47.07924" lon="-0.79644">
        <ele>199.28</ele>
        <time>2020-02-26T13:57:43Z</time>
      </trkpt>
      <trkpt lat="47.0792" lon="-0.79649">
        <ele>199.104</ele>
        <time>2020-02-26T13:57:48Z</time>
      </trkpt>
      <trkpt lat="47.07919" lon="-0.79652">
        <ele>199.04</ele>
        <time>2020-02-26T13:57:50Z</time>
      </trkpt>
      <trkpt lat="47.07917" lon="-0.79654">
        <ele>198.978</ele>
        <time>2020-02-26T13:57:52Z</time>
      </trkpt>
      <trkpt lat="47.07915" lon="-0.79662">
        <ele>198.808</ele>
        <time>2020-02-26T13:57:58Z</time>
      </trkpt>
      <trkpt lat="47.07915" lon="-0.79666">
        <ele>198.779</ele>
        <time>2020-02-26T13:57:59Z</time>
      </trkpt>
      <trkpt lat="47.07912" lon="-0.79672">
        <ele>198.636</ele>
        <time>2020-02-26T13:58:04Z</time>
      </trkpt>
      <trkpt lat="47.07911" lon="-0.79677">
        <ele>198.554</ele>
        <time>2020-02-26T13:58:07Z</time>
      </trkpt>
      <trkpt lat="47.07908" lon="-0.79683">
        <ele>198.45</ele>
        <time>2020-02-26T13:58:11Z</time>
      </trkpt>
      <trkpt lat="47.07904" lon="-0.7969">
        <ele>198.35</ele>
        <time>2020-02-26T13:58:15Z</time>
      </trkpt>
      <trkpt lat="47.079" lon="-0.79697">
        <ele>198.252</ele>
        <time>2020-02-26T13:58:19Z</time>
      </trkpt>
      <trkpt lat="47.07897" lon="-0.79701">
        <ele>198.206</ele>
        <time>2020-02-26T13:58:21Z</time>
      </trkpt>
      <trkpt lat="47.07895" lon="-0.79704">
        <ele>198.185</ele>
        <time>2020-02-26T13:58:22Z</time>
      </trkpt>
      <trkpt lat="47.07894" lon="-0.79707">
        <ele>198.163</ele>
        <time>2020-02-26T13:58:23Z</time>
      </trkpt>
      <trkpt lat="47.07891" lon="-0.7971">
        <ele>198.101</ele>
        <time>2020-02-26T13:58:26Z</time>
      </trkpt>
      <trkpt lat="47.07889" lon="-0.79714">
        <ele>198.049</ele>
        <time>2020-02-26T13:58:29Z</time>
      </trkpt>
      <trkpt lat="47.07885" lon="-0.7972">
        <ele>198</ele>
        <time>2020-02-26T13:58:32Z</time>
      </trkpt>
      <trkpt lat="47.07882" lon="-0.79724">
        <ele>197.971</ele>
        <time>2020-02-26T13:58:34Z</time>
      </trkpt>
      <trkpt lat="47.07881" lon="-0.79731">
        <ele>197.908</ele>
        <time>2020-02-26T13:58:39Z</time>
      </trkpt>
      <trkpt lat="47.07877" lon="-0.79736">
        <ele>197.855</ele>
        <time>2020-02-26T13:58:44Z</time>
      </trkpt>
      <trkpt lat="47.07875" lon="-0.79743">
        <ele>197.812</ele>
        <time>2020-02-26T13:58:48Z</time>
      </trkpt>
      <trkpt lat="47.07874" lon="-0.79747">
        <ele>197.785</ele>
        <time>2020-02-26T13:58:50Z</time>
      </trkpt>
      <trkpt lat="47.07873" lon="-0.79753">
        <ele>197.73</ele>
        <time>2020-02-26T13:58:54Z</time>
      </trkpt>
      <trkpt lat="47.0787" lon="-0.79758">
        <ele>197.679</ele>
        <time>2020-02-26T13:58:58Z</time>
      </trkpt>
      <trkpt lat="47.07865" lon="-0.79764">
        <ele>197.626</ele>
        <time>2020-02-26T13:59:02Z</time>
      </trkpt>
      <trkpt lat="47.07862" lon="-0.79769">
        <ele>197.542</ele>
        <time>2020-02-26T13:59:09Z</time>
      </trkpt>
      <trkpt lat="47.0786" lon="-0.79772">
        <ele>197.526</ele>
        <time>2020-02-26T13:59:11Z</time>
      </trkpt>
      <trkpt lat="47.07858" lon="-0.79774">
        <ele>197.506</ele>
        <time>2020-02-26T13:59:14Z</time>
      </trkpt>
      <trkpt lat="47.07855" lon="-0.79779">
        <ele>197.483</ele>
        <time>2020-02-26T13:59:18Z</time>
      </trkpt>
      <trkpt lat="47.07853" lon="-0.79782">
        <ele>197.473</ele>
        <time>2020-02-26T13:59:20Z</time>
      </trkpt>
      <trkpt lat="47.07851" lon="-0.79787">
        <ele>197.452</ele>
        <time>2020-02-26T13:59:24Z</time>
      </trkpt>
      <trkpt lat="47.07849" lon="-0.79789">
        <ele>197.444</ele>
        <time>2020-02-26T13:59:26Z</time>
      </trkpt>
      <trkpt lat="47.07846" lon="-0.79797">
        <ele>197.419</ele>
        <time>2020-02-26T13:59:30Z</time>
      </trkpt>
      <trkpt lat="47.07843" lon="-0.79802">
        <ele>197.384</ele>
        <time>2020-02-26T13:59:34Z</time>
      </trkpt>
      <trkpt lat="47.0784" lon="-0.79807">
        <ele>197.359</ele>
        <time>2020-02-26T13:59:37Z</time>
      </trkpt>
      <trkpt lat="47.07837" lon="-0.79813">
        <ele>197.336</ele>
        <time>2020-02-26T13:59:40Z</time>
      </trkpt>
      <trkpt lat="47.07834" lon="-0.79819">
        <ele>197.315</ele>
        <time>2020-02-26T13:59:43Z</time>
      </trkpt>
      <trkpt lat="47.07835" lon="-0.79828">
        <ele>197.296</ele>
        <time>2020-02-26T13:59:47Z</time>
      </trkpt>
      <trkpt lat="47.07835" lon="-0.79836">
        <ele>197.286</ele>
        <time>2020-02-26T13:59:50Z</time>
      </trkpt>
      <trkpt lat="47.07833" lon="-0.79842">
        <ele>197.284</ele>
        <time>2020-02-26T13:59:53Z</time>
      </trkpt>
      <trkpt lat="47.07834" lon="-0.7985">
        <ele>197.289</ele>
        <time>2020-02-26T13:59:56Z</time>
      </trkpt>
      <trkpt lat="47.07834" lon="-0.79855">
        <ele>197.303</ele>
        <time>2020-02-26T13:59:59Z</time>
      </trkpt>
      <trkpt lat="47.07835" lon="-0.79858">
        <ele>197.313</ele>
        <time>2020-02-26T14:00:01Z</time>
      </trkpt>
      <trkpt lat="47.07833" lon="-0.79865">
        <ele>197.332</ele>
        <time>2020-02-26T14:00:04Z</time>
      </trkpt>
      <trkpt lat="47.0783" lon="-0.79871">
        <ele>197.362</ele>
        <time>2020-02-26T14:00:08Z</time>
      </trkpt>
      <trkpt lat="47.07828" lon="-0.79874">
        <ele>197.379</ele>
        <time>2020-02-26T14:00:10Z</time>
      </trkpt>
      <trkpt lat="47.07826" lon="-0.79877">
        <ele>197.397</ele>
        <time>2020-02-26T14:00:12Z</time>
      </trkpt>
      <trkpt lat="47.07824" lon="-0.79885">
        <ele>197.445</ele>
        <time>2020-02-26T14:00:17Z</time>
      </trkpt>
      <trkpt lat="47.07822" lon="-0.79891">
        <ele>197.486</ele>
        <time>2020-02-26T14:00:22Z</time>
      </trkpt>
      <trkpt lat="47.07821" lon="-0.79895">
        <ele>197.502</ele>
        <time>2020-02-26T14:00:24Z</time>
      </trkpt>
      <trkpt lat="47.07818" lon="-0.79901">
        <ele>197.544</ele>
        <time>2020-02-26T14:00:29Z</time>
      </trkpt>
      <trkpt lat="47.07816" lon="-0.79905">
        <ele>197.579</ele>
        <time>2020-02-26T14:00:33Z</time>
      </trkpt>
      <trkpt lat="47.07814" lon="-0.79908">
        <ele>197.593</ele>
        <time>2020-02-26T14:00:35Z</time>
      </trkpt>
      <trkpt lat="47.07812" lon="-0.79915">
        <ele>197.618</ele>
        <time>2020-02-26T14:00:40Z</time>
      </trkpt>
      <trkpt lat="47.07811" lon="-0.79919">
        <ele>197.637</ele>
        <time>2020-02-26T14:00:44Z</time>
      </trkpt>
      <trkpt lat="47.07806" lon="-0.79926">
        <ele>197.653</ele>
        <time>2020-02-26T14:00:48Z</time>
      </trkpt>
      <trkpt lat="47.07803" lon="-0.79929">
        <ele>197.662</ele>
        <time>2020-02-26T14:00:51Z</time>
      </trkpt>
      <trkpt lat="47.078" lon="-0.79937">
        <ele>197.657</ele>
        <time>2020-02-26T14:00:55Z</time>
      </trkpt>
      <trkpt lat="47.07796" lon="-0.79943">
        <ele>197.643</ele>
        <time>2020-02-26T14:00:59Z</time>
      </trkpt>
      <trkpt lat="47.07794" lon="-0.79947">
        <ele>197.628</ele>
        <time>2020-02-26T14:01:02Z</time>
      </trkpt>
      <trkpt lat="47.0779" lon="-0.79957">
        <ele>197.612</ele>
        <time>2020-02-26T14:01:07Z</time>
      </trkpt>
      <trkpt lat="47.07787" lon="-0.79964">
        <ele>197.609</ele>
        <time>2020-02-26T14:01:10Z</time>
      </trkpt>
      <trkpt lat="47.07786" lon="-0.79971">
        <ele>197.604</ele>
        <time>2020-02-26T14:01:13Z</time>
      </trkpt>
      <trkpt lat="47.07782" lon="-0.79978">
        <ele>197.602</ele>
        <time>2020-02-26T14:01:15Z</time>
      </trkpt>
      <trkpt lat="47.07779" lon="-0.79984">
        <ele>197.596</ele>
        <time>2020-02-26T14:01:19Z</time>
      </trkpt>
      <trkpt lat="47.07777" lon="-0.79992">
        <ele>197.593</ele>
        <time>2020-02-26T14:01:24Z</time>
      </trkpt>
      <trkpt lat="47.07775" lon="-0.79997">
        <ele>197.6</ele>
        <time>2020-02-26T14:01:29Z</time>
      </trkpt>
      <trkpt lat="47.07772" lon="-0.80006">
        <ele>197.597</ele>
        <time>2020-02-26T14:01:34Z</time>
      </trkpt>
      <trkpt lat="47.0777" lon="-0.80012">
        <ele>197.587</ele>
        <time>2020-02-26T14:01:38Z</time>
      </trkpt>
      <trkpt lat="47.07767" lon="-0.80018">
        <ele>197.578</ele>
        <time>2020-02-26T14:01:41Z</time>
      </trkpt>
      <trkpt lat="47.07765" lon="-0.80022">
        <ele>197.57</ele>
        <time>2020-02-26T14:01:43Z</time>
      </trkpt>
      <trkpt lat="47.07762" lon="-0.80029">
        <ele>197.555</ele>
        <time>2020-02-26T14:01:47Z</time>
      </trkpt>
      <trkpt lat="47.0776" lon="-0.80038">
        <ele>197.541</ele>
        <time>2020-02-26T14:01:52Z</time>
      </trkpt>
      <trkpt lat="47.07758" lon="-0.80045">
        <ele>197.53</ele>
        <time>2020-02-26T14:01:55Z</time>
      </trkpt>
      <trkpt lat="47.07757" lon="-0.80051">
        <ele>197.515</ele>
        <time>2020-02-26T14:02:00Z</time>
      </trkpt>
      <trkpt lat="47.07754" lon="-0.80059">
        <ele>197.504</ele>
        <time>2020-02-26T14:02:03Z</time>
      </trkpt>
      <trkpt lat="47.07752" lon="-0.80064">
        <ele>197.493</ele>
        <time>2020-02-26T14:02:05Z</time>
      </trkpt>
      <trkpt lat="47.0775" lon="-0.80068">
        <ele>197.478</ele>
        <time>2020-02-26T14:02:08Z</time>
      </trkpt>
      <trkpt lat="47.07747" lon="-0.80075">
        <ele>197.456</ele>
        <time>2020-02-26T14:02:14Z</time>
      </trkpt>
      <trkpt lat="47.07745" lon="-0.80083">
        <ele>197.444</ele>
        <time>2020-02-26T14:02:18Z</time>
      </trkpt>
      <trkpt lat="47.07742" lon="-0.80088">
        <ele>197.439</ele>
        <time>2020-02-26T14:02:21Z</time>
      </trkpt>
      <trkpt lat="47.0774" lon="-0.80092">
        <ele>197.445</ele>
        <time>2020-02-26T14:02:24Z</time>
      </trkpt>
      <trkpt lat="47.07739" lon="-0.80099">
        <ele>197.47</ele>
        <time>2020-02-26T14:02:27Z</time>
      </trkpt>
      <trkpt lat="47.07737" lon="-0.80105">
        <ele>197.545</ele>
        <time>2020-02-26T14:02:33Z</time>
      </trkpt>
      <trkpt lat="47.07732" lon="-0.80116">
        <ele>197.607</ele>
        <time>2020-02-26T14:02:37Z</time>
      </trkpt>
      <trkpt lat="47.07727" lon="-0.80121">
        <ele>197.669</ele>
        <time>2020-02-26T14:02:41Z</time>
      </trkpt>
      <trkpt lat="47.07724" lon="-0.80127">
        <ele>197.695</ele>
        <time>2020-02-26T14:02:43Z</time>
      </trkpt>
      <trkpt lat="47.0772" lon="-0.80132">
        <ele>197.736</ele>
        <time>2020-02-26T14:02:47Z</time>
      </trkpt>
      <trkpt lat="47.07719" lon="-0.80135">
        <ele>197.762</ele>
        <time>2020-02-26T14:02:50Z</time>
      </trkpt>
      <trkpt lat="47.07716" lon="-0.8014">
        <ele>197.794</ele>
        <time>2020-02-26T14:02:54Z</time>
      </trkpt>
      <trkpt lat="47.07714" lon="-0.80144">
        <ele>197.808</ele>
        <time>2020-02-26T14:02:56Z</time>
      </trkpt>
      <trkpt lat="47.07707" lon="-0.80152">
        <ele>197.838</ele>
        <time>2020-02-26T14:03:01Z</time>
      </trkpt>
      <trkpt lat="47.07705" lon="-0.8016">
        <ele>197.862</ele>
        <time>2020-02-26T14:03:05Z</time>
      </trkpt>
      <trkpt lat="47.07703" lon="-0.80166">
        <ele>197.876</ele>
        <time>2020-02-26T14:03:07Z</time>
      </trkpt>
      <trkpt lat="47.07698" lon="-0.80171">
        <ele>197.905</ele>
        <time>2020-02-26T14:03:11Z</time>
      </trkpt>
      <trkpt lat="47.07695" lon="-0.80177">
        <ele>197.931</ele>
        <time>2020-02-26T14:03:14Z</time>
      </trkpt>
      <trkpt lat="47.07694" lon="-0.80183">
        <ele>197.995</ele>
        <time>2020-02-26T14:03:19Z</time>
      </trkpt>
      <trkpt lat="47.07694" lon="-0.80189">
        <ele>198.053</ele>
        <time>2020-02-26T14:03:23Z</time>
      </trkpt>
      <trkpt lat="47.07694" lon="-0.80195">
        <ele>198.123</ele>
        <time>2020-02-26T14:03:28Z</time>
      </trkpt>
      <trkpt lat="47.0769" lon="-0.802">
        <ele>198.16</ele>
        <time>2020-02-26T14:03:31Z</time>
      </trkpt>
      <trkpt lat="47.07687" lon="-0.80205">
        <ele>198.185</ele>
        <time>2020-02-26T14:03:34Z</time>
      </trkpt>
      <trkpt lat="47.07682" lon="-0.80208">
        <ele>198.204</ele>
        <time>2020-02-26T14:03:38Z</time>
      </trkpt>
      <trkpt lat="47.07679" lon="-0.80214">
        <ele>198.209</ele>
        <time>2020-02-26T14:03:41Z</time>
      </trkpt>
      <trkpt lat="47.07677" lon="-0.8022">
        <ele>198.215</ele>
        <time>2020-02-26T14:03:45Z</time>
      </trkpt>
      <trkpt lat="47.07676" lon="-0.80228">
        <ele>198.211</ele>
        <time>2020-02-26T14:03:50Z</time>
      </trkpt>
      <trkpt lat="47.07673" lon="-0.80234">
        <ele>198.212</ele>
        <time>2020-02-26T14:03:55Z</time>
      </trkpt>
      <trkpt lat="47.07671" lon="-0.80242">
        <ele>198.222</ele>
        <time>2020-02-26T14:04:00Z</time>
      </trkpt>
      <trkpt lat="47.07668" lon="-0.80248">
        <ele>198.218</ele>
        <time>2020-02-26T14:04:03Z</time>
      </trkpt>
      <trkpt lat="47.07668" lon="-0.80248">
        <ele>198.218</ele>
        <time>2020-02-26T14:04:09Z</time>
      </trkpt>
      <trkpt lat="47.07668" lon="-0.80248">
        <ele>138.1</ele>
        <time>2020-02-26T14:04:09Z</time>
      </trkpt>
      <trkpt lat="47.07668" lon="-0.80248">
        <ele>138.1</ele>
        <time>2020-02-26T14:04:24Z</time>
      </trkpt>
      <trkpt lat="47.07654" lon="-0.80268">
        <ele>198.156</ele>
        <time>2020-02-26T14:04:24Z</time>
      </trkpt>
      <trkpt lat="47.07651" lon="-0.80273">
        <ele>198.147</ele>
        <time>2020-02-26T14:04:25Z</time>
      </trkpt>
      <trkpt lat="47.07647" lon="-0.80281">
        <ele>198.125</ele>
        <time>2020-02-26T14:04:27Z</time>
      </trkpt>
      <trkpt lat="47.07643" lon="-0.80287">
        <ele>198.059</ele>
        <time>2020-02-26T14:04:31Z</time>
      </trkpt>
      <trkpt lat="47.0764" lon="-0.80293">
        <ele>197.993</ele>
        <time>2020-02-26T14:04:35Z</time>
      </trkpt>
      <trkpt lat="47.07638" lon="-0.80297">
        <ele>197.933</ele>
        <time>2020-02-26T14:04:39Z</time>
      </trkpt>
      <trkpt lat="47.07635" lon="-0.80303">
        <ele>197.858</ele>
        <time>2020-02-26T14:04:44Z</time>
      </trkpt>
      <trkpt lat="47.07632" lon="-0.80308">
        <ele>197.818</ele>
        <time>2020-02-26T14:04:47Z</time>
      </trkpt>
      <trkpt lat="47.07629" lon="-0.80314">
        <ele>197.779</ele>
        <time>2020-02-26T14:04:50Z</time>
      </trkpt>
      <trkpt lat="47.07626" lon="-0.80319">
        <ele>197.739</ele>
        <time>2020-02-26T14:04:53Z</time>
      </trkpt>
      <trkpt lat="47.07624" lon="-0.80325">
        <ele>197.665</ele>
        <time>2020-02-26T14:04:59Z</time>
      </trkpt>
      <trkpt lat="47.07621" lon="-0.80333">
        <ele>197.62</ele>
        <time>2020-02-26T14:05:02Z</time>
      </trkpt>
      <trkpt lat="47.07619" lon="-0.80341">
        <ele>197.577</ele>
        <time>2020-02-26T14:05:05Z</time>
      </trkpt>
      <trkpt lat="47.07616" lon="-0.80348">
        <ele>197.512</ele>
        <time>2020-02-26T14:05:09Z</time>
      </trkpt>
      <trkpt lat="47.07615" lon="-0.80356">
        <ele>197.474</ele>
        <time>2020-02-26T14:05:12Z</time>
      </trkpt>
      <trkpt lat="47.07612" lon="-0.80362">
        <ele>197.399</ele>
        <time>2020-02-26T14:05:17Z</time>
      </trkpt>
      <trkpt lat="47.07607" lon="-0.80367">
        <ele>197.315</ele>
        <time>2020-02-26T14:05:22Z</time>
      </trkpt>
      <trkpt lat="47.07604" lon="-0.80372">
        <ele>197.259</ele>
        <time>2020-02-26T14:05:25Z</time>
      </trkpt>
      <trkpt lat="47.07602" lon="-0.8038">
        <ele>197.199</ele>
        <time>2020-02-26T14:05:28Z</time>
      </trkpt>
      <trkpt lat="47.07604" lon="-0.80387">
        <ele>197.146</ele>
        <time>2020-02-26T14:05:32Z</time>
      </trkpt>
      <trkpt lat="47.07601" lon="-0.80393">
        <ele>197.013</ele>
        <time>2020-02-26T14:05:37Z</time>
      </trkpt>
      <trkpt lat="47.07599" lon="-0.804">
        <ele>196.899</ele>
        <time>2020-02-26T14:05:44Z</time>
      </trkpt>
      <trkpt lat="47.07597" lon="-0.80406">
        <ele>196.778</ele>
        <time>2020-02-26T14:05:49Z</time>
      </trkpt>
      <trkpt lat="47.07597" lon="-0.80406">
        <ele>135.2</ele>
        <time>2020-02-26T14:05:56Z</time>
      </trkpt>
      <trkpt lat="47.07597" lon="-0.80406">
        <ele>135.2</ele>
        <time>2020-02-26T14:06:03Z</time>
      </trkpt>
      <trkpt lat="47.07595" lon="-0.80414">
        <ele>196.615</ele>
        <time>2020-02-26T14:06:03Z</time>
      </trkpt>
      <trkpt lat="47.07593" lon="-0.80419">
        <ele>196.531</ele>
        <time>2020-02-26T14:06:15Z</time>
      </trkpt>
      <trkpt lat="47.07592" lon="-0.80428">
        <ele>196.504</ele>
        <time>2020-02-26T14:06:25Z</time>
      </trkpt>
      <trkpt lat="47.0759" lon="-0.80435">
        <ele>196.482</ele>
        <time>2020-02-26T14:06:30Z</time>
      </trkpt>
      <trkpt lat="47.07585" lon="-0.80436">
        <ele>196.445</ele>
        <time>2020-02-26T14:06:37Z</time>
      </trkpt>
      <trkpt lat="47.07582" lon="-0.80442">
        <ele>196.409</ele>
        <time>2020-02-26T14:06:44Z</time>
      </trkpt>
      <trkpt lat="47.0758" lon="-0.8045">
        <ele>196.38</ele>
        <time>2020-02-26T14:06:48Z</time>
      </trkpt>
      <trkpt lat="47.07575" lon="-0.80457">
        <ele>196.347</ele>
        <time>2020-02-26T14:06:53Z</time>
      </trkpt>
      <trkpt lat="47.07573" lon="-0.80464">
        <ele>196.317</ele>
        <time>2020-02-26T14:06:57Z</time>
      </trkpt>
      <trkpt lat="47.07572" lon="-0.80467">
        <ele>196.299</ele>
        <time>2020-02-26T14:06:59Z</time>
      </trkpt>
      <trkpt lat="47.0757" lon="-0.80474">
        <ele>196.255</ele>
        <time>2020-02-26T14:07:04Z</time>
      </trkpt>
      <trkpt lat="47.07566" lon="-0.80478">
        <ele>196.211</ele>
        <time>2020-02-26T14:07:10Z</time>
      </trkpt>
      <trkpt lat="47.07563" lon="-0.80483">
        <ele>196.19</ele>
        <time>2020-02-26T14:07:13Z</time>
      </trkpt>
      <trkpt lat="47.0756" lon="-0.80486">
        <ele>196.174</ele>
        <time>2020-02-26T14:07:15Z</time>
      </trkpt>
      <trkpt lat="47.07559" lon="-0.80489">
        <ele>196.165</ele>
        <time>2020-02-26T14:07:17Z</time>
      </trkpt>
      <trkpt lat="47.07556" lon="-0.80496">
        <ele>196.126</ele>
        <time>2020-02-26T14:07:21Z</time>
      </trkpt>
      <trkpt lat="47.07555" lon="-0.805">
        <ele>196.109</ele>
        <time>2020-02-26T14:07:23Z</time>
      </trkpt>
      <trkpt lat="47.07552" lon="-0.80505">
        <ele>196.092</ele>
        <time>2020-02-26T14:07:25Z</time>
      </trkpt>
      <trkpt lat="47.07551" lon="-0.80509">
        <ele>196.068</ele>
        <time>2020-02-26T14:07:28Z</time>
      </trkpt>
      <trkpt lat="47.07549" lon="-0.80515">
        <ele>196.035</ele>
        <time>2020-02-26T14:07:32Z</time>
      </trkpt>
      <trkpt lat="47.07549" lon="-0.80519">
        <ele>196.017</ele>
        <time>2020-02-26T14:07:34Z</time>
      </trkpt>
      <trkpt lat="47.07548" lon="-0.80523">
        <ele>195.989</ele>
        <time>2020-02-26T14:07:37Z</time>
      </trkpt>
      <trkpt lat="47.07546" lon="-0.80527">
        <ele>195.971</ele>
        <time>2020-02-26T14:07:39Z</time>
      </trkpt>
      <trkpt lat="47.07542" lon="-0.80535">
        <ele>195.916</ele>
        <time>2020-02-26T14:07:46Z</time>
      </trkpt>
      <trkpt lat="47.0754" lon="-0.80542">
        <ele>195.888</ele>
        <time>2020-02-26T14:07:50Z</time>
      </trkpt>
      <trkpt lat="47.07537" lon="-0.8055">
        <ele>195.867</ele>
        <time>2020-02-26T14:07:53Z</time>
      </trkpt>
      <trkpt lat="47.07534" lon="-0.80555">
        <ele>195.854</ele>
        <time>2020-02-26T14:07:55Z</time>
      </trkpt>
      <trkpt lat="47.07533" lon="-0.80563">
        <ele>195.821</ele>
        <time>2020-02-26T14:07:59Z</time>
      </trkpt>
      <trkpt lat="47.0753" lon="-0.80569">
        <ele>195.793</ele>
        <time>2020-02-26T14:08:02Z</time>
      </trkpt>
      <trkpt lat="47.07526" lon="-0.80575">
        <ele>195.752</ele>
        <time>2020-02-26T14:08:06Z</time>
      </trkpt>
      <trkpt lat="47.07522" lon="-0.80581">
        <ele>195.704</ele>
        <time>2020-02-26T14:08:10Z</time>
      </trkpt>
      <trkpt lat="47.07519" lon="-0.80586">
        <ele>195.666</ele>
        <time>2020-02-26T14:08:13Z</time>
      </trkpt>
      <trkpt lat="47.07516" lon="-0.80593">
        <ele>195.609</ele>
        <time>2020-02-26T14:08:18Z</time>
      </trkpt>
      <trkpt lat="47.07513" lon="-0.806">
        <ele>195.578</ele>
        <time>2020-02-26T14:08:21Z</time>
      </trkpt>
      <trkpt lat="47.07512" lon="-0.80604">
        <ele>195.541</ele>
        <time>2020-02-26T14:08:25Z</time>
      </trkpt>
      <trkpt lat="47.07511" lon="-0.80607">
        <ele>195.532</ele>
        <time>2020-02-26T14:08:26Z</time>
      </trkpt>
      <trkpt lat="47.07506" lon="-0.80613">
        <ele>195.505</ele>
        <time>2020-02-26T14:08:30Z</time>
      </trkpt>
      <trkpt lat="47.07504" lon="-0.80619">
        <ele>195.494</ele>
        <time>2020-02-26T14:08:32Z</time>
      </trkpt>
      <trkpt lat="47.07503" lon="-0.80622">
        <ele>195.484</ele>
        <time>2020-02-26T14:08:34Z</time>
      </trkpt>
      <trkpt lat="47.07501" lon="-0.80627">
        <ele>195.47</ele>
        <time>2020-02-26T14:08:37Z</time>
      </trkpt>
      <trkpt lat="47.075" lon="-0.80634">
        <ele>195.447</ele>
        <time>2020-02-26T14:08:41Z</time>
      </trkpt>
      <trkpt lat="47.07499" lon="-0.80637">
        <ele>195.428</ele>
        <time>2020-02-26T14:08:44Z</time>
      </trkpt>
      <trkpt lat="47.07496" lon="-0.80643">
        <ele>195.392</ele>
        <time>2020-02-26T14:08:49Z</time>
      </trkpt>
      <trkpt lat="47.0749" lon="-0.80656">
        <ele>195.339</ele>
        <time>2020-02-26T14:08:56Z</time>
      </trkpt>
      <trkpt lat="47.07489" lon="-0.8066">
        <ele>195.322</ele>
        <time>2020-02-26T14:08:58Z</time>
      </trkpt>
      <trkpt lat="47.07487" lon="-0.80664">
        <ele>195.306</ele>
        <time>2020-02-26T14:09:00Z</time>
      </trkpt>
      <trkpt lat="47.07485" lon="-0.80671">
        <ele>195.243</ele>
        <time>2020-02-26T14:09:06Z</time>
      </trkpt>
      <trkpt lat="47.07483" lon="-0.80681">
        <ele>195.213</ele>
        <time>2020-02-26T14:09:09Z</time>
      </trkpt>
      <trkpt lat="47.07482" lon="-0.80685">
        <ele>195.196</ele>
        <time>2020-02-26T14:09:11Z</time>
      </trkpt>
      <trkpt lat="47.07478" lon="-0.80691">
        <ele>195.147</ele>
        <time>2020-02-26T14:09:20Z</time>
      </trkpt>
      <trkpt lat="47.07474" lon="-0.80692">
        <ele>195.129</ele>
        <time>2020-02-26T14:09:27Z</time>
      </trkpt>
      <trkpt lat="47.07469" lon="-0.80691">
        <ele>195.121</ele>
        <time>2020-02-26T14:09:34Z</time>
      </trkpt>
      <trkpt lat="47.07465" lon="-0.80686">
        <ele>195.123</ele>
        <time>2020-02-26T14:09:41Z</time>
      </trkpt>
      <trkpt lat="47.07463" lon="-0.80684">
        <ele>195.123</ele>
        <time>2020-02-26T14:09:49Z</time>
      </trkpt>
      <trkpt lat="47.07461" lon="-0.80681">
        <ele>195.114</ele>
        <time>2020-02-26T14:09:57Z</time>
      </trkpt>
      <trkpt lat="47.07456" lon="-0.80677">
        <ele>195.029</ele>
        <time>2020-02-26T14:10:15Z</time>
      </trkpt>
      <trkpt lat="47.07454" lon="-0.80674">
        <ele>194.964</ele>
        <time>2020-02-26T14:10:22Z</time>
      </trkpt>
      <trkpt lat="47.07452" lon="-0.80671">
        <ele>194.855</ele>
        <time>2020-02-26T14:10:32Z</time>
      </trkpt>
      <trkpt lat="47.07448" lon="-0.80667">
        <ele>194.765</ele>
        <time>2020-02-26T14:10:44Z</time>
      </trkpt>
      <trkpt lat="47.07444" lon="-0.80666">
        <ele>194.692</ele>
        <time>2020-02-26T14:10:55Z</time>
      </trkpt>
      <trkpt lat="47.07439" lon="-0.80668">
        <ele>194.65</ele>
        <time>2020-02-26T14:11:01Z</time>
      </trkpt>
      <trkpt lat="47.07436" lon="-0.80669">
        <ele>194.63</ele>
        <time>2020-02-26T14:11:05Z</time>
      </trkpt>
      <trkpt lat="47.07432" lon="-0.80673">
        <ele>194.606</ele>
        <time>2020-02-26T14:11:09Z</time>
      </trkpt>
      <trkpt lat="47.07431" lon="-0.8068">
        <ele>194.566</ele>
        <time>2020-02-26T14:11:14Z</time>
      </trkpt>
      <trkpt lat="47.07432" lon="-0.80688">
        <ele>194.523</ele>
        <time>2020-02-26T14:11:18Z</time>
      </trkpt>
      <trkpt lat="47.07434" lon="-0.80694">
        <ele>194.49</ele>
        <time>2020-02-26T14:11:21Z</time>
      </trkpt>
      <trkpt lat="47.07435" lon="-0.80698">
        <ele>194.468</ele>
        <time>2020-02-26T14:11:23Z</time>
      </trkpt>
      <trkpt lat="47.07437" lon="-0.80703">
        <ele>194.431</ele>
        <time>2020-02-26T14:11:26Z</time>
      </trkpt>
      <trkpt lat="47.07438" lon="-0.8071">
        <ele>194.376</ele>
        <time>2020-02-26T14:11:30Z</time>
      </trkpt>
      <trkpt lat="47.07439" lon="-0.80715">
        <ele>194.334</ele>
        <time>2020-02-26T14:11:33Z</time>
      </trkpt>
      <trkpt lat="47.07438" lon="-0.80723">
        <ele>194.265</ele>
        <time>2020-02-26T14:11:38Z</time>
      </trkpt>
      <trkpt lat="47.07438" lon="-0.80728">
        <ele>194.223</ele>
        <time>2020-02-26T14:11:41Z</time>
      </trkpt>
      <trkpt lat="47.07438" lon="-0.80736">
        <ele>194.157</ele>
        <time>2020-02-26T14:11:46Z</time>
      </trkpt>
      <trkpt lat="47.07437" lon="-0.8074">
        <ele>194.135</ele>
        <time>2020-02-26T14:11:48Z</time>
      </trkpt>
      <trkpt lat="47.07437" lon="-0.80745">
        <ele>194.114</ele>
        <time>2020-02-26T14:11:50Z</time>
      </trkpt>
      <trkpt lat="47.07436" lon="-0.80752">
        <ele>194.07</ele>
        <time>2020-02-26T14:11:55Z</time>
      </trkpt>
      <trkpt lat="47.07436" lon="-0.80755">
        <ele>194.056</ele>
        <time>2020-02-26T14:11:57Z</time>
      </trkpt>
      <trkpt lat="47.07436" lon="-0.8076">
        <ele>194.043</ele>
        <time>2020-02-26T14:11:59Z</time>
      </trkpt>
      <trkpt lat="47.07436" lon="-0.80766">
        <ele>194.018</ele>
        <time>2020-02-26T14:12:03Z</time>
      </trkpt>
      <trkpt lat="47.07436" lon="-0.80771">
        <ele>193.998</ele>
        <time>2020-02-26T14:12:06Z</time>
      </trkpt>
      <trkpt lat="47.07435" lon="-0.80775">
        <ele>193.983</ele>
        <time>2020-02-26T14:12:08Z</time>
      </trkpt>
      <trkpt lat="47.07435" lon="-0.80783">
        <ele>193.951</ele>
        <time>2020-02-26T14:12:12Z</time>
      </trkpt>
      <trkpt lat="47.07433" lon="-0.8079">
        <ele>193.926</ele>
        <time>2020-02-26T14:12:15Z</time>
      </trkpt>
      <trkpt lat="47.07433" lon="-0.80797">
        <ele>193.893</ele>
        <time>2020-02-26T14:12:19Z</time>
      </trkpt>
      <trkpt lat="47.07432" lon="-0.80805">
        <ele>193.864</ele>
        <time>2020-02-26T14:12:23Z</time>
      </trkpt>
      <trkpt lat="47.07431" lon="-0.80812">
        <ele>193.847</ele>
        <time>2020-02-26T14:12:26Z</time>
      </trkpt>
      <trkpt lat="47.07431" lon="-0.80816">
        <ele>193.825</ele>
        <time>2020-02-26T14:12:31Z</time>
      </trkpt>
      <trkpt lat="47.0743" lon="-0.80823">
        <ele>193.81</ele>
        <time>2020-02-26T14:12:36Z</time>
      </trkpt>
      <trkpt lat="47.07429" lon="-0.8083">
        <ele>193.804</ele>
        <time>2020-02-26T14:12:39Z</time>
      </trkpt>
      <trkpt lat="47.07429" lon="-0.80834">
        <ele>193.8</ele>
        <time>2020-02-26T14:12:41Z</time>
      </trkpt>
      <trkpt lat="47.0743" lon="-0.8084">
        <ele>193.785</ele>
        <time>2020-02-26T14:12:45Z</time>
      </trkpt>
      <trkpt lat="47.0743" lon="-0.80847">
        <ele>193.773</ele>
        <time>2020-02-26T14:12:48Z</time>
      </trkpt>
      <trkpt lat="47.0743" lon="-0.80853">
        <ele>193.76</ele>
        <time>2020-02-26T14:12:51Z</time>
      </trkpt>
      <trkpt lat="47.0743" lon="-0.80857">
        <ele>193.747</ele>
        <time>2020-02-26T14:12:54Z</time>
      </trkpt>
      <trkpt lat="47.07431" lon="-0.80862">
        <ele>193.737</ele>
        <time>2020-02-26T14:12:56Z</time>
      </trkpt>
      <trkpt lat="47.07432" lon="-0.80869">
        <ele>193.704</ele>
        <time>2020-02-26T14:13:02Z</time>
      </trkpt>
      <trkpt lat="47.0743" lon="-0.80875">
        <ele>193.682</ele>
        <time>2020-02-26T14:13:06Z</time>
      </trkpt>
      <trkpt lat="47.0743" lon="-0.80882">
        <ele>193.659</ele>
        <time>2020-02-26T14:13:10Z</time>
      </trkpt>
      <trkpt lat="47.07429" lon="-0.80889">
        <ele>193.624</ele>
        <time>2020-02-26T14:13:16Z</time>
      </trkpt>
      <trkpt lat="47.07428" lon="-0.80896">
        <ele>193.595</ele>
        <time>2020-02-26T14:13:21Z</time>
      </trkpt>
      <trkpt lat="47.07426" lon="-0.80903">
        <ele>193.569</ele>
        <time>2020-02-26T14:13:25Z</time>
      </trkpt>
      <trkpt lat="47.07427" lon="-0.80909">
        <ele>193.532</ele>
        <time>2020-02-26T14:13:32Z</time>
      </trkpt>
      <trkpt lat="47.07427" lon="-0.80913">
        <ele>193.524</ele>
        <time>2020-02-26T14:13:33Z</time>
      </trkpt>
      <trkpt lat="47.07427" lon="-0.80921">
        <ele>193.499</ele>
        <time>2020-02-26T14:13:36Z</time>
      </trkpt>
      <trkpt lat="47.07426" lon="-0.80927">
        <ele>193.462</ele>
        <time>2020-02-26T14:13:40Z</time>
      </trkpt>
      <trkpt lat="47.07425" lon="-0.80933">
        <ele>193.443</ele>
        <time>2020-02-26T14:13:42Z</time>
      </trkpt>
      <trkpt lat="47.07425" lon="-0.80936">
        <ele>193.434</ele>
        <time>2020-02-26T14:13:43Z</time>
      </trkpt>
      <trkpt lat="47.07424" lon="-0.80942">
        <ele>193.417</ele>
        <time>2020-02-26T14:13:45Z</time>
      </trkpt>
      <trkpt lat="47.07423" lon="-0.80947">
        <ele>193.39</ele>
        <time>2020-02-26T14:13:48Z</time>
      </trkpt>
      <trkpt lat="47.07422" lon="-0.80954">
        <ele>193.356</ele>
        <time>2020-02-26T14:13:52Z</time>
      </trkpt>
      <trkpt lat="47.07421" lon="-0.80958">
        <ele>193.339</ele>
        <time>2020-02-26T14:13:54Z</time>
      </trkpt>
      <trkpt lat="47.07421" lon="-0.80966">
        <ele>193.316</ele>
        <time>2020-02-26T14:13:57Z</time>
      </trkpt>
      <trkpt lat="47.07421" lon="-0.80969">
        <ele>193.301</ele>
        <time>2020-02-26T14:13:59Z</time>
      </trkpt>
      <trkpt lat="47.0742" lon="-0.80978">
        <ele>193.27</ele>
        <time>2020-02-26T14:14:03Z</time>
      </trkpt>
      <trkpt lat="47.07421" lon="-0.80986">
        <ele>193.239</ele>
        <time>2020-02-26T14:14:07Z</time>
      </trkpt>
      <trkpt lat="47.07422" lon="-0.80992">
        <ele>193.208</ele>
        <time>2020-02-26T14:14:11Z</time>
      </trkpt>
      <trkpt lat="47.07422" lon="-0.81">
        <ele>193.178</ele>
        <time>2020-02-26T14:14:15Z</time>
      </trkpt>
      <trkpt lat="47.07422" lon="-0.81005">
        <ele>193.162</ele>
        <time>2020-02-26T14:14:17Z</time>
      </trkpt>
      <trkpt lat="47.07423" lon="-0.8101">
        <ele>193.137</ele>
        <time>2020-02-26T14:14:20Z</time>
      </trkpt>
      <trkpt lat="47.07423" lon="-0.81015">
        <ele>193.102</ele>
        <time>2020-02-26T14:14:24Z</time>
      </trkpt>
      <trkpt lat="47.07423" lon="-0.81022">
        <ele>193.077</ele>
        <time>2020-02-26T14:14:27Z</time>
      </trkpt>
      <trkpt lat="47.07424" lon="-0.81029">
        <ele>193.041</ele>
        <time>2020-02-26T14:14:31Z</time>
      </trkpt>
      <trkpt lat="47.07424" lon="-0.81033">
        <ele>193.019</ele>
        <time>2020-02-26T14:14:33Z</time>
      </trkpt>
      <trkpt lat="47.07426" lon="-0.8104">
        <ele>192.981</ele>
        <time>2020-02-26T14:14:36Z</time>
      </trkpt>
      <trkpt lat="47.07427" lon="-0.81046">
        <ele>192.94</ele>
        <time>2020-02-26T14:14:39Z</time>
      </trkpt>
      <trkpt lat="47.07428" lon="-0.81054">
        <ele>192.882</ele>
        <time>2020-02-26T14:14:43Z</time>
      </trkpt>
      <trkpt lat="47.07428" lon="-0.81057">
        <ele>192.851</ele>
        <time>2020-02-26T14:14:45Z</time>
      </trkpt>
      <trkpt lat="47.0743" lon="-0.81064">
        <ele>192.787</ele>
        <time>2020-02-26T14:14:49Z</time>
      </trkpt>
      <trkpt lat="47.07431" lon="-0.81071">
        <ele>192.707</ele>
        <time>2020-02-26T14:14:54Z</time>
      </trkpt>
      <trkpt lat="47.07431" lon="-0.81075">
        <ele>192.69</ele>
        <time>2020-02-26T14:14:55Z</time>
      </trkpt>
      <trkpt lat="47.07432" lon="-0.81078">
        <ele>192.656</ele>
        <time>2020-02-26T14:14:57Z</time>
      </trkpt>
      <trkpt lat="47.07432" lon="-0.81084">
        <ele>192.586</ele>
        <time>2020-02-26T14:15:01Z</time>
      </trkpt>
      <trkpt lat="47.07432" lon="-0.81092">
        <ele>192.495</ele>
        <time>2020-02-26T14:15:06Z</time>
      </trkpt>
      <trkpt lat="47.07432" lon="-0.81101">
        <ele>192.422</ele>
        <time>2020-02-26T14:15:10Z</time>
      </trkpt>
      <trkpt lat="47.07432" lon="-0.81109">
        <ele>192.37</ele>
        <time>2020-02-26T14:15:13Z</time>
      </trkpt>
      <trkpt lat="47.07432" lon="-0.81116">
        <ele>192.303</ele>
        <time>2020-02-26T14:15:17Z</time>
      </trkpt>
      <trkpt lat="47.07433" lon="-0.81119">
        <ele>192.27</ele>
        <time>2020-02-26T14:15:19Z</time>
      </trkpt>
      <trkpt lat="47.07433" lon="-0.81124">
        <ele>192.237</ele>
        <time>2020-02-26T14:15:21Z</time>
      </trkpt>
      <trkpt lat="47.07433" lon="-0.81128">
        <ele>192.189</ele>
        <time>2020-02-26T14:15:24Z</time>
      </trkpt>
      <trkpt lat="47.07433" lon="-0.81132">
        <ele>192.158</ele>
        <time>2020-02-26T14:15:26Z</time>
      </trkpt>
      <trkpt lat="47.07433" lon="-0.81136">
        <ele>192.113</ele>
        <time>2020-02-26T14:15:29Z</time>
      </trkpt>
      <trkpt lat="47.07434" lon="-0.81143">
        <ele>192.071</ele>
        <time>2020-02-26T14:15:32Z</time>
      </trkpt>
      <trkpt lat="47.07434" lon="-0.81151">
        <ele>192.032</ele>
        <time>2020-02-26T14:15:35Z</time>
      </trkpt>
      <trkpt lat="47.07434" lon="-0.81154">
        <ele>192.007</ele>
        <time>2020-02-26T14:15:37Z</time>
      </trkpt>
      <trkpt lat="47.07434" lon="-0.81159">
        <ele>191.983</ele>
        <time>2020-02-26T14:15:39Z</time>
      </trkpt>
      <trkpt lat="47.07436" lon="-0.81168">
        <ele>191.924</ele>
        <time>2020-02-26T14:15:44Z</time>
      </trkpt>
      <trkpt lat="47.07435" lon="-0.81175">
        <ele>191.867</ele>
        <time>2020-02-26T14:15:49Z</time>
      </trkpt>
      <trkpt lat="47.07436" lon="-0.81183">
        <ele>191.832</ele>
        <time>2020-02-26T14:15:52Z</time>
      </trkpt>
      <trkpt lat="47.07437" lon="-0.8119">
        <ele>191.785</ele>
        <time>2020-02-26T14:15:56Z</time>
      </trkpt>
      <trkpt lat="47.0744" lon="-0.81197">
        <ele>191.739</ele>
        <time>2020-02-26T14:16:00Z</time>
      </trkpt>
      <trkpt lat="47.07441" lon="-0.81201">
        <ele>191.716</ele>
        <time>2020-02-26T14:16:02Z</time>
      </trkpt>
      <trkpt lat="47.07443" lon="-0.81208">
        <ele>191.673</ele>
        <time>2020-02-26T14:16:06Z</time>
      </trkpt>
      <trkpt lat="47.07443" lon="-0.81215">
        <ele>191.64</ele>
        <time>2020-02-26T14:16:09Z</time>
      </trkpt>
      <trkpt lat="47.07443" lon="-0.81221">
        <ele>191.62</ele>
        <time>2020-02-26T14:16:11Z</time>
      </trkpt>
      <trkpt lat="47.07444" lon="-0.81226">
        <ele>191.6</ele>
        <time>2020-02-26T14:16:13Z</time>
      </trkpt>
      <trkpt lat="47.07444" lon="-0.8123">
        <ele>191.581</ele>
        <time>2020-02-26T14:16:15Z</time>
      </trkpt>
      <trkpt lat="47.07444" lon="-0.81237">
        <ele>191.542</ele>
        <time>2020-02-26T14:16:19Z</time>
      </trkpt>
      <trkpt lat="47.07443" lon="-0.81243">
        <ele>191.512</ele>
        <time>2020-02-26T14:16:22Z</time>
      </trkpt>
      <trkpt lat="47.07443" lon="-0.81251">
        <ele>191.481</ele>
        <time>2020-02-26T14:16:25Z</time>
      </trkpt>
      <trkpt lat="47.07443" lon="-0.81257">
        <ele>191.461</ele>
        <time>2020-02-26T14:16:27Z</time>
      </trkpt>
      <trkpt lat="47.07442" lon="-0.81261">
        <ele>191.442</ele>
        <time>2020-02-26T14:16:29Z</time>
      </trkpt>
      <trkpt lat="47.07444" lon="-0.8127">
        <ele>191.405</ele>
        <time>2020-02-26T14:16:33Z</time>
      </trkpt>
      <trkpt lat="47.07446" lon="-0.81277">
        <ele>191.368</ele>
        <time>2020-02-26T14:16:37Z</time>
      </trkpt>
      <trkpt lat="47.07446" lon="-0.81285">
        <ele>191.332</ele>
        <time>2020-02-26T14:16:41Z</time>
      </trkpt>
      <trkpt lat="47.07446" lon="-0.81289">
        <ele>191.314</ele>
        <time>2020-02-26T14:16:43Z</time>
      </trkpt>
      <trkpt lat="47.07447" lon="-0.81293">
        <ele>191.295</ele>
        <time>2020-02-26T14:16:45Z</time>
      </trkpt>
      <trkpt lat="47.07447" lon="-0.81298">
        <ele>191.264</ele>
        <time>2020-02-26T14:16:48Z</time>
      </trkpt>
      <trkpt lat="47.07447" lon="-0.81304">
        <ele>191.234</ele>
        <time>2020-02-26T14:16:51Z</time>
      </trkpt>
      <trkpt lat="47.07447" lon="-0.81311">
        <ele>191.195</ele>
        <time>2020-02-26T14:16:55Z</time>
      </trkpt>
      <trkpt lat="47.07446" lon="-0.81317">
        <ele>191.166</ele>
        <time>2020-02-26T14:16:58Z</time>
      </trkpt>
      <trkpt lat="47.07446" lon="-0.81325">
        <ele>191.123</ele>
        <time>2020-02-26T14:17:02Z</time>
      </trkpt>
      <trkpt lat="47.07446" lon="-0.81332">
        <ele>191.082</ele>
        <time>2020-02-26T14:17:06Z</time>
      </trkpt>
      <trkpt lat="47.0745" lon="-0.81337">
        <ele>191.045</ele>
        <time>2020-02-26T14:17:10Z</time>
      </trkpt>
      <trkpt lat="47.07451" lon="-0.81345">
        <ele>191.006</ele>
        <time>2020-02-26T14:17:14Z</time>
      </trkpt>
      <trkpt lat="47.07451" lon="-0.81352">
        <ele>190.987</ele>
        <time>2020-02-26T14:17:16Z</time>
      </trkpt>
      <trkpt lat="47.0745" lon="-0.81359">
        <ele>190.962</ele>
        <time>2020-02-26T14:17:19Z</time>
      </trkpt>
      <trkpt lat="47.07449" lon="-0.81366">
        <ele>190.942</ele>
        <time>2020-02-26T14:17:22Z</time>
      </trkpt>
      <trkpt lat="47.07448" lon="-0.81371">
        <ele>190.92</ele>
        <time>2020-02-26T14:17:25Z</time>
      </trkpt>
      <trkpt lat="47.07447" lon="-0.81378">
        <ele>190.898</ele>
        <time>2020-02-26T14:17:28Z</time>
      </trkpt>
      <trkpt lat="47.07448" lon="-0.81385">
        <ele>190.876</ele>
        <time>2020-02-26T14:17:31Z</time>
      </trkpt>
      <trkpt lat="47.07449" lon="-0.81391">
        <ele>190.854</ele>
        <time>2020-02-26T14:17:34Z</time>
      </trkpt>
      <trkpt lat="47.07449" lon="-0.81398">
        <ele>190.833</ele>
        <time>2020-02-26T14:17:37Z</time>
      </trkpt>
      <trkpt lat="47.07449" lon="-0.81402">
        <ele>190.819</ele>
        <time>2020-02-26T14:17:39Z</time>
      </trkpt>
      <trkpt lat="47.07451" lon="-0.81408">
        <ele>190.784</ele>
        <time>2020-02-26T14:17:43Z</time>
      </trkpt>
      <trkpt lat="47.07451" lon="-0.81416">
        <ele>190.745</ele>
        <time>2020-02-26T14:17:47Z</time>
      </trkpt>
      <trkpt lat="47.07451" lon="-0.81421">
        <ele>190.718</ele>
        <time>2020-02-26T14:17:50Z</time>
      </trkpt>
      <trkpt lat="47.07451" lon="-0.81425">
        <ele>190.694</ele>
        <time>2020-02-26T14:17:53Z</time>
      </trkpt>
      <trkpt lat="47.07451" lon="-0.81433">
        <ele>190.654</ele>
        <time>2020-02-26T14:17:58Z</time>
      </trkpt>
      <trkpt lat="47.07451" lon="-0.81437">
        <ele>190.641</ele>
        <time>2020-02-26T14:18:00Z</time>
      </trkpt>
      <trkpt lat="47.07451" lon="-0.81442">
        <ele>190.628</ele>
        <time>2020-02-26T14:18:02Z</time>
      </trkpt>
      <trkpt lat="47.07451" lon="-0.81447">
        <ele>190.608</ele>
        <time>2020-02-26T14:18:05Z</time>
      </trkpt>
      <trkpt lat="47.07452" lon="-0.81454">
        <ele>190.582</ele>
        <time>2020-02-26T14:18:09Z</time>
      </trkpt>
      <trkpt lat="47.07451" lon="-0.8146">
        <ele>190.558</ele>
        <time>2020-02-26T14:18:13Z</time>
      </trkpt>
      <trkpt lat="47.07443" lon="-0.81466">
        <ele>190.517</ele>
        <time>2020-02-26T14:18:18Z</time>
      </trkpt>
      <trkpt lat="47.07439" lon="-0.81471">
        <ele>190.493</ele>
        <time>2020-02-26T14:18:21Z</time>
      </trkpt>
      <trkpt lat="47.07438" lon="-0.81474">
        <ele>190.478</ele>
        <time>2020-02-26T14:18:23Z</time>
      </trkpt>
      <trkpt lat="47.07435" lon="-0.81477">
        <ele>190.463</ele>
        <time>2020-02-26T14:18:25Z</time>
      </trkpt>
      <trkpt lat="47.0743" lon="-0.81481">
        <ele>190.402</ele>
        <time>2020-02-26T14:18:31Z</time>
      </trkpt>
      <trkpt lat="47.07425" lon="-0.81484">
        <ele>190.356</ele>
        <time>2020-02-26T14:18:35Z</time>
      </trkpt>
      <trkpt lat="47.07421" lon="-0.81488">
        <ele>190.325</ele>
        <time>2020-02-26T14:18:38Z</time>
      </trkpt>
      <trkpt lat="47.07419" lon="-0.8149">
        <ele>190.304</ele>
        <time>2020-02-26T14:18:40Z</time>
      </trkpt>
      <trkpt lat="47.07419" lon="-0.8149">
        <ele>129</ele>
        <time>2020-02-26T14:18:48Z</time>
      </trkpt>
      <trkpt lat="47.07419" lon="-0.8149">
        <ele>129</ele>
        <time>2020-02-26T14:18:55Z</time>
      </trkpt>
      <trkpt lat="47.07413" lon="-0.81492">
        <ele>190.195</ele>
        <time>2020-02-26T14:18:55Z</time>
      </trkpt>
      <trkpt lat="47.07408" lon="-0.81491">
        <ele>190.15</ele>
        <time>2020-02-26T14:19:00Z</time>
      </trkpt>
      <trkpt lat="47.07402" lon="-0.81492">
        <ele>190.117</ele>
        <time>2020-02-26T14:19:04Z</time>
      </trkpt>
      <trkpt lat="47.07397" lon="-0.81491">
        <ele>190.087</ele>
        <time>2020-02-26T14:19:08Z</time>
      </trkpt>
      <trkpt lat="47.07394" lon="-0.8149">
        <ele>190.073</ele>
        <time>2020-02-26T14:19:10Z</time>
      </trkpt>
      <trkpt lat="47.07394" lon="-0.8149">
        <ele>128.2</ele>
        <time>2020-02-26T14:19:17Z</time>
      </trkpt>
      <trkpt lat="47.07394" lon="-0.8149">
        <ele>128.2</ele>
        <time>2020-02-26T14:19:24Z</time>
      </trkpt>
      <trkpt lat="47.07383" lon="-0.8149">
        <ele>189.986</ele>
        <time>2020-02-26T14:19:24Z</time>
      </trkpt>
      <trkpt lat="47.07383" lon="-0.8149">
        <ele>189.986</ele>
        <time>2020-02-26T14:19:32Z</time>
      </trkpt>
      <trkpt lat="47.07383" lon="-0.8149">
        <ele>127.9</ele>
        <time>2020-02-26T14:19:32Z</time>
      </trkpt>
      <trkpt lat="47.07383" lon="-0.8149">
        <ele>127.9</ele>
        <time>2020-02-26T14:19:42Z</time>
      </trkpt>
      <trkpt lat="47.0737" lon="-0.81485">
        <ele>189.897</ele>
        <time>2020-02-26T14:19:42Z</time>
      </trkpt>
      <trkpt lat="47.07365" lon="-0.81483">
        <ele>189.879</ele>
        <time>2020-02-26T14:19:46Z</time>
      </trkpt>
      <trkpt lat="47.0736" lon="-0.81484">
        <ele>189.857</ele>
        <time>2020-02-26T14:19:51Z</time>
      </trkpt>
      <trkpt lat="47.07355" lon="-0.81483">
        <ele>189.84</ele>
        <time>2020-02-26T14:19:55Z</time>
      </trkpt>
      <trkpt lat="47.07351" lon="-0.81482">
        <ele>189.827</ele>
        <time>2020-02-26T14:19:58Z</time>
      </trkpt>
      <trkpt lat="47.07348" lon="-0.81481">
        <ele>189.818</ele>
        <time>2020-02-26T14:20:00Z</time>
      </trkpt>
      <trkpt lat="47.07345" lon="-0.81481">
        <ele>189.809</ele>
        <time>2020-02-26T14:20:02Z</time>
      </trkpt>
      <trkpt lat="47.07343" lon="-0.8148">
        <ele>189.795</ele>
        <time>2020-02-26T14:20:05Z</time>
      </trkpt>
      <trkpt lat="47.07343" lon="-0.8148">
        <ele>127.7</ele>
        <time>2020-02-26T14:20:12Z</time>
      </trkpt>
      <trkpt lat="47.07343" lon="-0.8148">
        <ele>127.7</ele>
        <time>2020-02-26T14:20:16Z</time>
      </trkpt>
      <trkpt lat="47.07334" lon="-0.8148">
        <ele>189.743</ele>
        <time>2020-02-26T14:20:16Z</time>
      </trkpt>
      <trkpt lat="47.07329" lon="-0.81479">
        <ele>189.718</ele>
        <time>2020-02-26T14:20:21Z</time>
      </trkpt>
      <trkpt lat="47.07326" lon="-0.81479">
        <ele>189.707</ele>
        <time>2020-02-26T14:20:23Z</time>
      </trkpt>
      <trkpt lat="47.07323" lon="-0.81479">
        <ele>189.696</ele>
        <time>2020-02-26T14:20:25Z</time>
      </trkpt>
      <trkpt lat="47.0732" lon="-0.81478">
        <ele>189.686</ele>
        <time>2020-02-26T14:20:27Z</time>
      </trkpt>
      <trkpt lat="47.07317" lon="-0.81477">
        <ele>189.675</ele>
        <time>2020-02-26T14:20:29Z</time>
      </trkpt>
      <trkpt lat="47.07314" lon="-0.81477">
        <ele>189.658</ele>
        <time>2020-02-26T14:20:32Z</time>
      </trkpt>
      <trkpt lat="47.0731" lon="-0.81476">
        <ele>189.646</ele>
        <time>2020-02-26T14:20:34Z</time>
      </trkpt>
      <trkpt lat="47.07308" lon="-0.81476">
        <ele>189.635</ele>
        <time>2020-02-26T14:20:36Z</time>
      </trkpt>
      <trkpt lat="47.07303" lon="-0.81475">
        <ele>189.611</ele>
        <time>2020-02-26T14:20:40Z</time>
      </trkpt>
      <trkpt lat="47.073" lon="-0.81475">
        <ele>189.6</ele>
        <time>2020-02-26T14:20:42Z</time>
      </trkpt>
      <trkpt lat="47.07296" lon="-0.81475">
        <ele>189.583</ele>
        <time>2020-02-26T14:20:45Z</time>
      </trkpt>
      <trkpt lat="47.07292" lon="-0.81476">
        <ele>189.569</ele>
        <time>2020-02-26T14:20:48Z</time>
      </trkpt>
      <trkpt lat="47.07286" lon="-0.81474">
        <ele>189.553</ele>
        <time>2020-02-26T14:20:52Z</time>
      </trkpt>
      <trkpt lat="47.07281" lon="-0.81473">
        <ele>189.538</ele>
        <time>2020-02-26T14:20:56Z</time>
      </trkpt>
      <trkpt lat="47.07279" lon="-0.81472">
        <ele>189.532</ele>
        <time>2020-02-26T14:20:58Z</time>
      </trkpt>
      <trkpt lat="47.07274" lon="-0.81473">
        <ele>189.516</ele>
        <time>2020-02-26T14:21:03Z</time>
      </trkpt>
      <trkpt lat="47.07269" lon="-0.81473">
        <ele>189.506</ele>
        <time>2020-02-26T14:21:06Z</time>
      </trkpt>
      <trkpt lat="47.07267" lon="-0.81473">
        <ele>189.501</ele>
        <time>2020-02-26T14:21:08Z</time>
      </trkpt>
      <trkpt lat="47.07261" lon="-0.81473">
        <ele>189.489</ele>
        <time>2020-02-26T14:21:13Z</time>
      </trkpt>
      <trkpt lat="47.07256" lon="-0.81471">
        <ele>189.48</ele>
        <time>2020-02-26T14:21:18Z</time>
      </trkpt>
      <trkpt lat="47.07251" lon="-0.8147">
        <ele>189.471</ele>
        <time>2020-02-26T14:21:23Z</time>
      </trkpt>
      <trkpt lat="47.07246" lon="-0.8147">
        <ele>189.463</ele>
        <time>2020-02-26T14:21:27Z</time>
      </trkpt>
      <trkpt lat="47.07243" lon="-0.81469">
        <ele>189.46</ele>
        <time>2020-02-26T14:21:29Z</time>
      </trkpt>
      <trkpt lat="47.07238" lon="-0.81468">
        <ele>189.457</ele>
        <time>2020-02-26T14:21:33Z</time>
      </trkpt>
      <trkpt lat="47.07235" lon="-0.81467">
        <ele>189.456</ele>
        <time>2020-02-26T14:21:35Z</time>
      </trkpt>
      <trkpt lat="47.07232" lon="-0.81466">
        <ele>189.456</ele>
        <time>2020-02-26T14:21:37Z</time>
      </trkpt>
      <trkpt lat="47.07229" lon="-0.81465">
        <ele>189.456</ele>
        <time>2020-02-26T14:21:40Z</time>
      </trkpt>
      <trkpt lat="47.07227" lon="-0.81464">
        <ele>189.456</ele>
        <time>2020-02-26T14:21:42Z</time>
      </trkpt>
      <trkpt lat="47.07224" lon="-0.81463">
        <ele>189.455</ele>
        <time>2020-02-26T14:21:44Z</time>
      </trkpt>
      <trkpt lat="47.07219" lon="-0.81463">
        <ele>189.451</ele>
        <time>2020-02-26T14:21:48Z</time>
      </trkpt>
      <trkpt lat="47.07217" lon="-0.81463">
        <ele>189.449</ele>
        <time>2020-02-26T14:21:50Z</time>
      </trkpt>
      <trkpt lat="47.07214" lon="-0.81462">
        <ele>189.448</ele>
        <time>2020-02-26T14:21:52Z</time>
      </trkpt>
      <trkpt lat="47.07209" lon="-0.81463">
        <ele>189.445</ele>
        <time>2020-02-26T14:21:56Z</time>
      </trkpt>
      <trkpt lat="47.07205" lon="-0.81463">
        <ele>189.441</ele>
        <time>2020-02-26T14:22:01Z</time>
      </trkpt>
      <trkpt lat="47.072" lon="-0.81464">
        <ele>189.431</ele>
        <time>2020-02-26T14:22:06Z</time>
      </trkpt>
      <trkpt lat="47.07194" lon="-0.81462">
        <ele>189.421</ele>
        <time>2020-02-26T14:22:10Z</time>
      </trkpt>
      <trkpt lat="47.07189" lon="-0.8146">
        <ele>189.413</ele>
        <time>2020-02-26T14:22:14Z</time>
      </trkpt>
      <trkpt lat="47.07186" lon="-0.81459">
        <ele>189.409</ele>
        <time>2020-02-26T14:22:16Z</time>
      </trkpt>
      <trkpt lat="47.07183" lon="-0.81459">
        <ele>189.405</ele>
        <time>2020-02-26T14:22:18Z</time>
      </trkpt>
      <trkpt lat="47.07178" lon="-0.81457">
        <ele>189.395</ele>
        <time>2020-02-26T14:22:22Z</time>
      </trkpt>
      <trkpt lat="47.07175" lon="-0.81456">
        <ele>189.389</ele>
        <time>2020-02-26T14:22:24Z</time>
      </trkpt>
      <trkpt lat="47.07171" lon="-0.81454">
        <ele>189.372</ele>
        <time>2020-02-26T14:22:29Z</time>
      </trkpt>
      <trkpt lat="47.07166" lon="-0.81453">
        <ele>189.352</ele>
        <time>2020-02-26T14:22:34Z</time>
      </trkpt>
      <trkpt lat="47.07163" lon="-0.81452">
        <ele>189.345</ele>
        <time>2020-02-26T14:22:36Z</time>
      </trkpt>
      <trkpt lat="47.07158" lon="-0.81454">
        <ele>189.328</ele>
        <time>2020-02-26T14:22:40Z</time>
      </trkpt>
      <trkpt lat="47.07154" lon="-0.81452">
        <ele>189.31</ele>
        <time>2020-02-26T14:22:44Z</time>
      </trkpt>
      <trkpt lat="47.07151" lon="-0.81451">
        <ele>189.302</ele>
        <time>2020-02-26T14:22:46Z</time>
      </trkpt>
      <trkpt lat="47.07147" lon="-0.81448">
        <ele>189.291</ele>
        <time>2020-02-26T14:22:49Z</time>
      </trkpt>
      <trkpt lat="47.07142" lon="-0.81449">
        <ele>189.274</ele>
        <time>2020-02-26T14:22:54Z</time>
      </trkpt>
      <trkpt lat="47.07137" lon="-0.81448">
        <ele>189.255</ele>
        <time>2020-02-26T14:22:59Z</time>
      </trkpt>
      <trkpt lat="47.07135" lon="-0.81448">
        <ele>189.247</ele>
        <time>2020-02-26T14:23:01Z</time>
      </trkpt>
      <trkpt lat="47.07131" lon="-0.81447">
        <ele>189.234</ele>
        <time>2020-02-26T14:23:04Z</time>
      </trkpt>
      <trkpt lat="47.07126" lon="-0.81447">
        <ele>189.215</ele>
        <time>2020-02-26T14:23:08Z</time>
      </trkpt>
      <trkpt lat="47.0712" lon="-0.81446">
        <ele>189.197</ele>
        <time>2020-02-26T14:23:12Z</time>
      </trkpt>
      <trkpt lat="47.07115" lon="-0.81446">
        <ele>189.18</ele>
        <time>2020-02-26T14:23:16Z</time>
      </trkpt>
      <trkpt lat="47.07113" lon="-0.81446">
        <ele>189.171</ele>
        <time>2020-02-26T14:23:18Z</time>
      </trkpt>
      <trkpt lat="47.07108" lon="-0.81447">
        <ele>189.158</ele>
        <time>2020-02-26T14:23:21Z</time>
      </trkpt>
      <trkpt lat="47.07103" lon="-0.81446">
        <ele>189.14</ele>
        <time>2020-02-26T14:23:25Z</time>
      </trkpt>
      <trkpt lat="47.071" lon="-0.81446">
        <ele>189.131</ele>
        <time>2020-02-26T14:23:27Z</time>
      </trkpt>
      <trkpt lat="47.07098" lon="-0.81445">
        <ele>189.119</ele>
        <time>2020-02-26T14:23:30Z</time>
      </trkpt>
      <trkpt lat="47.07093" lon="-0.81445">
        <ele>189.102</ele>
        <time>2020-02-26T14:23:34Z</time>
      </trkpt>
      <trkpt lat="47.0709" lon="-0.81445">
        <ele>189.094</ele>
        <time>2020-02-26T14:23:36Z</time>
      </trkpt>
      <trkpt lat="47.07085" lon="-0.81445">
        <ele>189.08</ele>
        <time>2020-02-26T14:23:40Z</time>
      </trkpt>
      <trkpt lat="47.07082" lon="-0.81445">
        <ele>189.071</ele>
        <time>2020-02-26T14:23:43Z</time>
      </trkpt>
      <trkpt lat="47.07076" lon="-0.81446">
        <ele>189.054</ele>
        <time>2020-02-26T14:23:48Z</time>
      </trkpt>
      <trkpt lat="47.07074" lon="-0.81447">
        <ele>189.047</ele>
        <time>2020-02-26T14:23:50Z</time>
      </trkpt>
      <trkpt lat="47.0707" lon="-0.81447">
        <ele>189.034</ele>
        <time>2020-02-26T14:23:54Z</time>
      </trkpt>
      <trkpt lat="47.07064" lon="-0.8145">
        <ele>189.021</ele>
        <time>2020-02-26T14:23:58Z</time>
      </trkpt>
      <trkpt lat="47.07061" lon="-0.81452">
        <ele>189.011</ele>
        <time>2020-02-26T14:24:01Z</time>
      </trkpt>
      <trkpt lat="47.07057" lon="-0.81456">
        <ele>188.993</ele>
        <time>2020-02-26T14:24:06Z</time>
      </trkpt>
      <trkpt lat="47.07057" lon="-0.81456">
        <ele>188.993</ele>
        <time>2020-02-26T14:24:13Z</time>
      </trkpt>
      <trkpt lat="47.07057" lon="-0.81456">
        <ele>127.6</ele>
        <time>2020-02-26T14:24:13Z</time>
      </trkpt>
      <trkpt lat="47.07057" lon="-0.81456">
        <ele>127.6</ele>
        <time>2020-02-26T14:24:23Z</time>
      </trkpt>
      <trkpt lat="47.0704" lon="-0.81462">
        <ele>188.942</ele>
        <time>2020-02-26T14:24:23Z</time>
      </trkpt>
      <trkpt lat="47.07035" lon="-0.81466">
        <ele>188.93</ele>
        <time>2020-02-26T14:24:27Z</time>
      </trkpt>
      <trkpt lat="47.07031" lon="-0.81469">
        <ele>188.918</ele>
        <time>2020-02-26T14:24:31Z</time>
      </trkpt>
      <trkpt lat="47.07027" lon="-0.81474">
        <ele>188.906</ele>
        <time>2020-02-26T14:24:35Z</time>
      </trkpt>
      <trkpt lat="47.07025" lon="-0.81477">
        <ele>188.9</ele>
        <time>2020-02-26T14:24:37Z</time>
      </trkpt>
      <trkpt lat="47.0702" lon="-0.81481">
        <ele>188.884</ele>
        <time>2020-02-26T14:24:42Z</time>
      </trkpt>
      <trkpt lat="47.07015" lon="-0.81483">
        <ele>188.871</ele>
        <time>2020-02-26T14:24:46Z</time>
      </trkpt>
      <trkpt lat="47.07011" lon="-0.81485">
        <ele>188.862</ele>
        <time>2020-02-26T14:24:49Z</time>
      </trkpt>
      <trkpt lat="47.07008" lon="-0.81486">
        <ele>188.853</ele>
        <time>2020-02-26T14:24:52Z</time>
      </trkpt>
      <trkpt lat="47.07004" lon="-0.81488">
        <ele>188.843</ele>
        <time>2020-02-26T14:24:56Z</time>
      </trkpt>
      <trkpt lat="47.06999" lon="-0.81492">
        <ele>188.834</ele>
        <time>2020-02-26T14:25:00Z</time>
      </trkpt>
      <trkpt lat="47.06996" lon="-0.81494">
        <ele>188.83</ele>
        <time>2020-02-26T14:25:02Z</time>
      </trkpt>
      <trkpt lat="47.06992" lon="-0.81497">
        <ele>188.82</ele>
        <time>2020-02-26T14:25:06Z</time>
      </trkpt>
      <trkpt lat="47.06989" lon="-0.81499">
        <ele>188.815</ele>
        <time>2020-02-26T14:25:08Z</time>
      </trkpt>
      <trkpt lat="47.06984" lon="-0.81501">
        <ele>188.805</ele>
        <time>2020-02-26T14:25:12Z</time>
      </trkpt>
      <trkpt lat="47.0698" lon="-0.81505">
        <ele>188.795</ele>
        <time>2020-02-26T14:25:16Z</time>
      </trkpt>
      <trkpt lat="47.06978" lon="-0.81507">
        <ele>188.79</ele>
        <time>2020-02-26T14:25:18Z</time>
      </trkpt>
      <trkpt lat="47.06973" lon="-0.81509">
        <ele>188.782</ele>
        <time>2020-02-26T14:25:22Z</time>
      </trkpt>
      <trkpt lat="47.06968" lon="-0.81512">
        <ele>188.77</ele>
        <time>2020-02-26T14:25:27Z</time>
      </trkpt>
      <trkpt lat="47.06965" lon="-0.81514">
        <ele>188.765</ele>
        <time>2020-02-26T14:25:29Z</time>
      </trkpt>
      <trkpt lat="47.0696" lon="-0.81516">
        <ele>188.752</ele>
        <time>2020-02-26T14:25:33Z</time>
      </trkpt>
      <trkpt lat="47.06956" lon="-0.81519">
        <ele>188.74</ele>
        <time>2020-02-26T14:25:37Z</time>
      </trkpt>
      <trkpt lat="47.06954" lon="-0.8152">
        <ele>188.734</ele>
        <time>2020-02-26T14:25:39Z</time>
      </trkpt>
      <trkpt lat="47.06949" lon="-0.81523">
        <ele>188.72</ele>
        <time>2020-02-26T14:25:44Z</time>
      </trkpt>
      <trkpt lat="47.06944" lon="-0.81525">
        <ele>188.705</ele>
        <time>2020-02-26T14:25:49Z</time>
      </trkpt>
      <trkpt lat="47.06941" lon="-0.81526">
        <ele>188.699</ele>
        <time>2020-02-26T14:25:51Z</time>
      </trkpt>
      <trkpt lat="47.06937" lon="-0.81529">
        <ele>188.688</ele>
        <time>2020-02-26T14:25:55Z</time>
      </trkpt>
      <trkpt lat="47.06935" lon="-0.81531">
        <ele>188.682</ele>
        <time>2020-02-26T14:25:57Z</time>
      </trkpt>
      <trkpt lat="47.0693" lon="-0.81536">
        <ele>188.668</ele>
        <time>2020-02-26T14:26:02Z</time>
      </trkpt>
      <trkpt lat="47.06925" lon="-0.81539">
        <ele>188.647</ele>
        <time>2020-02-26T14:26:09Z</time>
      </trkpt>
      <trkpt lat="47.06923" lon="-0.81545">
        <ele>188.61</ele>
        <time>2020-02-26T14:26:21Z</time>
      </trkpt>
      <trkpt lat="47.06918" lon="-0.81547">
        <ele>188.585</ele>
        <time>2020-02-26T14:26:31Z</time>
      </trkpt>
      <trkpt lat="47.06916" lon="-0.81548">
        <ele>188.578</ele>
        <time>2020-02-26T14:26:33Z</time>
      </trkpt>
      <trkpt lat="47.06911" lon="-0.81551">
        <ele>188.561</ele>
        <time>2020-02-26T14:26:37Z</time>
      </trkpt>
      <trkpt lat="47.06908" lon="-0.81553">
        <ele>188.549</ele>
        <time>2020-02-26T14:26:40Z</time>
      </trkpt>
      <trkpt lat="47.06904" lon="-0.81555">
        <ele>188.536</ele>
        <time>2020-02-26T14:26:43Z</time>
      </trkpt>
      <trkpt lat="47.069" lon="-0.81556">
        <ele>188.524</ele>
        <time>2020-02-26T14:26:46Z</time>
      </trkpt>
      <trkpt lat="47.069" lon="-0.81556">
        <ele>188.524</ele>
        <time>2020-02-26T14:26:54Z</time>
      </trkpt>
      <trkpt lat="47.069" lon="-0.81556">
        <ele>128.4</ele>
        <time>2020-02-26T14:26:54Z</time>
      </trkpt>
      <trkpt lat="47.069" lon="-0.81556">
        <ele>128.4</ele>
        <time>2020-02-26T14:27:26Z</time>
      </trkpt>
      <trkpt lat="47.0688" lon="-0.81544">
        <ele>188.407</ele>
        <time>2020-02-26T14:27:26Z</time>
      </trkpt>
      <trkpt lat="47.06876" lon="-0.8154">
        <ele>188.395</ele>
        <time>2020-02-26T14:27:31Z</time>
      </trkpt>
      <trkpt lat="47.06873" lon="-0.81535">
        <ele>188.387</ele>
        <time>2020-02-26T14:27:35Z</time>
      </trkpt>
      <trkpt lat="47.0687" lon="-0.8153">
        <ele>188.373</ele>
        <time>2020-02-26T14:27:40Z</time>
      </trkpt>
      <trkpt lat="47.06866" lon="-0.81527">
        <ele>188.353</ele>
        <time>2020-02-26T14:27:47Z</time>
      </trkpt>
      <trkpt lat="47.06863" lon="-0.81526">
        <ele>188.345</ele>
        <time>2020-02-26T14:27:49Z</time>
      </trkpt>
      <trkpt lat="47.06857" lon="-0.81523">
        <ele>188.328</ele>
        <time>2020-02-26T14:27:53Z</time>
      </trkpt>
      <trkpt lat="47.06853" lon="-0.81519">
        <ele>188.311</ele>
        <time>2020-02-26T14:27:57Z</time>
      </trkpt>
      <trkpt lat="47.0685" lon="-0.81516">
        <ele>188.301</ele>
        <time>2020-02-26T14:27:59Z</time>
      </trkpt>
      <trkpt lat="47.06846" lon="-0.81514">
        <ele>188.282</ele>
        <time>2020-02-26T14:28:03Z</time>
      </trkpt>
      <trkpt lat="47.06843" lon="-0.81513">
        <ele>188.278</ele>
        <time>2020-02-26T14:28:04Z</time>
      </trkpt>
      <trkpt lat="47.06839" lon="-0.81511">
        <ele>188.268</ele>
        <time>2020-02-26T14:28:06Z</time>
      </trkpt>
      <trkpt lat="47.06834" lon="-0.81508">
        <ele>188.255</ele>
        <time>2020-02-26T14:28:09Z</time>
      </trkpt>
      <trkpt lat="47.06829" lon="-0.81503">
        <ele>188.241</ele>
        <time>2020-02-26T14:28:12Z</time>
      </trkpt>
      <trkpt lat="47.06825" lon="-0.81498">
        <ele>188.229</ele>
        <time>2020-02-26T14:28:15Z</time>
      </trkpt>
      <trkpt lat="47.06819" lon="-0.81493">
        <ele>188.212</ele>
        <time>2020-02-26T14:28:19Z</time>
      </trkpt>
      <trkpt lat="47.06814" lon="-0.81489">
        <ele>188.195</ele>
        <time>2020-02-26T14:28:23Z</time>
      </trkpt>
      <trkpt lat="47.06811" lon="-0.81484">
        <ele>188.178</ele>
        <time>2020-02-26T14:28:27Z</time>
      </trkpt>
      <trkpt lat="47.06809" lon="-0.81482">
        <ele>188.17</ele>
        <time>2020-02-26T14:28:29Z</time>
      </trkpt>
      <trkpt lat="47.06805" lon="-0.81478">
        <ele>188.155</ele>
        <time>2020-02-26T14:28:33Z</time>
      </trkpt>
      <trkpt lat="47.06801" lon="-0.81476">
        <ele>188.139</ele>
        <time>2020-02-26T14:28:37Z</time>
      </trkpt>
      <trkpt lat="47.06798" lon="-0.81474">
        <ele>188.127</ele>
        <time>2020-02-26T14:28:40Z</time>
      </trkpt>
      <trkpt lat="47.06796" lon="-0.81472">
        <ele>188.119</ele>
        <time>2020-02-26T14:28:42Z</time>
      </trkpt>
      <trkpt lat="47.06791" lon="-0.81468">
        <ele>188.105</ele>
        <time>2020-02-26T14:28:46Z</time>
      </trkpt>
      <trkpt lat="47.06787" lon="-0.81464">
        <ele>188.092</ele>
        <time>2020-02-26T14:28:50Z</time>
      </trkpt>
      <trkpt lat="47.06784" lon="-0.81462">
        <ele>188.085</ele>
        <time>2020-02-26T14:28:52Z</time>
      </trkpt>
      <trkpt lat="47.0678" lon="-0.81458">
        <ele>188.068</ele>
        <time>2020-02-26T14:28:57Z</time>
      </trkpt>
      <trkpt lat="47.06775" lon="-0.81454">
        <ele>188.056</ele>
        <time>2020-02-26T14:29:01Z</time>
      </trkpt>
      <trkpt lat="47.06771" lon="-0.81449">
        <ele>188.045</ele>
        <time>2020-02-26T14:29:05Z</time>
      </trkpt>
      <trkpt lat="47.06767" lon="-0.81445">
        <ele>188.033</ele>
        <time>2020-02-26T14:29:09Z</time>
      </trkpt>
      <trkpt lat="47.06762" lon="-0.81441">
        <ele>188.021</ele>
        <time>2020-02-26T14:29:13Z</time>
      </trkpt>
      <trkpt lat="47.06757" lon="-0.81437">
        <ele>188.009</ele>
        <time>2020-02-26T14:29:17Z</time>
      </trkpt>
      <trkpt lat="47.06753" lon="-0.81435">
        <ele>187.997</ele>
        <time>2020-02-26T14:29:22Z</time>
      </trkpt>
      <trkpt lat="47.0675" lon="-0.8143">
        <ele>187.989</ele>
        <time>2020-02-26T14:29:26Z</time>
      </trkpt>
      <trkpt lat="47.06746" lon="-0.81426">
        <ele>187.976</ele>
        <time>2020-02-26T14:29:31Z</time>
      </trkpt>
      <trkpt lat="47.06743" lon="-0.81424">
        <ele>187.969</ele>
        <time>2020-02-26T14:29:34Z</time>
      </trkpt>
      <trkpt lat="47.06739" lon="-0.81421">
        <ele>187.959</ele>
        <time>2020-02-26T14:29:38Z</time>
      </trkpt>
      <trkpt lat="47.06735" lon="-0.81415">
        <ele>187.953</ele>
        <time>2020-02-26T14:29:41Z</time>
      </trkpt>
      <trkpt lat="47.06731" lon="-0.8141">
        <ele>187.941</ele>
        <time>2020-02-26T14:29:45Z</time>
      </trkpt>
      <trkpt lat="47.06729" lon="-0.81408">
        <ele>187.931</ele>
        <time>2020-02-26T14:29:48Z</time>
      </trkpt>
      <trkpt lat="47.06727" lon="-0.81405">
        <ele>187.923</ele>
        <time>2020-02-26T14:29:50Z</time>
      </trkpt>
      <trkpt lat="47.06725" lon="-0.81402">
        <ele>187.915</ele>
        <time>2020-02-26T14:29:52Z</time>
      </trkpt>
      <trkpt lat="47.06723" lon="-0.814">
        <ele>187.908</ele>
        <time>2020-02-26T14:29:54Z</time>
      </trkpt>
      <trkpt lat="47.06721" lon="-0.81397">
        <ele>187.9</ele>
        <time>2020-02-26T14:29:56Z</time>
      </trkpt>
      <trkpt lat="47.06718" lon="-0.81392">
        <ele>187.887</ele>
        <time>2020-02-26T14:30:00Z</time>
      </trkpt>
      <trkpt lat="47.06717" lon="-0.81389">
        <ele>187.882</ele>
        <time>2020-02-26T14:30:02Z</time>
      </trkpt>
      <trkpt lat="47.06713" lon="-0.81385">
        <ele>187.878</ele>
        <time>2020-02-26T14:30:07Z</time>
      </trkpt>
      <trkpt lat="47.0671" lon="-0.81382">
        <ele>187.878</ele>
        <time>2020-02-26T14:30:11Z</time>
      </trkpt>
      <trkpt lat="47.06706" lon="-0.81376">
        <ele>187.881</ele>
        <time>2020-02-26T14:30:19Z</time>
      </trkpt>
      <trkpt lat="47.06706" lon="-0.81376">
        <ele>130.6</ele>
        <time>2020-02-26T14:30:35Z</time>
      </trkpt>
      <trkpt lat="47.06706" lon="-0.81376">
        <ele>130.6</ele>
        <time>2020-02-26T14:30:43Z</time>
      </trkpt>
    </trkseg>
  </trk>
</gpx>